Temperatur und Luftfeuchte

Temperatur und Luftfeuchte

Nummer Datum und Zeit Sensor ID Temperatur in Celsius gef├╝hlte Temperatur Luftfeuchte in %
23734 2020-03-30 11:28:11 Terrasse 6.10 3.57 30.70
23733 2020-03-30 10:59:50 Terrasse 4.80 2.17 31.80
23732 2020-03-30 10:31:29 Terrasse 3.80 1.11 33.60
23731 2020-03-30 10:03:11 Terrasse 3.00 0.25 34.30
23730 2020-03-30 09:34:55 Terrasse 2.40 -0.37 35.80
23729 2020-03-30 09:06:40 Terrasse 1.90 -0.91 36.20
23728 2020-03-30 08:38:24 Terrasse 1.30 -1.51 38.50
23727 2020-03-30 08:10:08 Terrasse 0.70 -2.11 40.70
23726 2020-03-30 07:42:02 Terrasse 0.50 -2.32 41.00
23725 2020-03-30 07:13:49 Terrasse 0.50 -2.31 41.70
23724 2020-03-30 06:45:37 Terrasse 0.60 -2.20 41.60
23723 2020-03-30 06:17:26 Terrasse 0.80 -1.98 41.50
23722 2020-03-30 05:49:17 Terrasse 1.10 -1.64 41.90
23721 2020-03-30 05:21:06 Terrasse 1.30 -1.43 41.40
23720 2020-03-30 04:52:56 Terrasse 1.40 -1.31 41.80
23719 2020-03-30 04:24:45 Terrasse 1.70 -0.96 42.70
23718 2020-03-30 03:56:33 Terrasse 1.80 -0.82 43.90
23717 2020-03-30 03:28:38 Terrasse 2.00 -0.58 44.50
23716 2020-03-30 03:00:19 Terrasse 2.20 -0.34 45.20
23715 2020-03-30 02:32:07 Terrasse 2.40 -0.10 46.20
23714 2020-03-30 02:03:56 Terrasse 2.60 0.15 47.20
23713 2020-03-30 01:35:45 Terrasse 2.70 0.27 47.60
23712 2020-03-30 01:07:34 Terrasse 3.10 0.70 47.20
23711 2020-03-30 00:39:24 Terrasse 3.40 1.03 47.20
23710 2020-03-30 00:11:15 Terrasse 3.50 1.15 47.50
23709 2020-03-29 23:43:05 Terrasse 3.80 1.51 49.00
23708 2020-03-29 23:14:53 Terrasse 4.10 1.89 50.70
23707 2020-03-29 22:46:42 Terrasse 4.40 2.27 52.50
23706 2020-03-29 22:18:32 Terrasse 4.70 2.62 53.40
23705 2020-03-29 21:50:21 Terrasse 5.10 3.08 54.10
23704 2020-03-29 21:22:09 Terrasse 5.20 3.21 55.00
23703 2020-03-29 20:54:07 Terrasse 5.50 3.55 55.50
23702 2020-03-29 20:25:54 Terrasse 5.80 3.93 57.40
23701 2020-03-29 19:57:44 Terrasse 6.10 4.28 58.00
23700 2020-03-29 19:29:34 Terrasse 6.60 4.77 55.60
23699 2020-03-29 19:01:24 Terrasse 7.20 5.42 55.20
23698 2020-03-29 18:33:15 Terrasse 7.80 6.04 53.60
23697 2020-03-29 18:05:05 Terrasse 8.60 6.76 47.60
23696 2020-03-29 17:36:58 Terrasse 9.60 7.76 43.70
23695 2020-03-29 17:08:47 Terrasse 10.30 8.44 40.20
23694 2020-03-29 16:40:23 Terrasse 9.20 7.30 43.20
23693 2020-03-29 16:12:07 Terrasse 9.00 7.07 42.60
23692 2020-03-29 15:43:53 Terrasse 9.00 7.10 43.80
23691 2020-03-29 15:15:41 Terrasse 9.10 7.22 44.30
23690 2020-03-29 14:47:27 Terrasse 9.30 7.45 44.60
23689 2020-03-29 14:19:15 Terrasse 9.60 7.78 44.70
23688 2020-03-29 13:51:01 Terrasse 9.60 7.78 44.60
23687 2020-03-29 13:22:59 Terrasse 11.00 9.28 43.00
23686 2020-03-29 12:54:37 Terrasse 9.10 7.21 43.80
23685 2020-03-29 12:26:26 Terrasse 9.40 7.54 43.80
23684 2020-03-29 11:58:10 Terrasse 8.80 6.97 47.40
23683 2020-03-29 11:29:54 Terrasse 8.70 6.90 48.90
23682 2020-03-29 11:01:42 Terrasse 8.60 6.79 48.80
23681 2020-03-29 10:33:23 Terrasse 7.50 5.61 50.00
23680 2020-03-29 10:05:04 Terrasse 6.80 4.88 51.40
23679 2020-03-29 09:36:52 Terrasse 7.00 5.08 50.80
23678 2020-03-29 09:08:37 Terrasse 7.10 5.19 50.90
23677 2020-03-29 08:40:16 Terrasse 6.20 4.20 50.90
23676 2020-03-29 08:11:58 Terrasse 5.40 3.32 50.80
23675 2020-03-29 07:43:43 Terrasse 5.10 2.99 50.60
23674 2020-03-29 07:15:30 Terrasse 5.20 3.09 50.40
23673 2020-03-29 06:47:17 Terrasse 5.30 3.20 50.30
23672 2020-03-29 06:19:03 Terrasse 5.50 3.42 50.30
23671 2020-03-29 05:50:50 Terrasse 5.80 3.74 49.80
23670 2020-03-29 05:22:38 Terrasse 6.30 4.28 49.60
23669 2020-03-29 04:54:27 Terrasse 6.70 4.73 49.80
23668 2020-03-29 04:26:14 Terrasse 7.10 5.16 49.60
23667 2020-03-29 03:58:03 Terrasse 7.50 5.62 50.20
23666 2020-03-29 03:29:49 Terrasse 7.80 5.98 51.50
23665 2020-03-29 03:01:36 Terrasse 8.20 6.38 50.00
23664 2020-03-29 01:33:24 Terrasse 8.60 6.79 49.00
23663 2020-03-29 01:05:13 Terrasse 9.00 7.22 48.30
23662 2020-03-29 00:37:01 Terrasse 9.30 7.55 48.30
23661 2020-03-29 00:08:50 Terrasse 9.70 7.97 47.80
23660 2020-03-28 23:40:39 Terrasse 10.10 8.34 44.80
23659 2020-03-28 23:12:28 Terrasse 10.60 8.80 41.50
23658 2020-03-28 22:44:18 Terrasse 11.10 9.35 41.40
23657 2020-03-28 22:16:07 Terrasse 11.50 9.80 41.90
23656 2020-03-28 21:47:57 Terrasse 12.00 10.33 41.10
23655 2020-03-28 21:19:45 Terrasse 12.50 10.86 40.30
23654 2020-03-28 20:51:33 Terrasse 13.00 11.35 37.90
23653 2020-03-28 20:23:23 Terrasse 13.70 12.09 36.90
23652 2020-03-28 19:55:11 Terrasse 14.30 12.69 34.80
23651 2020-03-28 19:26:59 Terrasse 14.90 13.31 33.20
23650 2020-03-28 18:58:49 Terrasse 15.70 14.18 32.70
23649 2020-03-28 18:30:40 Terrasse 16.80 15.34 31.00
23648 2020-03-28 18:02:31 Terrasse 18.00 16.71 32.60
23647 2020-03-28 17:34:23 Terrasse 19.20 18.03 32.60
23646 2020-03-28 17:06:14 Terrasse 20.50 19.46 32.60
23645 2020-03-28 16:38:16 Terrasse 21.90 21.00 32.60
23644 2020-03-28 16:09:58 Terrasse 22.40 21.52 31.70
23643 2020-03-28 15:41:58 Terrasse 22.70 21.87 32.30
23642 2020-03-28 15:13:44 Terrasse 23.70 22.94 31.30
23641 2020-03-28 14:45:45 Terrasse 24.50 23.83 31.70
23640 2020-03-28 14:17:37 Terrasse 26.50 26.00 30.30
23639 2020-03-28 13:50:00 Terrasse 29.10 27.96 30.10
23638 2020-03-28 13:21:53 Terrasse 29.90 28.67 30.20
23637 2020-03-28 12:53:06 Terrasse 27.90 27.10 31.70
23636 2020-03-28 12:25:04 Terrasse 28.90 28.01 33.60
23635 2020-03-28 11:56:15 Terrasse 26.10 25.72 36.60
23634 2020-03-28 11:27:19 Terrasse 20.60 19.74 39.40
23633 2020-03-28 10:58:59 Terrasse 18.90 17.93 41.60
23632 2020-03-28 10:30:30 Terrasse 17.30 16.18 41.90
23631 2020-03-28 10:02:15 Terrasse 15.60 14.35 43.50
23630 2020-03-28 09:33:48 Terrasse 14.20 12.85 44.90
23629 2020-03-28 09:05:25 Terrasse 12.90 11.46 46.40
23628 2020-03-28 08:37:03 Terrasse 11.60 10.06 47.60
23627 2020-03-28 08:08:41 Terrasse 10.50 8.91 50.00
23626 2020-03-28 07:40:23 Terrasse 9.50 7.93 54.70
23625 2020-03-28 07:12:05 Terrasse 9.00 7.37 54.30
23624 2020-03-28 06:43:53 Terrasse 8.90 7.25 53.70
23623 2020-03-28 06:15:39 Terrasse 9.00 7.33 52.80
23622 2020-03-28 05:47:27 Terrasse 9.20 7.53 51.80
23621 2020-03-28 05:19:16 Terrasse 9.60 7.95 51.20
23620 2020-03-28 04:51:05 Terrasse 9.80 8.17 51.00
23619 2020-03-28 04:22:53 Terrasse 10.20 8.57 49.40
23618 2020-03-28 03:54:41 Terrasse 10.70 9.09 48.60
23617 2020-03-28 03:26:31 Terrasse 11.00 9.39 47.30
23616 2020-03-28 02:58:19 Terrasse 11.20 9.59 46.50
23615 2020-03-28 02:30:07 Terrasse 11.40 9.82 46.80
23614 2020-03-28 02:01:53 Terrasse 11.50 9.92 46.40
23613 2020-03-28 01:33:40 Terrasse 11.70 10.13 46.00
23612 2020-03-28 01:05:28 Terrasse 11.90 10.33 45.50
23611 2020-03-28 00:37:16 Terrasse 12.00 10.44 45.50
23610 2020-03-28 00:09:04 Terrasse 12.20 10.67 45.70
23609 2020-03-27 23:40:51 Terrasse 12.40 10.87 45.00
23608 2020-03-27 23:12:59 Terrasse 12.60 11.08 44.50
23607 2020-03-27 22:44:49 Terrasse 12.90 11.41 44.60
23606 2020-03-27 22:16:32 Terrasse 13.10 11.62 44.30
23605 2020-03-27 21:48:19 Terrasse 13.40 11.94 44.00
23604 2020-03-27 21:20:06 Terrasse 13.60 12.14 43.20
23603 2020-03-27 20:51:54 Terrasse 13.90 12.46 42.50
23602 2020-03-27 20:23:40 Terrasse 14.20 12.78 42.30
23601 2020-03-27 19:55:27 Terrasse 14.50 13.09 41.40
23600 2020-03-27 19:27:13 Terrasse 14.80 13.42 41.40
23599 2020-03-27 18:59:02 Terrasse 15.30 13.94 40.50
23598 2020-03-27 18:31:04 Terrasse 16.00 14.70 40.10
23597 2020-03-27 18:02:49 Terrasse 16.90 15.69 40.10
23596 2020-03-27 17:34:51 Terrasse 17.90 16.76 38.90
23595 2020-03-27 17:06:38 Terrasse 19.20 18.13 36.60
23594 2020-03-27 16:38:38 Terrasse 20.50 19.54 35.70
23593 2020-03-27 16:10:24 Terrasse 21.40 20.49 34.10
23592 2020-03-27 15:42:10 Terrasse 22.10 21.24 33.40
23591 2020-03-27 15:14:04 Terrasse 23.20 22.43 32.60
23590 2020-03-27 14:45:51 Terrasse 23.60 22.85 32.10
23589 2020-03-27 14:17:42 Terrasse 24.60 23.92 31.00
23588 2020-03-27 13:50:05 Terrasse 27.10 26.52 31.00
23587 2020-03-27 13:21:45 Terrasse 27.90 27.07 31.10
23586 2020-03-27 12:53:00 Terrasse 25.60 25.04 31.60
23585 2020-03-27 12:24:56 Terrasse 26.50 26.05 32.40
23584 2020-03-27 11:56:06 Terrasse 23.40 22.69 34.40
23583 2020-03-27 11:27:06 Terrasse 17.20 15.98 38.30
23582 2020-03-27 10:58:48 Terrasse 15.40 14.05 40.20
23581 2020-03-27 10:30:21 Terrasse 13.70 12.19 40.70
23580 2020-03-27 10:01:55 Terrasse 12.10 10.44 41.30
23579 2020-03-27 09:33:30 Terrasse 10.70 8.93 42.40
23578 2020-03-27 09:05:09 Terrasse 9.50 7.64 43.60
23577 2020-03-27 08:36:48 Terrasse 8.50 6.58 44.80
23576 2020-03-27 08:08:27 Terrasse 7.60 5.61 45.60
23575 2020-03-27 07:40:08 Terrasse 6.90 4.85 46.10
23574 2020-03-27 07:11:50 Terrasse 6.40 4.31 46.70
23573 2020-03-27 06:43:34 Terrasse 6.20 4.10 46.90
23572 2020-03-27 06:15:20 Terrasse 6.20 4.10 46.90
23571 2020-03-27 05:47:07 Terrasse 6.20 4.09 46.50
23570 2020-03-27 05:18:52 Terrasse 6.30 4.20 46.50
23569 2020-03-27 04:50:38 Terrasse 6.30 4.19 46.10
23568 2020-03-27 04:22:24 Terrasse 6.30 4.18 45.70
23567 2020-03-27 03:54:11 Terrasse 6.40 4.29 45.80
23566 2020-03-27 03:25:57 Terrasse 6.40 4.30 46.10
23565 2020-03-27 02:57:43 Terrasse 6.50 4.40 45.70
23564 2020-03-27 02:29:39 Terrasse 6.60 4.51 45.90
23563 2020-03-27 02:01:23 Terrasse 6.70 4.63 46.10
23562 2020-03-27 01:33:10 Terrasse 6.80 4.74 46.00
23561 2020-03-27 01:04:57 Terrasse 7.10 5.06 45.70
23560 2020-03-27 00:36:44 Terrasse 7.30 5.27 45.30
23559 2020-03-27 00:08:31 Terrasse 7.50 5.48 45.10
23558 2020-03-26 23:40:18 Terrasse 7.70 5.69 44.70
23557 2020-03-26 23:12:06 Terrasse 7.90 5.91 44.70
23556 2020-03-26 22:43:54 Terrasse 8.30 6.33 43.90
23555 2020-03-26 22:15:41 Terrasse 8.40 6.43 43.60
23554 2020-03-26 21:47:28 Terrasse 8.70 6.75 43.00
23553 2020-03-26 21:19:14 Terrasse 8.80 6.84 42.30
23552 2020-03-26 20:51:03 Terrasse 9.10 7.16 42.10
23551 2020-03-26 20:22:49 Terrasse 9.20 7.29 42.60
23550 2020-03-26 19:54:37 Terrasse 9.40 7.48 41.60
23549 2020-03-26 19:26:25 Terrasse 9.90 8.02 41.20
23548 2020-03-26 18:58:12 Terrasse 10.40 8.52 39.40
23547 2020-03-26 18:30:01 Terrasse 11.00 9.14 37.80
23546 2020-03-26 18:01:51 Terrasse 12.10 10.31 36.10
23545 2020-03-26 17:33:43 Terrasse 12.90 11.15 34.80
23544 2020-03-26 17:05:34 Terrasse 13.80 12.10 33.30
23543 2020-03-26 16:37:25 Terrasse 14.70 13.06 31.90
23542 2020-03-26 16:09:17 Terrasse 16.10 14.57 30.70
23541 2020-03-26 15:41:08 Terrasse 17.00 15.54 30.00
23540 2020-03-26 15:13:00 Terrasse 17.80 16.39 28.90
23539 2020-03-26 14:44:52 Terrasse 19.50 18.25 28.40
23538 2020-03-26 14:16:44 Terrasse 20.50 19.36 28.80
23537 2020-03-26 13:49:15 Terrasse 23.00 22.07 27.40
23536 2020-03-26 13:20:52 Terrasse 23.80 22.94 27.00
23535 2020-03-26 12:52:05 Terrasse 21.40 20.32 27.90
23534 2020-03-26 12:24:01 Terrasse 23.10 22.20 28.10
23533 2020-03-26 11:55:07 Terrasse 20.00 18.85 30.40
23532 2020-03-26 11:26:04 Terrasse 12.80 11.04 34.80
23531 2020-03-26 10:57:44 Terrasse 11.00 9.08 35.30
23530 2020-03-26 10:29:17 Terrasse 9.40 7.37 37.40
23529 2020-03-26 10:00:53 Terrasse 7.80 5.63 38.10
23528 2020-03-26 09:32:29 Terrasse 6.50 4.22 38.80
23527 2020-03-26 09:04:10 Terrasse 5.40 3.03 39.60
23526 2020-03-26 08:35:51 Terrasse 4.50 2.06 40.30
23525 2020-03-26 08:07:34 Terrasse 3.90 1.40 40.50
23524 2020-03-26 07:40:56 Terrasse 3.50 0.94 39.80
23523 2020-03-26 07:10:14 Terrasse 3.10 0.54 41.20
23522 2020-03-26 06:41:59 Terrasse 3.00 0.41 40.40
23521 2020-03-26 06:13:48 Terrasse 3.10 0.52 40.30
23520 2020-03-26 05:45:34 Terrasse 3.20 0.61 39.60
23519 2020-03-26 05:17:23 Terrasse 3.40 0.82 39.40
23518 2020-03-26 04:49:10 Terrasse 3.50 0.92 38.80
23517 2020-03-26 04:20:57 Terrasse 3.70 1.14 38.80
23516 2020-03-26 03:52:46 Terrasse 3.80 1.23 38.10
23515 2020-03-26 03:24:34 Terrasse 4.10 1.52 36.70
23514 2020-03-26 02:56:22 Terrasse 4.20 1.62 36.30
23513 2020-03-26 02:28:21 Terrasse 4.40 1.82 35.50
23512 2020-03-26 02:00:08 Terrasse 4.70 2.13 34.60
23511 2020-03-26 01:31:55 Terrasse 4.90 2.33 34.00
23510 2020-03-26 01:03:43 Terrasse 5.00 2.43 33.30
23509 2020-03-26 00:35:30 Terrasse 5.30 2.77 33.80
23508 2020-03-26 00:07:20 Terrasse 5.50 2.97 33.10
23507 2020-03-25 23:39:08 Terrasse 5.70 3.21 34.00
23506 2020-03-25 23:10:56 Terrasse 6.10 3.64 33.50
23505 2020-03-25 22:42:44 Terrasse 6.40 3.96 33.10
23504 2020-03-25 22:14:32 Terrasse 6.70 4.30 33.50
23503 2020-03-25 21:46:20 Terrasse 7.10 4.74 33.50
23502 2020-03-25 21:18:07 Terrasse 7.50 5.17 33.00
23501 2020-03-25 20:49:55 Terrasse 7.90 5.58 31.80
23500 2020-03-25 20:21:44 Terrasse 8.50 6.23 31.60
23499 2020-03-25 19:53:33 Terrasse 9.00 6.74 30.00
23498 2020-03-25 19:25:22 Terrasse 9.60 7.39 29.80
23497 2020-03-25 18:29:10 Terrasse 11.20 9.04 25.60
23496 2020-03-25 18:01:01 Terrasse 12.10 9.98 23.70
23495 2020-03-25 17:32:50 Terrasse 13.00 11.03 25.70
23494 2020-03-25 17:04:43 Terrasse 14.30 12.45 25.60
23493 2020-03-25 16:36:36 Terrasse 15.60 13.88 25.50
23492 2020-03-25 16:08:24 Terrasse 16.60 14.96 24.70
23491 2020-03-25 15:40:15 Terrasse 17.30 15.65 21.50
23490 2020-03-25 15:12:02 Terrasse 18.00 16.46 23.10
23489 2020-03-25 14:43:51 Terrasse 18.90 17.45 23.20
23488 2020-03-25 14:15:50 Terrasse 21.10 19.87 23.10
23487 2020-03-25 13:48:16 Terrasse 23.20 22.24 25.60
23486 2020-03-25 13:19:56 Terrasse 24.60 23.78 25.60
23485 2020-03-25 12:51:04 Terrasse 21.80 20.71 25.80
23484 2020-03-25 12:23:03 Terrasse 22.90 21.95 27.10
23483 2020-03-25 11:54:07 Terrasse 19.10 17.84 29.60
23482 2020-03-25 11:25:05 Terrasse 11.70 9.73 30.70
23481 2020-03-25 10:56:43 Terrasse 10.10 7.96 30.40
23480 2020-03-25 10:28:18 Terrasse 8.70 6.48 32.90
23479 2020-03-25 09:59:55 Terrasse 7.00 4.63 33.30
23478 2020-03-25 09:31:33 Terrasse 5.80 3.32 34.00
23477 2020-03-25 09:03:14 Terrasse 4.80 2.26 35.50
23476 2020-03-25 08:34:55 Terrasse 4.00 1.40 36.20
23475 2020-03-25 08:06:36 Terrasse 3.30 0.64 36.50
23474 2020-03-25 07:38:25 Terrasse 2.90 0.20 36.50
23473 2020-03-25 07:10:06 Terrasse 2.40 -0.34 36.80
23472 2020-03-25 06:41:52 Terrasse 2.30 -0.46 36.60
23471 2020-03-25 06:13:40 Terrasse 2.30 -0.46 36.70
23470 2020-03-25 05:45:27 Terrasse 2.60 -0.14 36.10
23469 2020-03-25 05:17:15 Terrasse 2.80 0.08 36.00
23468 2020-03-25 04:49:01 Terrasse 2.90 0.18 35.90
23467 2020-03-25 04:20:51 Terrasse 3.00 0.28 35.30
23466 2020-03-25 03:52:39 Terrasse 3.30 0.58 34.40
23465 2020-03-25 03:24:26 Terrasse 3.50 0.81 34.60
23464 2020-03-25 02:56:14 Terrasse 3.70 1.02 34.40
23463 2020-03-25 02:28:02 Terrasse 3.80 1.12 33.80
23462 2020-03-25 01:59:51 Terrasse 4.00 1.36 34.70
23461 2020-03-25 01:31:39 Terrasse 4.30 1.68 34.30
23460 2020-03-25 01:03:27 Terrasse 4.60 1.99 33.30
23459 2020-03-25 00:35:15 Terrasse 4.80 2.19 32.70
23458 2020-03-25 00:07:03 Terrasse 5.00 2.39 31.80
23457 2020-03-24 23:38:52 Terrasse 5.30 2.67 30.20
23456 2020-03-24 23:10:38 Terrasse 5.60 3.01 30.30
23455 2020-03-24 22:42:26 Terrasse 5.80 3.19 28.90
23454 2020-03-24 22:14:13 Terrasse 5.90 3.30 28.90
23453 2020-03-24 21:46:02 Terrasse 6.10 3.54 29.50
23452 2020-03-24 21:17:49 Terrasse 6.20 3.66 30.20
23451 2020-03-24 20:49:38 Terrasse 6.50 4.02 31.30
23450 2020-03-24 20:21:28 Terrasse 7.00 4.53 29.80
23449 2020-03-24 19:53:18 Terrasse 7.60 5.16 28.70
23448 2020-03-24 19:25:08 Terrasse 8.30 5.90 27.50
23447 2020-03-24 18:56:59 Terrasse 9.20 6.88 27.10
23446 2020-03-24 18:28:49 Terrasse 10.00 7.73 25.90
23445 2020-03-24 18:00:39 Terrasse 10.90 8.69 24.70
23444 2020-03-24 17:32:30 Terrasse 11.80 9.64 23.10
23443 2020-03-24 17:04:24 Terrasse 13.30 11.31 23.90
23442 2020-03-24 16:36:16 Terrasse 14.50 12.60 22.80
23441 2020-03-24 16:08:14 Terrasse 15.40 13.59 22.60
23440 2020-03-24 15:40:00 Terrasse 16.20 14.47 22.60
23439 2020-03-24 15:11:48 Terrasse 16.90 15.22 22.10
23438 2020-03-24 14:43:40 Terrasse 18.40 16.91 23.50
23437 2020-03-24 14:15:48 Terrasse 21.00 19.77 23.60
23436 2020-03-24 13:48:14 Terrasse 22.60 21.56 24.50
23435 2020-03-24 13:19:55 Terrasse 24.40 23.54 24.70
23434 2020-03-24 12:50:58 Terrasse 21.30 20.14 25.10
23433 2020-03-24 12:23:00 Terrasse 22.40 21.39 26.50
23432 2020-03-24 11:53:58 Terrasse 17.90 16.47 27.90
23431 2020-03-24 11:24:58 Terrasse 10.80 8.71 29.50
23430 2020-03-24 10:56:33 Terrasse 9.20 7.03 32.70
23429 2020-03-24 10:28:10 Terrasse 7.90 5.61 33.00
23428 2020-03-24 09:59:45 Terrasse 6.00 3.62 36.90
23427 2020-03-24 09:31:23 Terrasse 4.70 2.21 37.80
23426 2020-03-24 09:03:03 Terrasse 3.70 1.15 39.10
23425 2020-03-24 08:34:46 Terrasse 3.00 0.38 39.20
23424 2020-03-24 08:06:28 Terrasse 2.30 -0.35 40.60
23423 2020-03-24 07:38:11 Terrasse 1.80 -0.90 40.60
23422 2020-03-24 07:09:57 Terrasse 1.50 -1.21 41.60
23421 2020-03-24 06:41:46 Terrasse 1.50 -1.21 41.50
23420 2020-03-24 06:13:32 Terrasse 1.60 -1.10 41.60
23419 2020-03-24 05:45:20 Terrasse 1.70 -0.99 41.40
23418 2020-03-24 05:17:09 Terrasse 1.80 -0.90 40.90
23417 2020-03-24 04:48:57 Terrasse 2.00 -0.68 40.90
23416 2020-03-24 04:20:45 Terrasse 2.10 -0.57 40.70
23415 2020-03-24 03:52:33 Terrasse 2.30 -0.35 40.80
23414 2020-03-24 03:24:20 Terrasse 2.50 -0.14 40.50
23413 2020-03-24 02:56:08 Terrasse 2.70 0.08 40.30
23412 2020-03-24 02:27:55 Terrasse 2.80 0.19 40.50
23411 2020-03-24 01:59:44 Terrasse 3.00 0.41 40.20
23410 2020-03-24 01:31:31 Terrasse 3.30 0.73 39.90
23409 2020-03-24 01:03:20 Terrasse 3.50 0.94 39.80
23408 2020-03-24 00:35:09 Terrasse 3.80 1.23 38.20
23407 2020-03-24 00:06:56 Terrasse 4.10 1.54 37.40
23406 2020-03-23 23:38:45 Terrasse 4.50 1.96 36.60
23405 2020-03-23 23:10:34 Terrasse 4.90 2.36 35.00
23404 2020-03-23 22:42:22 Terrasse 5.20 2.64 33.00
23403 2020-03-23 22:14:10 Terrasse 5.40 2.88 33.70
23402 2020-03-23 21:45:58 Terrasse 5.50 3.01 34.80
23401 2020-03-23 21:17:47 Terrasse 5.70 3.23 34.70
23400 2020-03-23 20:49:36 Terrasse 6.10 3.66 34.30
23399 2020-03-23 20:21:25 Terrasse 6.50 4.10 34.40
23398 2020-03-23 19:53:15 Terrasse 7.10 4.71 32.40
23397 2020-03-23 19:25:05 Terrasse 7.70 5.34 31.10
23396 2020-03-23 18:56:54 Terrasse 8.50 6.19 30.10
23395 2020-03-23 18:28:44 Terrasse 9.40 7.16 29.10
23394 2020-03-23 18:00:34 Terrasse 10.10 7.87 27.00
23393 2020-03-23 17:32:24 Terrasse 10.90 8.72 25.70
23392 2020-03-23 17:04:20 Terrasse 12.30 10.27 26.30
23391 2020-03-23 16:36:12 Terrasse 13.80 11.90 25.50
23390 2020-03-23 16:08:01 Terrasse 15.00 13.21 25.10
23389 2020-03-23 15:39:51 Terrasse 15.60 13.84 24.00
23388 2020-03-23 15:11:38 Terrasse 16.20 14.50 24.00
23387 2020-03-23 14:43:34 Terrasse 18.00 16.49 24.30
23386 2020-03-23 14:15:44 Terrasse 20.80 19.61 26.00
23385 2020-03-23 13:48:05 Terrasse 21.50 20.39 26.10
23384 2020-03-23 13:19:40 Terrasse 22.90 21.94 26.50
23383 2020-03-23 12:50:47 Terrasse 19.90 18.63 26.30
23382 2020-03-23 12:22:51 Terrasse 20.60 19.43 27.30
23381 2020-03-23 11:53:52 Terrasse 16.80 15.27 28.30
23380 2020-03-23 11:24:50 Terrasse 10.00 7.86 30.80
23379 2020-03-23 10:56:26 Terrasse 8.20 5.94 33.10
23378 2020-03-23 10:28:03 Terrasse 6.90 4.51 33.10
23377 2020-03-23 09:59:40 Terrasse 5.30 2.78 34.40
23376 2020-03-23 09:31:19 Terrasse 4.00 1.41 36.60
23375 2020-03-23 09:03:01 Terrasse 3.00 0.34 37.70
23374 2020-03-23 08:34:41 Terrasse 2.20 -0.46 40.80
23373 2020-03-23 08:06:25 Terrasse 1.70 -0.99 41.70
23372 2020-03-23 07:38:12 Terrasse 1.20 -1.52 42.20
23371 2020-03-23 07:09:55 Terrasse 0.80 -1.95 42.80
23370 2020-03-23 06:41:43 Terrasse 0.70 -2.05 42.90
23369 2020-03-23 06:13:31 Terrasse 0.90 -1.81 43.80
23368 2020-03-23 05:45:19 Terrasse 1.00 -1.70 43.70
23367 2020-03-23 05:17:08 Terrasse 1.30 -1.39 42.90
23366 2020-03-23 04:48:55 Terrasse 1.40 -1.28 42.90
23365 2020-03-23 04:20:43 Terrasse 1.60 -1.06 43.20
23364 2020-03-23 03:52:32 Terrasse 1.80 -0.84 43.10
23363 2020-03-23 03:24:21 Terrasse 2.00 -0.63 42.80
23362 2020-03-23 02:56:12 Terrasse 2.20 -0.41 42.60
23361 2020-03-23 02:28:01 Terrasse 2.50 -0.09 42.30
23360 2020-03-23 01:59:49 Terrasse 2.80 0.23 41.80
23359 2020-03-23 01:31:37 Terrasse 3.10 0.56 41.90
23358 2020-03-23 01:03:25 Terrasse 3.30 0.77 41.60
23357 2020-03-23 00:35:13 Terrasse 3.60 1.11 41.80
23356 2020-03-23 00:07:02 Terrasse 4.00 1.53 41.30
23355 2020-03-22 23:38:50 Terrasse 4.20 1.75 41.10
23354 2020-03-22 23:10:39 Terrasse 4.50 2.06 40.50
23353 2020-03-22 22:42:28 Terrasse 4.90 2.49 40.10
23352 2020-03-22 22:14:17 Terrasse 5.20 2.80 39.20
23351 2020-03-22 21:46:05 Terrasse 5.60 3.24 39.10
23350 2020-03-22 21:17:53 Terrasse 6.10 3.78 38.80
23349 2020-03-22 20:49:43 Terrasse 6.50 4.20 38.20
23348 2020-03-22 20:21:31 Terrasse 7.00 4.70 36.30
23347 2020-03-22 19:53:20 Terrasse 7.60 5.35 35.60
23346 2020-03-22 19:25:11 Terrasse 8.20 6.02 36.00
23345 2020-03-22 18:57:01 Terrasse 8.80 6.66 35.40
23344 2020-03-22 18:28:52 Terrasse 9.60 7.51 34.30
23343 2020-03-22 18:00:43 Terrasse 10.40 8.33 31.90
23342 2020-03-22 17:32:34 Terrasse 11.50 9.53 31.60
23341 2020-03-22 17:04:29 Terrasse 12.90 11.06 31.10
23340 2020-03-22 16:36:22 Terrasse 14.60 12.92 30.80
23339 2020-03-22 16:08:11 Terrasse 15.50 13.92 31.20
23338 2020-03-22 15:39:56 Terrasse 16.50 14.99 30.00
23337 2020-03-22 15:11:46 Terrasse 17.50 16.10 30.30
23336 2020-03-22 14:43:39 Terrasse 18.40 17.07 29.80
23335 2020-03-22 14:15:46 Terrasse 21.50 20.50 30.30
23334 2020-03-22 13:48:01 Terrasse 21.20 20.16 30.10
23333 2020-03-22 13:19:43 Terrasse 23.00 22.18 31.50
23332 2020-03-22 12:50:46 Terrasse 20.20 19.07 30.50
23331 2020-03-22 12:22:50 Terrasse 21.20 20.21 31.90
23330 2020-03-22 11:53:48 Terrasse 17.70 16.44 35.20
23329 2020-03-22 11:24:43 Terrasse 10.30 8.36 37.20
23328 2020-03-22 10:56:18 Terrasse 8.70 6.66 39.60
23327 2020-03-22 10:27:55 Terrasse 7.40 5.27 41.20
23326 2020-03-22 09:59:31 Terrasse 5.90 3.65 42.40
23325 2020-03-22 09:31:08 Terrasse 4.60 2.30 45.40
23324 2020-03-22 09:02:50 Terrasse 3.60 1.29 48.70
23323 2020-03-22 08:34:31 Terrasse 2.80 0.47 51.00
23322 2020-03-22 08:06:13 Terrasse 2.20 -0.16 52.10
23321 2020-03-22 07:37:56 Terrasse 1.60 -0.79 53.40
23320 2020-03-22 07:09:42 Terrasse 1.30 -1.10 54.10
23319 2020-03-22 06:41:33 Terrasse 1.20 -1.21 54.10
23318 2020-03-22 06:13:18 Terrasse 1.40 -0.99 54.00
23317 2020-03-22 05:45:05 Terrasse 1.60 -0.77 54.00
23316 2020-03-22 05:16:53 Terrasse 1.70 -0.67 53.80
23315 2020-03-22 04:48:41 Terrasse 1.90 -0.45 53.80
23314 2020-03-22 04:20:27 Terrasse 2.10 -0.22 54.30
23313 2020-03-22 03:52:14 Terrasse 2.20 -0.10 54.40
23312 2020-03-22 03:24:02 Terrasse 2.30 0.00 54.20
23311 2020-03-22 02:55:48 Terrasse 2.50 0.22 54.10
23310 2020-03-22 02:27:35 Terrasse 2.60 0.34 54.40
23309 2020-03-22 01:59:23 Terrasse 2.70 0.44 54.20
23308 2020-03-22 01:31:09 Terrasse 2.90 0.67 54.60
23307 2020-03-22 01:02:58 Terrasse 3.10 0.89 54.40
23306 2020-03-22 00:34:47 Terrasse 3.30 1.11 54.50
23305 2020-03-22 00:06:34 Terrasse 3.40 1.23 54.90
23304 2020-03-21 23:38:21 Terrasse 3.60 1.44 54.60
23303 2020-03-21 23:10:10 Terrasse 3.90 1.78 55.00
23302 2020-03-21 22:41:57 Terrasse 4.20 2.11 55.10
23301 2020-03-21 22:13:44 Terrasse 4.30 2.22 55.10
23300 2020-03-21 21:45:34 Terrasse 4.60 2.53 54.30
23299 2020-03-21 21:17:21 Terrasse 5.00 2.96 53.80
23298 2020-03-21 20:49:09 Terrasse 5.30 3.29 53.70
23297 2020-03-21 20:20:58 Terrasse 5.60 3.61 53.50
23296 2020-03-21 19:52:47 Terrasse 6.10 4.17 53.70
23295 2020-03-21 19:24:34 Terrasse 6.60 4.70 53.20
23294 2020-03-21 18:56:23 Terrasse 6.90 5.02 52.50
23293 2020-03-21 18:28:13 Terrasse 7.40 5.55 51.80
23292 2020-03-21 18:00:02 Terrasse 7.90 6.10 52.00
23291 2020-03-21 17:31:50 Terrasse 8.40 6.64 51.40
23290 2020-03-21 17:03:39 Terrasse 8.80 7.06 50.70
23289 2020-03-21 16:35:25 Terrasse 9.20 7.56 53.00
23288 2020-03-21 16:07:11 Terrasse 9.40 7.77 52.70
23287 2020-03-21 15:38:56 Terrasse 9.10 7.47 53.80
23286 2020-03-21 15:10:43 Terrasse 9.40 7.86 55.90
23285 2020-03-21 14:42:26 Terrasse 9.50 7.97 56.10
23284 2020-03-21 14:14:11 Terrasse 9.20 7.69 58.10
23283 2020-03-21 13:46:00 Terrasse 9.50 8.02 58.00
23282 2020-03-21 13:17:48 Terrasse 10.00 8.60 59.00
23281 2020-03-21 12:49:33 Terrasse 9.90 8.52 60.20
23280 2020-03-21 12:21:43 Terrasse 12.50 11.31 57.70
23279 2020-03-21 11:53:04 Terrasse 11.20 10.30 73.70
23278 2020-03-21 11:24:37 Terrasse 8.60 8.12 99.90
23277 2020-03-21 10:56:16 Terrasse 7.40 6.80 99.90
23276 2020-03-21 10:27:58 Terrasse 6.80 6.14 99.90
23275 2020-03-21 09:59:42 Terrasse 6.50 5.81 99.90
23274 2020-03-21 09:31:27 Terrasse 6.40 5.70 99.90
23273 2020-03-21 09:03:12 Terrasse 6.20 5.48 99.90
23272 2020-03-21 08:34:56 Terrasse 6.00 5.26 99.90
23271 2020-03-21 08:06:42 Terrasse 5.90 5.15 99.90
23270 2020-03-21 07:38:26 Terrasse 5.70 4.93 99.90
23269 2020-03-21 07:10:11 Terrasse 5.60 4.82 99.90
23268 2020-03-21 06:41:58 Terrasse 5.60 4.82 99.90
23267 2020-03-21 06:13:45 Terrasse 5.70 4.93 99.90
23266 2020-03-21 05:45:33 Terrasse 5.90 5.15 99.90
23265 2020-03-21 05:17:21 Terrasse 6.10 5.37 99.90
23264 2020-03-21 04:49:08 Terrasse 6.30 5.59 99.90
23263 2020-03-21 04:20:56 Terrasse 6.50 5.81 99.90
23262 2020-03-21 03:52:44 Terrasse 6.80 6.09 97.70
23261 2020-03-21 03:24:31 Terrasse 6.90 6.06 92.40
23260 2020-03-21 02:56:18 Terrasse 7.40 6.21 77.30
23259 2020-03-21 02:28:06 Terrasse 7.80 6.38 66.80
23258 2020-03-21 01:59:54 Terrasse 8.00 6.50 63.10
23257 2020-03-21 01:31:40 Terrasse 8.20 6.67 61.00
23256 2020-03-21 01:03:27 Terrasse 8.30 6.74 59.50
23255 2020-03-21 00:35:13 Terrasse 8.50 6.94 58.80
23254 2020-03-21 00:07:00 Terrasse 8.70 7.15 58.20
23253 2020-03-20 23:38:48 Terrasse 9.00 7.45 57.40
23252 2020-03-20 23:10:45 Terrasse 9.40 7.92 58.50
23251 2020-03-20 22:42:29 Terrasse 9.70 8.35 62.40
23250 2020-03-20 22:14:17 Terrasse 10.20 9.05 67.90
23249 2020-03-20 21:46:03 Terrasse 10.60 9.65 74.20
23248 2020-03-20 21:17:50 Terrasse 10.80 9.95 77.10
23247 2020-03-20 20:49:36 Terrasse 11.30 10.53 78.40
23246 2020-03-20 20:21:23 Terrasse 11.70 10.84 73.40
23245 2020-03-20 19:53:09 Terrasse 12.00 11.05 68.90
23244 2020-03-20 19:24:57 Terrasse 12.60 11.62 65.30
23243 2020-03-20 18:56:44 Terrasse 13.10 12.13 63.90
23242 2020-03-20 18:28:32 Terrasse 13.80 12.86 62.40
23241 2020-03-20 18:00:20 Terrasse 14.50 13.57 60.00
23240 2020-03-20 17:32:08 Terrasse 15.00 14.10 59.30
23239 2020-03-20 17:03:56 Terrasse 15.50 14.62 58.00
23238 2020-03-20 16:35:45 Terrasse 16.20 15.38 57.50
23237 2020-03-20 16:07:37 Terrasse 17.20 16.44 56.10
23236 2020-03-20 15:39:28 Terrasse 18.20 17.51 55.00
23235 2020-03-20 15:11:29 Terrasse 21.10 20.65 52.90
23234 2020-03-20 14:43:23 Terrasse 22.80 22.44 50.10
23233 2020-03-20 14:15:01 Terrasse 22.80 22.47 51.10
23232 2020-03-20 13:46:44 Terrasse 21.50 21.08 52.80
23231 2020-03-20 13:18:32 Terrasse 21.70 21.23 50.10
23230 2020-03-20 12:50:10 Terrasse 20.30 19.75 52.10
23229 2020-03-20 12:21:56 Terrasse 19.60 19.06 55.30
23228 2020-03-20 11:53:35 Terrasse 19.30 18.71 54.40
23227 2020-03-20 11:25:21 Terrasse 19.30 18.72 55.00
23226 2020-03-20 10:56:51 Terrasse 16.80 16.17 62.70
23225 2020-03-20 10:28:32 Terrasse 16.00 15.36 65.30
23224 2020-03-20 10:00:03 Terrasse 14.60 13.90 68.20
23223 2020-03-20 09:31:45 Terrasse 14.10 13.43 71.50
23222 2020-03-20 09:03:22 Terrasse 12.80 12.48 89.80
23221 2020-03-20 08:34:59 Terrasse 11.80 11.57 96.90
23220 2020-03-20 08:06:39 Terrasse 10.80 10.54 99.90
23219 2020-03-20 07:38:23 Terrasse 10.60 10.32 99.90
23218 2020-03-20 07:10:08 Terrasse 10.70 10.33 96.10
23217 2020-03-20 06:41:54 Terrasse 10.70 10.37 97.30
23216 2020-03-20 06:13:41 Terrasse 11.00 10.59 93.40
23215 2020-03-20 05:45:27 Terrasse 11.30 10.72 85.60
23214 2020-03-20 05:17:14 Terrasse 11.20 10.53 82.60
23213 2020-03-20 04:49:01 Terrasse 11.70 10.84 73.30
23212 2020-03-20 04:20:48 Terrasse 11.70 10.78 70.90
23211 2020-03-20 03:52:32 Terrasse 11.80 10.86 70.00
23210 2020-03-20 03:24:18 Terrasse 12.00 11.04 68.30
23209 2020-03-20 02:56:04 Terrasse 12.20 11.21 66.60
23208 2020-03-20 02:27:50 Terrasse 12.50 11.52 65.60
23207 2020-03-20 01:59:35 Terrasse 12.70 11.70 64.00
23206 2020-03-20 01:31:20 Terrasse 12.80 11.77 62.60
23205 2020-03-20 01:03:05 Terrasse 12.90 11.88 62.60
23204 2020-03-20 00:34:50 Terrasse 12.90 11.86 61.90
23203 2020-03-20 00:06:35 Terrasse 13.10 12.06 61.10
23202 2020-03-19 23:38:20 Terrasse 13.20 12.16 60.60
23201 2020-03-19 23:10:05 Terrasse 13.20 12.13 59.60
23200 2020-03-19 22:41:51 Terrasse 13.30 12.24 59.70
23199 2020-03-19 22:13:36 Terrasse 13.30 12.24 59.60
23198 2020-03-19 21:45:19 Terrasse 13.30 12.24 59.40
23197 2020-03-19 21:17:02 Terrasse 13.30 12.22 58.90
23196 2020-03-19 20:48:47 Terrasse 13.10 12.00 58.60
23195 2020-03-19 20:20:33 Terrasse 13.10 12.00 58.80
23194 2020-03-19 19:52:31 Terrasse 13.60 12.53 58.00
23193 2020-03-19 19:24:17 Terrasse 14.00 12.97 57.90
23192 2020-03-19 18:56:06 Terrasse 14.70 13.74 57.90
23191 2020-03-19 18:27:53 Terrasse 15.50 14.56 55.60
23190 2020-03-19 17:59:41 Terrasse 16.30 15.44 55.70
23189 2020-03-19 17:31:30 Terrasse 16.90 16.08 55.10
23188 2020-03-19 17:03:18 Terrasse 17.70 16.93 53.80
23187 2020-03-19 16:35:07 Terrasse 18.30 17.58 53.40
23186 2020-03-19 16:06:57 Terrasse 19.40 18.75 51.90
23185 2020-03-19 15:38:55 Terrasse 21.60 21.12 49.80
23184 2020-03-19 15:10:39 Terrasse 22.30 21.84 48.10
23183 2020-03-19 14:42:24 Terrasse 22.30 21.92 51.20
23182 2020-03-19 14:13:59 Terrasse 22.00 21.59 51.00
23181 2020-03-19 13:45:46 Terrasse 21.20 20.75 52.60
23180 2020-03-19 13:17:20 Terrasse 20.60 20.10 53.10
23179 2020-03-19 12:48:58 Terrasse 20.40 19.93 54.90
23178 2020-03-19 12:20:10 Terrasse 15.50 14.82 65.60
23177 2020-03-19 11:51:49 Terrasse 14.90 14.27 69.80
23176 2020-03-19 11:23:36 Terrasse 15.10 14.47 69.20
23175 2020-03-19 10:55:13 Terrasse 14.50 14.09 79.70
23174 2020-03-19 10:26:45 Terrasse 12.30 12.03 93.80
23173 2020-03-19 09:58:26 Terrasse 11.50 11.31 99.90
23172 2020-03-19 09:30:06 Terrasse 10.90 10.65 99.90
23171 2020-03-19 09:01:48 Terrasse 10.40 10.10 99.90
23170 2020-03-19 08:33:30 Terrasse 10.10 9.77 99.90
23169 2020-03-19 08:05:15 Terrasse 9.90 9.55 99.90
23168 2020-03-19 07:36:59 Terrasse 9.70 9.33 99.90
23167 2020-03-19 07:08:45 Terrasse 9.50 9.11 99.90
23166 2020-03-19 06:40:31 Terrasse 9.40 9.00 99.90
23165 2020-03-19 06:12:16 Terrasse 9.30 8.89 99.90
23164 2020-03-19 05:44:00 Terrasse 9.10 8.67 99.90
23163 2020-03-19 05:15:46 Terrasse 9.00 8.56 99.90
23162 2020-03-19 04:47:31 Terrasse 8.90 8.45 99.90
23161 2020-03-19 04:19:16 Terrasse 8.80 8.34 99.90
23160 2020-03-19 03:51:02 Terrasse 8.80 8.34 99.90
23159 2020-03-19 03:22:50 Terrasse 8.90 8.45 99.90
23158 2020-03-19 02:54:36 Terrasse 9.10 8.67 99.90
23157 2020-03-19 02:26:21 Terrasse 9.20 8.78 99.90
23156 2020-03-19 01:58:08 Terrasse 9.20 8.78 99.90
23155 2020-03-19 01:29:54 Terrasse 9.40 8.94 97.30
23154 2020-03-19 01:01:41 Terrasse 9.50 9.03 96.60
23153 2020-03-19 00:33:29 Terrasse 9.60 9.06 93.80
23152 2020-03-19 00:05:16 Terrasse 9.90 9.29 89.70
23151 2020-03-18 23:37:02 Terrasse 10.10 9.34 83.20
23150 2020-03-18 23:08:47 Terrasse 10.20 9.39 81.10
23149 2020-03-18 22:40:34 Terrasse 10.50 9.72 81.00
23148 2020-03-18 22:12:21 Terrasse 10.80 10.04 80.60
23147 2020-03-18 21:44:10 Terrasse 11.30 10.49 76.60
23146 2020-03-18 21:15:57 Terrasse 11.90 11.08 73.90
23145 2020-03-18 20:47:45 Terrasse 12.30 11.54 75.00
23144 2020-03-18 20:19:34 Terrasse 13.00 12.30 74.40
23143 2020-03-18 19:51:20 Terrasse 13.30 12.76 79.30
23142 2020-03-18 19:23:08 Terrasse 13.70 13.04 73.20
23141 2020-03-18 18:54:57 Terrasse 14.40 13.62 66.20
23140 2020-03-18 18:26:44 Terrasse 14.90 14.11 63.70
23139 2020-03-18 17:58:32 Terrasse 15.40 14.57 60.40
23138 2020-03-18 17:30:21 Terrasse 16.00 15.19 58.60
23137 2020-03-18 17:02:09 Terrasse 16.60 15.84 58.20
23136 2020-03-18 16:33:54 Terrasse 16.60 15.81 57.40
23135 2020-03-18 16:05:43 Terrasse 17.10 16.36 57.10
23134 2020-03-18 15:37:31 Terrasse 18.00 17.29 54.80
23133 2020-03-18 15:09:19 Terrasse 18.30 17.58 53.60
23132 2020-03-18 14:41:08 Terrasse 18.90 18.25 53.70
23131 2020-03-18 14:12:51 Terrasse 19.60 19.00 52.90
23130 2020-03-18 13:44:31 Terrasse 18.40 17.75 55.90
23129 2020-03-18 13:16:09 Terrasse 17.90 17.29 59.20
23128 2020-03-18 12:47:44 Terrasse 16.40 15.79 64.80
23127 2020-03-18 12:19:24 Terrasse 15.40 14.79 68.70
23126 2020-03-18 11:51:04 Terrasse 14.70 14.15 73.80
23125 2020-03-18 11:22:50 Terrasse 14.40 13.91 77.20
23124 2020-03-18 10:54:34 Terrasse 14.30 13.79 76.70
23123 2020-03-18 10:26:19 Terrasse 14.10 13.56 76.50
23122 2020-03-18 09:58:01 Terrasse 13.90 13.71 90.40
23121 2020-03-18 09:29:35 Terrasse 12.00 11.86 99.90
23120 2020-03-18 09:01:14 Terrasse 10.80 10.54 99.90
23119 2020-03-18 08:32:52 Terrasse 9.70 9.33 99.90
23118 2020-03-18 08:04:32 Terrasse 8.80 8.34 99.90
23117 2020-03-18 07:36:24 Terrasse 8.50 8.01 99.90
23116 2020-03-18 07:08:05 Terrasse 8.20 7.68 99.90
23115 2020-03-18 06:39:52 Terrasse 8.20 7.68 99.90
23114 2020-03-18 06:11:39 Terrasse 8.20 7.68 99.90
23113 2020-03-18 05:43:27 Terrasse 8.30 7.79 99.90
23112 2020-03-18 05:15:15 Terrasse 8.50 8.01 99.90
23111 2020-03-18 04:47:02 Terrasse 8.60 8.12 99.90
23110 2020-03-18 04:18:49 Terrasse 8.70 8.23 99.90
23109 2020-03-18 03:50:38 Terrasse 8.90 8.45 99.90
23108 2020-03-18 03:22:26 Terrasse 9.20 8.78 99.90
23107 2020-03-18 02:54:13 Terrasse 9.30 8.89 99.90
23106 2020-03-18 02:26:00 Terrasse 9.50 9.05 97.40
23105 2020-03-18 01:57:47 Terrasse 9.60 9.02 92.00
23104 2020-03-18 01:29:35 Terrasse 9.90 9.15 84.60
23103 2020-03-18 01:01:21 Terrasse 10.00 8.97 73.30
23102 2020-03-18 00:33:08 Terrasse 10.20 9.02 66.90
23101 2020-03-18 00:04:56 Terrasse 10.40 9.17 64.30
23100 2020-03-17 23:36:43 Terrasse 10.70 9.46 62.50
23099 2020-03-17 23:08:30 Terrasse 10.80 9.53 61.10
23098 2020-03-17 22:40:17 Terrasse 11.20 9.94 59.90
23097 2020-03-17 22:12:04 Terrasse 11.60 10.35 58.90
23096 2020-03-17 21:43:51 Terrasse 11.80 10.55 58.10
23095 2020-03-17 21:15:38 Terrasse 12.10 10.85 57.00
23094 2020-03-17 20:47:25 Terrasse 12.30 11.05 55.90
23093 2020-03-17 20:19:15 Terrasse 12.90 11.66 54.20
23092 2020-03-17 19:51:03 Terrasse 13.40 12.14 51.60
23091 2020-03-17 19:22:51 Terrasse 14.00 12.74 49.30
23090 2020-03-17 18:54:41 Terrasse 14.80 13.63 49.60
23089 2020-03-17 18:26:35 Terrasse 16.40 15.35 48.20
23088 2020-03-17 17:58:26 Terrasse 17.60 16.59 45.10
23087 2020-03-17 17:30:20 Terrasse 18.90 17.98 43.40
23086 2020-03-17 17:02:22 Terrasse 21.80 21.15 42.50
23085 2020-03-17 16:34:27 Terrasse 26.40 26.11 38.80
23084 2020-03-17 16:05:55 Terrasse 23.80 23.39 44.10
23083 2020-03-17 15:37:39 Terrasse 22.60 22.04 42.90
23082 2020-03-17 15:09:29 Terrasse 23.60 23.15 43.40
23081 2020-03-17 14:41:16 Terrasse 23.50 23.11 46.00
23080 2020-03-17 14:13:03 Terrasse 23.80 23.47 47.20
23079 2020-03-17 13:44:57 Terrasse 24.00 23.72 48.50
23078 2020-03-17 13:16:36 Terrasse 24.80 24.59 47.90
23077 2020-03-17 12:48:18 Terrasse 24.00 23.72 48.60
23076 2020-03-17 12:20:09 Terrasse 23.90 23.68 51.30
23075 2020-03-17 11:51:31 Terrasse 21.50 21.12 54.20
23074 2020-03-17 11:23:02 Terrasse 19.80 19.31 56.40
23073 2020-03-17 10:54:05 Terrasse 15.00 14.36 69.30
23072 2020-03-17 10:25:53 Terrasse 15.00 14.35 68.70
23071 2020-03-17 09:57:23 Terrasse 13.40 12.86 79.20
23070 2020-03-17 09:29:08 Terrasse 13.20 12.71 81.60
23069 2020-03-17 09:00:50 Terrasse 12.60 12.40 95.00
23068 2020-03-17 08:32:33 Terrasse 12.20 12.05 98.70
23067 2020-03-17 08:04:15 Terrasse 11.50 11.31 99.90
23066 2020-03-17 07:36:01 Terrasse 11.40 11.20 99.90
23065 2020-03-17 07:07:47 Terrasse 11.20 10.98 99.90
23064 2020-03-17 06:39:34 Terrasse 11.30 11.09 99.90
23063 2020-03-17 06:11:20 Terrasse 11.60 11.42 99.70
23062 2020-03-17 05:43:04 Terrasse 11.50 11.31 99.90
23061 2020-03-17 05:14:49 Terrasse 11.30 11.09 99.90
23060 2020-03-17 04:46:35 Terrasse 11.20 10.98 99.90
23059 2020-03-17 04:18:21 Terrasse 11.30 11.09 99.90
23058 2020-03-17 03:50:07 Terrasse 11.50 11.11 92.10
23057 2020-03-17 03:21:52 Terrasse 11.50 10.86 82.60
23056 2020-03-17 02:53:38 Terrasse 11.60 11.11 87.70
23055 2020-03-17 02:25:27 Terrasse 11.90 11.19 78.20
23054 2020-03-17 01:57:15 Terrasse 12.40 11.54 70.80
23053 2020-03-17 01:29:00 Terrasse 12.50 11.59 68.50
23052 2020-03-17 01:00:45 Terrasse 12.70 11.76 66.30
23051 2020-03-17 00:32:33 Terrasse 13.10 12.15 64.40
23050 2020-03-17 00:04:18 Terrasse 13.30 12.33 63.00
23049 2020-03-16 23:36:02 Terrasse 13.30 12.31 62.20
23048 2020-03-16 23:07:46 Terrasse 13.30 12.30 61.70
23047 2020-03-16 22:39:30 Terrasse 13.10 12.07 61.40
23046 2020-03-16 22:11:15 Terrasse 13.20 12.19 61.90
23045 2020-03-16 21:43:01 Terrasse 13.20 12.16 60.60
23044 2020-03-16 21:14:46 Terrasse 13.30 12.31 62.10
23043 2020-03-16 20:46:31 Terrasse 13.40 12.43 62.50
23042 2020-03-16 20:18:15 Terrasse 13.50 12.50 60.90
23041 2020-03-16 19:50:01 Terrasse 13.70 12.71 60.70
23040 2020-03-16 19:21:51 Terrasse 14.40 13.44 59.30
23039 2020-03-16 18:53:39 Terrasse 15.30 14.39 57.70
23038 2020-03-16 18:25:29 Terrasse 16.50 15.65 55.30
23037 2020-03-16 17:58:25 Terrasse 17.20 16.35 52.60
23036 2020-03-16 17:30:24 Terrasse 18.00 17.20 51.50
23035 2020-03-16 16:54:16 Terrasse 19.10 18.37 50.10
23034 2020-03-16 15:51:23 Terrasse 21.20 20.61 47.10
23033 2020-03-16 15:21:22 Terrasse 22.20 21.69 46.50
23032 2020-03-16 14:53:02 Terrasse 23.10 22.67 46.00
23031 2020-03-16 14:23:30 Terrasse 24.80 24.53 45.70
23030 2020-03-16 13:55:05 Terrasse 24.20 23.85 45.10
23029 2020-03-16 13:27:03 Terrasse 26.20 26.05 44.90
23028 2020-03-16 12:58:28 Terrasse 25.20 24.99 46.40
23027 2020-03-16 12:30:37 Terrasse 24.90 24.68 47.20
23026 2020-03-16 12:02:02 Terrasse 23.30 22.97 49.10
23025 2020-03-16 11:32:55 Terrasse 17.50 16.79 56.90
23024 2020-03-16 11:04:31 Terrasse 14.60 13.72 61.40
23023 2020-03-16 10:36:09 Terrasse 13.30 12.37 64.50
23022 2020-03-16 10:07:41 Terrasse 11.80 10.76 66.10
23021 2020-03-16 09:39:18 Terrasse 10.40 9.32 69.90
23020 2020-03-16 09:10:56 Terrasse 9.20 8.11 74.10
23019 2020-03-16 08:42:33 Terrasse 8.10 7.57 99.90
23018 2020-03-16 08:14:13 Terrasse 7.00 6.36 99.90
23017 2020-03-16 07:45:56 Terrasse 6.50 5.81 99.90
23016 2020-03-16 07:17:43 Terrasse 6.20 5.48 99.90
23015 2020-03-16 06:49:29 Terrasse 6.20 5.48 99.90
23014 2020-03-16 06:21:16 Terrasse 6.30 5.55 98.40
23013 2020-03-16 05:53:05 Terrasse 6.40 5.56 94.30
23012 2020-03-16 05:24:52 Terrasse 6.50 5.64 93.40
23011 2020-03-16 04:56:40 Terrasse 6.70 5.77 89.60
23010 2020-03-16 04:28:29 Terrasse 6.80 5.75 85.00
23009 2020-03-16 04:00:17 Terrasse 7.00 5.85 80.40
23008 2020-03-16 03:32:06 Terrasse 7.10 5.85 76.10
23007 2020-03-16 03:03:55 Terrasse 7.30 6.00 73.50
23006 2020-03-16 02:35:43 Terrasse 7.40 6.00 69.10
23005 2020-03-16 02:07:30 Terrasse 7.60 6.16 66.80
23004 2020-03-16 01:39:17 Terrasse 7.80 6.32 64.60
23003 2020-03-16 01:11:03 Terrasse 8.00 6.52 63.90
23002 2020-03-16 00:42:50 Terrasse 8.20 6.71 62.70
23001 2020-03-16 00:14:37 Terrasse 8.30 6.82 62.70
23000 2020-03-15 23:46:25 Terrasse 8.60 7.11 61.10
22999 2020-03-15 23:18:12 Terrasse 8.80 7.33 61.10
22998 2020-03-15 22:50:00 Terrasse 9.10 7.64 60.30
22997 2020-03-15 22:21:49 Terrasse 9.30 7.86 60.30
22996 2020-03-15 21:53:37 Terrasse 9.60 8.17 59.70
22995 2020-03-15 21:25:25 Terrasse 10.00 8.56 57.80
22994 2020-03-15 20:57:13 Terrasse 10.50 9.09 56.80
22993 2020-03-15 20:29:02 Terrasse 10.90 9.51 56.20
22992 2020-03-15 20:00:51 Terrasse 11.40 10.02 54.70
22991 2020-03-15 19:32:40 Terrasse 12.00 10.63 52.70
22990 2020-03-15 19:04:29 Terrasse 12.60 11.25 51.30
22989 2020-03-15 18:36:19 Terrasse 13.40 12.10 49.80
22988 2020-03-15 18:08:08 Terrasse 14.40 13.09 45.90
22987 2020-03-15 17:39:59 Terrasse 15.40 14.12 43.00
22986 2020-03-15 17:11:51 Terrasse 16.80 15.63 41.80
22985 2020-03-15 16:43:42 Terrasse 18.80 17.76 39.30
22984 2020-03-15 16:15:33 Terrasse 19.40 18.44 39.90
22983 2020-03-15 15:47:18 Terrasse 20.70 19.83 38.30
22982 2020-03-15 15:19:07 Terrasse 21.50 20.67 36.90
22981 2020-03-15 14:50:45 Terrasse 21.90 21.14 38.20
22980 2020-03-15 14:22:42 Terrasse 23.60 23.03 38.80
22979 2020-03-15 13:54:07 Terrasse 22.20 21.53 40.40
22978 2020-03-15 13:26:10 Terrasse 23.80 23.35 42.60
22977 2020-03-15 12:57:41 Terrasse 23.20 22.70 43.10
22976 2020-03-15 12:29:38 Terrasse 21.50 20.97 48.50
22975 2020-03-15 12:00:55 Terrasse 19.50 18.82 50.30
22974 2020-03-15 11:31:55 Terrasse 14.60 13.61 57.10
22973 2020-03-15 11:03:33 Terrasse 11.80 10.67 62.50
22972 2020-03-15 10:35:12 Terrasse 10.80 9.69 67.20
22971 2020-03-15 10:06:49 Terrasse 9.80 8.74 73.00
22970 2020-03-15 09:38:27 Terrasse 8.40 7.43 81.60
22969 2020-03-15 09:10:06 Terrasse 7.30 6.55 94.40
22968 2020-03-15 08:41:46 Terrasse 6.30 5.59 99.90
22967 2020-03-15 08:13:28 Terrasse 5.60 4.82 99.90
22966 2020-03-15 07:45:12 Terrasse 5.10 4.27 99.90
22965 2020-03-15 07:16:56 Terrasse 4.60 3.72 99.90
22964 2020-03-15 06:48:42 Terrasse 4.40 3.50 99.90
22963 2020-03-15 06:20:30 Terrasse 4.40 3.50 99.90
22962 2020-03-15 05:52:17 Terrasse 4.60 3.72 99.90
22961 2020-03-15 05:24:05 Terrasse 4.90 4.05 99.90
22960 2020-03-15 04:55:54 Terrasse 5.10 4.27 99.90
22959 2020-03-15 04:27:41 Terrasse 5.00 4.16 99.90
22958 2020-03-15 03:59:29 Terrasse 5.20 4.38 99.90
22957 2020-03-15 03:31:17 Terrasse 5.50 4.71 99.90
22956 2020-03-15 03:03:04 Terrasse 5.50 4.71 99.90
22955 2020-03-15 02:34:50 Terrasse 5.40 4.60 99.90
22954 2020-03-15 02:06:36 Terrasse 5.40 4.60 99.90
22953 2020-03-15 01:38:23 Terrasse 5.40 4.60 99.90
22952 2020-03-15 01:10:08 Terrasse 5.30 4.49 99.90
22951 2020-03-15 00:41:52 Terrasse 5.10 4.27 99.90
22950 2020-03-15 00:13:39 Terrasse 5.00 4.16 99.90
22949 2020-03-14 23:45:25 Terrasse 5.10 4.27 99.90
22948 2020-03-14 23:17:12 Terrasse 5.30 4.49 99.90
22947 2020-03-14 22:49:00 Terrasse 5.60 4.82 99.90
22946 2020-03-14 22:20:47 Terrasse 5.80 5.04 99.90
22945 2020-03-14 21:52:35 Terrasse 6.00 5.26 99.90
22944 2020-03-14 21:24:24 Terrasse 6.30 5.59 99.90
22943 2020-03-14 20:56:12 Terrasse 6.60 5.92 99.90
22942 2020-03-14 20:27:59 Terrasse 6.80 6.14 99.90
22941 2020-03-14 19:59:46 Terrasse 7.10 6.47 99.90
22940 2020-03-14 19:31:35 Terrasse 7.60 7.02 99.90
22939 2020-03-14 19:03:25 Terrasse 8.00 7.39 97.00
22938 2020-03-14 18:35:14 Terrasse 8.70 8.02 91.60
22937 2020-03-14 18:07:01 Terrasse 9.00 8.55 99.20
22936 2020-03-14 17:38:49 Terrasse 9.40 8.94 97.60
22935 2020-03-14 17:10:38 Terrasse 9.80 9.08 85.80
22934 2020-03-14 16:42:27 Terrasse 10.40 9.28 68.50
22933 2020-03-14 16:14:18 Terrasse 11.40 10.17 60.20
22932 2020-03-14 15:46:12 Terrasse 12.70 11.59 60.00
22931 2020-03-14 15:18:06 Terrasse 14.00 12.83 52.70
22930 2020-03-14 14:50:18 Terrasse 18.10 17.24 48.80
22929 2020-03-14 14:22:14 Terrasse 20.60 20.02 50.10
22928 2020-03-14 13:53:26 Terrasse 17.60 16.80 53.20
22927 2020-03-14 13:25:12 Terrasse 17.50 16.77 56.20
22926 2020-03-14 12:56:51 Terrasse 15.80 14.94 57.80
22925 2020-03-14 12:28:23 Terrasse 13.70 12.82 64.80
22924 2020-03-14 12:00:26 Terrasse 15.30 14.52 62.60
22923 2020-03-14 11:31:30 Terrasse 10.90 10.30 86.30
22922 2020-03-14 11:03:07 Terrasse 9.10 8.67 99.90
22921 2020-03-14 10:34:47 Terrasse 8.00 7.46 99.90
22920 2020-03-14 10:06:28 Terrasse 7.30 6.69 99.90
22919 2020-03-14 09:38:07 Terrasse 6.50 5.81 99.90
22918 2020-03-14 09:09:49 Terrasse 5.90 5.15 99.90
22917 2020-03-14 08:41:43 Terrasse 5.60 4.82 99.90
22916 2020-03-14 08:13:24 Terrasse 5.10 4.27 99.90
22915 2020-03-14 07:45:05 Terrasse 4.40 3.50 99.90
22914 2020-03-14 07:16:51 Terrasse 4.10 3.17 99.90
22913 2020-03-14 06:48:36 Terrasse 4.00 3.06 99.90
22912 2020-03-14 06:20:23 Terrasse 4.10 3.17 99.90
22911 2020-03-14 05:52:10 Terrasse 4.30 3.39 99.90
22910 2020-03-14 05:23:58 Terrasse 4.50 3.61 99.90
22909 2020-03-14 04:55:45 Terrasse 4.70 3.83 99.90
22908 2020-03-14 04:27:32 Terrasse 4.80 3.94 99.90
22907 2020-03-14 03:59:17 Terrasse 4.80 3.94 99.90
22906 2020-03-14 03:31:03 Terrasse 4.70 3.83 99.90
22905 2020-03-14 03:02:50 Terrasse 4.80 3.94 99.90
22904 2020-03-14 02:34:34 Terrasse 4.50 3.61 99.90
22903 2020-03-14 02:06:22 Terrasse 4.70 3.83 99.90
22902 2020-03-14 01:38:10 Terrasse 4.90 4.05 99.90
22901 2020-03-14 01:09:59 Terrasse 5.30 4.49 99.90
22900 2020-03-14 00:41:48 Terrasse 5.40 4.60 99.90
22899 2020-03-14 00:13:36 Terrasse 5.50 4.71 99.90
22898 2020-03-13 23:45:25 Terrasse 5.40 4.60 99.90
22897 2020-03-13 23:17:12 Terrasse 5.50 4.71 99.90
22896 2020-03-13 22:48:59 Terrasse 5.40 4.60 99.90
22895 2020-03-13 22:20:49 Terrasse 5.70 4.93 99.90
22894 2020-03-13 21:52:36 Terrasse 5.80 5.04 99.90
22893 2020-03-13 21:24:27 Terrasse 6.20 5.48 99.90
22892 2020-03-13 20:56:14 Terrasse 6.50 5.81 99.90
22891 2020-03-13 20:28:03 Terrasse 6.80 6.14 99.90
22890 2020-03-13 19:59:52 Terrasse 7.10 6.47 99.90
22889 2020-03-13 19:31:42 Terrasse 7.30 6.69 99.90
22888 2020-03-13 19:03:29 Terrasse 7.40 6.80 99.90
22887 2020-03-13 18:35:16 Terrasse 7.70 7.00 94.80
22886 2020-03-13 18:07:06 Terrasse 8.30 7.48 87.70
22885 2020-03-13 17:38:53 Terrasse 8.60 7.42 73.10
22884 2020-03-13 17:10:41 Terrasse 8.90 7.77 73.70
22883 2020-03-13 16:42:31 Terrasse 9.60 8.46 70.50
22882 2020-03-13 16:14:13 Terrasse 9.70 9.10 90.90
22881 2020-03-13 15:45:58 Terrasse 8.80 8.34 99.90
22880 2020-03-13 15:17:41 Terrasse 8.90 8.45 99.90
22879 2020-03-13 14:49:38 Terrasse 10.20 8.93 63.30
22878 2020-03-13 14:21:40 Terrasse 12.70 11.61 60.80
22877 2020-03-13 13:53:14 Terrasse 9.70 8.57 70.80
22876 2020-03-13 13:24:58 Terrasse 9.50 8.52 77.30
22875 2020-03-13 12:56:55 Terrasse 11.10 9.87 61.40
22874 2020-03-13 12:28:33 Terrasse 11.50 10.33 62.10
22873 2020-03-13 12:00:35 Terrasse 11.80 10.71 64.10
22872 2020-03-13 11:32:06 Terrasse 9.10 7.90 70.40
22871 2020-03-13 11:03:46 Terrasse 8.20 6.98 73.00
22870 2020-03-13 10:35:30 Terrasse 7.60 6.44 77.60
22869 2020-03-13 10:07:08 Terrasse 7.00 6.00 85.90
22868 2020-03-13 09:38:48 Terrasse 6.20 5.38 95.80
22867 2020-03-13 09:10:32 Terrasse 5.70 4.86 97.10
22866 2020-03-13 08:42:17 Terrasse 5.60 4.76 97.40
22865 2020-03-13 08:14:04 Terrasse 5.50 4.56 94.10
22864 2020-03-13 07:45:49 Terrasse 5.40 4.38 91.20
22863 2020-03-13 07:17:34 Terrasse 5.30 4.37 95.30
22862 2020-03-13 06:49:20 Terrasse 5.30 4.21 89.00
22861 2020-03-13 06:21:07 Terrasse 5.20 4.00 85.20
22860 2020-03-13 05:52:53 Terrasse 5.20 4.03 86.30
22859 2020-03-13 05:24:38 Terrasse 5.20 4.15 90.90
22858 2020-03-13 04:56:33 Terrasse 5.30 4.24 90.20
22857 2020-03-13 04:28:16 Terrasse 5.30 4.16 87.20
22856 2020-03-13 04:00:03 Terrasse 5.40 4.20 84.60
22855 2020-03-13 03:31:50 Terrasse 5.50 4.31 84.30
22854 2020-03-13 03:03:38 Terrasse 5.50 4.24 81.70
22853 2020-03-13 02:35:25 Terrasse 5.70 4.34 77.30
22852 2020-03-13 02:07:12 Terrasse 6.00 4.59 74.10
22851 2020-03-13 01:39:01 Terrasse 6.10 4.68 73.30
22850 2020-03-13 01:10:49 Terrasse 6.40 5.09 76.20
22849 2020-03-13 00:42:35 Terrasse 6.60 5.66 89.80
22848 2020-03-13 00:14:22 Terrasse 6.70 6.02 99.30
22847 2020-03-12 23:46:10 Terrasse 6.90 6.25 99.90
22846 2020-03-12 23:17:55 Terrasse 6.80 6.14 99.90
22845 2020-03-12 22:49:42 Terrasse 6.80 6.14 99.90
22844 2020-03-12 22:21:33 Terrasse 7.20 6.58 99.90
22843 2020-03-12 21:53:24 Terrasse 7.60 6.88 94.20
22842 2020-03-12 21:25:11 Terrasse 7.90 6.99 86.10
22841 2020-03-12 20:56:58 Terrasse 8.30 7.18 76.40
22840 2020-03-12 20:28:47 Terrasse 8.70 7.44 69.50
22839 2020-03-12 20:00:35 Terrasse 9.10 7.79 66.10
22838 2020-03-12 19:32:24 Terrasse 9.50 8.21 65.10
22837 2020-03-12 19:04:13 Terrasse 9.90 8.65 65.30
22836 2020-03-12 18:36:02 Terrasse 10.30 9.07 64.40
22835 2020-03-12 18:07:51 Terrasse 10.60 9.39 64.00
22834 2020-03-12 17:39:40 Terrasse 11.00 9.78 62.10
22833 2020-03-12 17:11:31 Terrasse 11.60 10.45 62.70
22832 2020-03-12 16:43:27 Terrasse 13.30 12.24 59.50
22831 2020-03-12 16:15:15 Terrasse 14.30 13.32 58.70
22830 2020-03-12 15:46:58 Terrasse 13.70 12.63 57.70
22829 2020-03-12 15:18:32 Terrasse 12.70 11.63 61.60
22828 2020-03-12 14:50:21 Terrasse 12.70 11.66 62.60
22827 2020-03-12 14:22:16 Terrasse 13.60 12.65 62.70
22826 2020-03-12 13:53:50 Terrasse 12.40 11.49 68.70
22825 2020-03-12 13:25:35 Terrasse 11.80 10.83 68.60
22824 2020-03-12 12:57:20 Terrasse 11.80 11.53 95.50
22823 2020-03-12 12:29:05 Terrasse 11.50 11.31 99.90
22822 2020-03-12 12:00:43 Terrasse 10.70 10.43 99.90
22821 2020-03-12 11:32:24 Terrasse 10.40 10.10 99.90
22820 2020-03-12 11:04:10 Terrasse 10.40 10.10 99.90
22819 2020-03-12 10:35:58 Terrasse 10.80 10.54 99.90
22818 2020-03-12 10:07:50 Terrasse 10.60 10.32 99.90
22817 2020-03-12 09:39:29 Terrasse 10.20 9.88 99.90
22816 2020-03-12 09:11:14 Terrasse 10.30 9.99 99.90
22815 2020-03-12 08:42:58 Terrasse 10.10 9.77 99.90
22814 2020-03-12 08:14:44 Terrasse 10.00 9.66 99.90
22813 2020-03-12 07:46:29 Terrasse 9.90 9.55 99.90
22812 2020-03-12 07:18:14 Terrasse 10.10 9.77 99.90
22811 2020-03-12 06:50:01 Terrasse 10.30 9.99 99.90
22810 2020-03-12 06:21:48 Terrasse 10.60 10.32 99.90
22809 2020-03-12 05:53:35 Terrasse 10.80 10.54 99.90
22808 2020-03-12 05:25:22 Terrasse 10.80 10.54 99.90
22807 2020-03-12 04:57:07 Terrasse 10.80 10.54 99.90
22806 2020-03-12 04:28:53 Terrasse 10.80 10.54 99.90
22805 2020-03-12 04:00:38 Terrasse 10.80 10.54 99.90
22804 2020-03-12 03:32:24 Terrasse 10.80 10.54 99.90
22803 2020-03-12 03:04:10 Terrasse 10.80 10.54 99.90
22802 2020-03-12 02:35:56 Terrasse 10.90 10.65 99.90
22801 2020-03-12 02:07:41 Terrasse 10.90 10.65 99.90
22800 2020-03-12 01:39:28 Terrasse 11.00 10.76 99.90
22799 2020-03-12 01:11:14 Terrasse 11.10 10.87 99.90
22798 2020-03-12 00:43:01 Terrasse 11.20 10.98 99.90
22797 2020-03-12 00:14:47 Terrasse 11.30 11.09 99.90
22796 2020-03-11 23:46:33 Terrasse 11.40 11.20 99.90
22795 2020-03-11 23:18:20 Terrasse 11.50 11.31 99.90
22794 2020-03-11 22:50:15 Terrasse 11.50 11.31 99.90
22793 2020-03-11 22:21:57 Terrasse 11.50 11.31 99.90
22792 2020-03-11 21:53:44 Terrasse 11.50 11.31 99.90
22791 2020-03-11 21:25:31 Terrasse 11.50 11.31 99.90
22790 2020-03-11 20:57:17 Terrasse 11.50 11.31 99.90
22789 2020-03-11 20:29:04 Terrasse 11.60 11.42 99.90
22788 2020-03-11 20:00:49 Terrasse 11.80 11.64 99.90
22787 2020-03-11 19:32:37 Terrasse 11.80 11.64 99.90
22786 2020-03-11 19:04:23 Terrasse 12.00 11.86 99.90
22785 2020-03-11 18:36:11 Terrasse 12.20 12.08 99.90
22784 2020-03-11 18:07:58 Terrasse 12.40 12.30 99.90
22783 2020-03-11 17:39:45 Terrasse 12.60 12.52 99.90
22782 2020-03-11 17:11:31 Terrasse 12.90 12.85 99.90
22781 2020-03-11 16:43:18 Terrasse 13.10 13.07 99.90
22780 2020-03-11 16:15:06 Terrasse 13.40 13.40 99.90
22779 2020-03-11 15:46:51 Terrasse 13.50 13.51 99.90
22778 2020-03-11 15:18:40 Terrasse 13.40 13.40 99.90
22777 2020-03-11 14:50:26 Terrasse 13.40 13.40 99.90
22776 2020-03-11 14:22:12 Terrasse 13.50 13.51 99.90
22775 2020-03-11 13:53:57 Terrasse 13.40 13.40 99.90
22774 2020-03-11 13:25:43 Terrasse 13.40 13.40 99.90
22773 2020-03-11 12:57:30 Terrasse 13.50 13.51 99.90
22772 2020-03-11 12:29:15 Terrasse 13.50 13.51 99.90
22771 2020-03-11 12:00:59 Terrasse 13.40 13.40 99.90
22770 2020-03-11 11:32:46 Terrasse 13.50 13.51 99.90
22769 2020-03-11 11:04:32 Terrasse 13.50 13.51 99.90
22768 2020-03-11 10:36:12 Terrasse 13.00 12.96 99.90
22767 2020-03-11 10:07:58 Terrasse 13.00 12.96 99.90
22766 2020-03-11 09:39:40 Terrasse 12.60 12.52 99.90
22765 2020-03-11 09:11:22 Terrasse 12.20 12.08 99.90
22764 2020-03-11 08:43:06 Terrasse 11.90 11.75 99.90
22763 2020-03-11 08:14:49 Terrasse 11.70 11.53 99.90
22762 2020-03-11 07:46:32 Terrasse 11.60 11.42 99.90
22761 2020-03-11 07:18:18 Terrasse 11.50 11.31 99.90
22760 2020-03-11 06:50:03 Terrasse 11.50 11.31 99.90
22759 2020-03-11 06:21:48 Terrasse 11.50 11.31 99.90
22758 2020-03-11 05:53:34 Terrasse 11.50 11.31 99.90
22757 2020-03-11 05:25:17 Terrasse 11.40 11.20 99.90
22756 2020-03-11 04:57:01 Terrasse 11.30 11.09 99.90
22755 2020-03-11 04:28:45 Terrasse 11.30 11.09 99.90
22754 2020-03-11 04:00:31 Terrasse 11.20 10.98 99.90
22753 2020-03-11 03:32:16 Terrasse 11.10 10.87 99.90
22752 2020-03-11 03:04:03 Terrasse 11.00 10.76 99.90
22751 2020-03-11 02:35:49 Terrasse 11.00 10.76 99.90
22750 2020-03-11 02:07:35 Terrasse 11.10 10.87 99.90
22749 2020-03-11 01:39:20 Terrasse 11.10 10.87 99.90
22748 2020-03-11 01:11:11 Terrasse 11.10 10.87 99.90
22747 2020-03-11 00:42:52 Terrasse 10.90 10.65 99.90
22746 2020-03-11 00:14:36 Terrasse 10.70 10.43 99.90
22745 2020-03-10 23:46:18 Terrasse 10.40 10.10 99.90
22744 2020-03-10 23:18:02 Terrasse 10.20 9.88 99.90
22743 2020-03-10 22:49:46 Terrasse 10.00 9.66 99.90
22742 2020-03-10 22:21:30 Terrasse 9.80 9.44 99.90
22741 2020-03-10 21:53:13 Terrasse 9.50 9.11 99.90
22740 2020-03-10 21:24:58 Terrasse 9.40 9.00 99.90
22739 2020-03-10 20:56:43 Terrasse 9.30 8.89 99.90
22738 2020-03-10 20:28:27 Terrasse 9.10 8.67 99.90
22737 2020-03-10 20:00:12 Terrasse 9.00 8.56 99.90
22736 2020-03-10 19:31:58 Terrasse 9.00 8.56 99.90
22735 2020-03-10 19:03:43 Terrasse 8.90 8.45 99.90
22734 2020-03-10 18:35:28 Terrasse 8.80 8.34 99.90
22733 2020-03-10 18:07:12 Terrasse 8.60 8.12 99.90
22732 2020-03-10 17:38:57 Terrasse 8.40 7.90 99.90
22731 2020-03-10 17:10:41 Terrasse 8.30 7.79 99.90
22730 2020-03-10 16:42:27 Terrasse 8.10 7.57 99.90
22729 2020-03-10 16:14:10 Terrasse 7.90 7.35 99.90
22728 2020-03-10 15:45:55 Terrasse 7.80 7.24 99.90
22727 2020-03-10 15:17:40 Terrasse 7.60 7.02 99.90
22726 2020-03-10 14:49:24 Terrasse 7.40 6.80 99.90
22725 2020-03-10 14:21:08 Terrasse 7.30 6.69 99.90
22724 2020-03-10 13:52:53 Terrasse 7.10 6.47 99.90
22723 2020-03-10 13:24:36 Terrasse 6.90 6.25 99.90
22722 2020-03-10 12:56:21 Terrasse 6.70 6.03 99.90
22721 2020-03-10 12:28:06 Terrasse 6.40 5.70 99.90
22720 2020-03-10 11:59:52 Terrasse 6.20 5.48 99.90
22719 2020-03-10 11:31:36 Terrasse 6.00 5.26 99.90
22718 2020-03-10 11:03:21 Terrasse 5.70 4.93 99.90
22717 2020-03-10 10:35:05 Terrasse 5.50 4.71 99.90
22716 2020-03-10 10:06:52 Terrasse 5.30 4.49 99.90
22715 2020-03-10 09:38:37 Terrasse 5.10 4.27 99.90
22714 2020-03-10 09:10:23 Terrasse 4.90 4.05 99.90
22713 2020-03-10 08:42:08 Terrasse 4.90 4.05 99.90
22712 2020-03-10 08:13:56 Terrasse 4.80 3.94 99.90
22711 2020-03-10 07:45:43 Terrasse 4.80 3.94 99.90
22710 2020-03-10 07:17:31 Terrasse 4.80 3.94 99.90
22709 2020-03-10 06:49:18 Terrasse 4.90 4.05 99.90
22708 2020-03-10 06:21:05 Terrasse 5.10 4.27 99.90
22707 2020-03-10 05:52:53 Terrasse 5.20 4.38 99.90
22706 2020-03-10 05:24:40 Terrasse 5.30 4.49 99.90
22705 2020-03-10 04:56:27 Terrasse 5.30 4.49 99.90
22704 2020-03-10 04:28:14 Terrasse 5.30 4.49 99.90
22703 2020-03-10 04:00:01 Terrasse 5.40 4.60 99.90
22702 2020-03-10 03:31:48 Terrasse 5.40 4.60 99.90
22701 2020-03-10 03:03:35 Terrasse 5.50 4.71 99.90
22700 2020-03-10 02:35:20 Terrasse 5.40 4.60 99.90
22699 2020-03-10 02:07:07 Terrasse 5.30 4.49 99.90
22698 2020-03-10 01:38:53 Terrasse 5.30 4.49 99.90
22697 2020-03-10 01:10:39 Terrasse 5.40 4.60 99.90
22696 2020-03-10 00:42:26 Terrasse 5.50 4.71 99.90
22695 2020-03-10 00:14:14 Terrasse 5.60 4.82 99.90
22694 2020-03-09 23:46:01 Terrasse 5.70 4.93 99.90
22693 2020-03-09 23:17:49 Terrasse 5.90 5.15 99.90
22692 2020-03-09 22:49:37 Terrasse 6.20 5.48 99.90
22691 2020-03-09 22:21:25 Terrasse 6.60 5.92 99.90
22690 2020-03-09 21:53:12 Terrasse 6.90 6.24 99.20
22689 2020-03-09 21:24:58 Terrasse 6.90 6.25 99.90
22688 2020-03-09 20:56:45 Terrasse 7.20 6.38 91.90
22687 2020-03-09 20:28:33 Terrasse 7.60 6.67 86.50
22686 2020-03-09 20:00:21 Terrasse 7.90 6.86 81.00
22685 2020-03-09 19:32:08 Terrasse 8.00 6.73 71.70
22684 2020-03-09 19:03:57 Terrasse 8.40 7.06 67.50
22683 2020-03-09 18:35:46 Terrasse 9.20 7.83 63.50
22682 2020-03-09 18:07:36 Terrasse 9.90 8.57 62.40
22681 2020-03-09 17:39:26 Terrasse 10.40 9.06 60.00
22680 2020-03-09 17:11:15 Terrasse 11.00 9.68 58.30
22679 2020-03-09 16:43:04 Terrasse 12.20 11.00 58.20
22678 2020-03-09 16:14:56 Terrasse 12.90 11.83 60.60
22677 2020-03-09 15:47:40 Terrasse 18.30 17.53 51.40
22676 2020-03-09 15:18:55 Terrasse 15.70 14.78 55.60
22675 2020-03-09 14:50:29 Terrasse 16.70 15.85 54.70
22674 2020-03-09 14:21:46 Terrasse 12.20 11.10 62.20
22673 2020-03-09 13:53:38 Terrasse 12.40 11.51 69.60
22672 2020-03-09 13:25:05 Terrasse 11.40 10.97 90.80
22671 2020-03-09 12:56:58 Terrasse 13.00 12.05 64.90
22670 2020-03-09 12:28:51 Terrasse 12.80 11.85 65.50
22669 2020-03-09 11:59:59 Terrasse 12.90 12.08 70.40
22668 2020-03-09 11:31:43 Terrasse 10.90 9.93 72.20
22667 2020-03-09 11:03:19 Terrasse 9.20 8.54 90.70
22666 2020-03-09 10:35:15 Terrasse 10.30 9.66 87.00
22665 2020-03-09 10:06:51 Terrasse 9.50 9.11 99.90
22664 2020-03-09 09:38:25 Terrasse 8.10 7.57 99.90
22663 2020-03-09 09:10:05 Terrasse 7.50 6.91 99.90
22662 2020-03-09 08:41:46 Terrasse 6.90 6.25 99.90
22661 2020-03-09 08:13:29 Terrasse 6.50 5.81 99.90
22660 2020-03-09 07:45:14 Terrasse 6.20 5.48 99.90
22659 2020-03-09 07:16:58 Terrasse 6.10 5.37 99.90
22658 2020-03-09 06:48:47 Terrasse 6.20 5.48 99.90
22657 2020-03-09 06:20:33 Terrasse 6.40 5.70 99.90
22656 2020-03-09 05:52:20 Terrasse 6.60 5.92 99.90
22655 2020-03-09 05:24:06 Terrasse 6.60 5.92 99.90
22654 2020-03-09 04:55:53 Terrasse 6.60 5.92 99.90
22653 2020-03-09 04:27:40 Terrasse 6.70 6.03 99.90
22652 2020-03-09 03:59:27 Terrasse 6.70 6.03 99.90
22651 2020-03-09 03:31:14 Terrasse 6.90 6.25 99.90
22650 2020-03-09 03:03:01 Terrasse 7.00 6.36 99.90
22649 2020-03-09 02:34:47 Terrasse 7.30 6.69 99.90
22648 2020-03-09 02:06:35 Terrasse 7.40 6.80 99.90
22647 2020-03-09 01:38:22 Terrasse 7.60 7.02 99.90
22646 2020-03-09 01:10:07 Terrasse 7.70 7.13 99.90
22645 2020-03-09 00:41:53 Terrasse 7.80 7.24 99.90
22644 2020-03-09 00:13:39 Terrasse 7.80 7.24 99.90
22643 2020-03-08 23:45:26 Terrasse 7.80 7.24 99.90
22642 2020-03-08 23:17:13 Terrasse 7.90 7.35 99.90
22641 2020-03-08 22:48:59 Terrasse 7.90 7.35 99.90
22640 2020-03-08 22:20:44 Terrasse 8.00 7.46 99.90
22639 2020-03-08 21:52:57 Terrasse 8.00 7.46 99.90
22638 2020-03-08 21:24:31 Terrasse 8.10 7.57 99.90
22637 2020-03-08 20:56:19 Terrasse 8.10 7.57 99.90
22636 2020-03-08 20:28:05 Terrasse 8.30 7.79 99.90
22635 2020-03-08 19:59:52 Terrasse 8.40 7.90 99.90
22634 2020-03-08 19:31:39 Terrasse 8.50 8.01 99.90
22633 2020-03-08 19:03:27 Terrasse 8.70 8.23 99.90
22632 2020-03-08 18:35:12 Terrasse 8.90 8.45 99.90
22631 2020-03-08 18:07:02 Terrasse 9.20 8.78 99.90
22630 2020-03-08 17:38:49 Terrasse 9.50 9.11 99.90
22629 2020-03-08 17:10:36 Terrasse 9.60 9.22 99.80
22628 2020-03-08 16:42:22 Terrasse 9.70 9.33 99.90
22627 2020-03-08 16:14:17 Terrasse 9.50 9.11 99.90
22626 2020-03-08 15:46:00 Terrasse 9.60 9.22 99.90
22625 2020-03-08 15:17:46 Terrasse 9.50 9.11 99.90
22624 2020-03-08 14:49:30 Terrasse 9.20 8.78 99.90
22623 2020-03-08 14:21:19 Terrasse 9.50 9.11 99.90
22622 2020-03-08 13:53:10 Terrasse 10.30 9.86 94.80
22621 2020-03-08 13:24:48 Terrasse 9.70 9.33 99.90
22620 2020-03-08 12:56:25 Terrasse 7.90 7.35 99.90
22619 2020-03-08 12:28:10 Terrasse 7.70 7.13 99.90
22618 2020-03-08 11:59:51 Terrasse 7.20 6.58 99.90
22617 2020-03-08 11:31:38 Terrasse 6.90 6.25 99.90
22616 2020-03-08 11:03:20 Terrasse 6.30 5.59 99.90
22615 2020-03-08 10:35:05 Terrasse 6.10 5.37 99.90
22614 2020-03-08 10:06:50 Terrasse 5.70 4.93 99.90
22613 2020-03-08 09:38:34 Terrasse 5.60 4.82 99.90
22612 2020-03-08 09:10:20 Terrasse 5.30 4.49 99.90
22611 2020-03-08 08:42:03 Terrasse 5.10 4.27 99.90
22610 2020-03-08 08:13:48 Terrasse 4.80 3.94 99.90
22609 2020-03-08 07:45:35 Terrasse 4.70 3.83 99.90
22608 2020-03-08 07:17:21 Terrasse 4.60 3.72 99.90
22607 2020-03-08 06:49:07 Terrasse 4.60 3.72 99.90
22606 2020-03-08 06:20:54 Terrasse 4.70 3.83 99.90
22605 2020-03-08 05:52:42 Terrasse 4.70 3.83 99.90
22604 2020-03-08 05:24:28 Terrasse 4.70 3.83 99.90
22603 2020-03-08 04:56:16 Terrasse 4.60 3.72 99.90
22602 2020-03-08 04:28:04 Terrasse 4.90 4.05 99.90
22601 2020-03-08 03:59:51 Terrasse 5.10 4.27 99.90
22600 2020-03-08 03:31:37 Terrasse 5.10 4.27 99.90
22599 2020-03-08 03:03:24 Terrasse 5.00 4.16 99.90
22598 2020-03-08 02:35:10 Terrasse 4.90 4.05 99.90
22597 2020-03-08 02:06:59 Terrasse 4.90 4.05 99.90
22596 2020-03-08 01:38:46 Terrasse 4.90 4.05 99.90
22595 2020-03-08 01:10:33 Terrasse 4.90 4.05 99.90
22594 2020-03-08 00:42:23 Terrasse 4.90 4.05 99.90
22593 2020-03-08 00:14:10 Terrasse 4.90 4.05 99.90
22592 2020-03-07 23:46:03 Terrasse 4.80 3.94 99.90
22591 2020-03-07 23:17:50 Terrasse 4.70 3.83 99.90
22590 2020-03-07 22:49:47 Terrasse 4.60 3.72 99.90
22589 2020-03-07 22:21:32 Terrasse 4.50 3.61 99.90
22588 2020-03-07 21:53:19 Terrasse 4.30 3.39 99.90
22587 2020-03-07 21:25:08 Terrasse 4.40 3.50 99.90
22586 2020-03-07 20:56:58 Terrasse 4.60 3.72 99.90
22585 2020-03-07 20:28:56 Terrasse 5.10 4.27 99.90
22584 2020-03-07 20:00:45 Terrasse 5.40 4.60 99.90
22583 2020-03-07 19:32:36 Terrasse 6.30 5.46 94.70
22582 2020-03-07 19:04:26 Terrasse 7.00 5.74 75.90
22581 2020-03-07 18:36:15 Terrasse 7.30 6.05 75.20
22580 2020-03-07 18:08:04 Terrasse 7.60 6.36 74.40
22579 2020-03-07 17:39:53 Terrasse 7.90 6.58 70.10
22578 2020-03-07 17:11:42 Terrasse 8.20 6.84 67.40
22577 2020-03-07 16:43:30 Terrasse 8.40 7.05 67.20
22576 2020-03-07 16:15:20 Terrasse 8.80 7.41 64.00
22575 2020-03-07 15:47:11 Terrasse 9.30 7.89 61.60
22574 2020-03-07 15:19:13 Terrasse 11.40 10.12 58.40
22573 2020-03-07 14:50:40 Terrasse 10.10 8.80 62.60
22572 2020-03-07 14:22:21 Terrasse 10.00 8.67 61.80
22571 2020-03-07 13:54:13 Terrasse 11.10 10.01 66.80
22570 2020-03-07 13:25:53 Terrasse 8.50 7.26 71.10
22569 2020-03-07 12:57:42 Terrasse 8.40 7.12 70.00
22568 2020-03-07 12:29:44 Terrasse 10.20 9.19 73.40
22567 2020-03-07 12:01:30 Terrasse 8.40 7.22 73.60
22566 2020-03-07 11:33:12 Terrasse 9.40 8.43 78.10
22565 2020-03-07 11:04:54 Terrasse 7.90 7.14 91.60
22564 2020-03-07 10:36:39 Terrasse 6.80 5.95 92.60
22563 2020-03-07 10:08:21 Terrasse 7.20 6.58 99.90
22562 2020-03-07 09:39:56 Terrasse 5.30 4.49 99.90
22561 2020-03-07 09:11:37 Terrasse 4.40 3.50 99.90
22560 2020-03-07 08:43:24 Terrasse 4.00 3.06 99.90
22559 2020-03-07 08:15:11 Terrasse 3.70 2.73 99.90
22558 2020-03-07 07:47:00 Terrasse 3.70 2.73 99.90
22557 2020-03-07 07:18:49 Terrasse 3.70 2.73 99.90
22556 2020-03-07 06:50:38 Terrasse 3.80 2.84 99.90
22555 2020-03-07 06:22:27 Terrasse 3.90 2.95 99.90
22554 2020-03-07 05:54:14 Terrasse 3.90 2.95 99.90
22553 2020-03-07 05:26:02 Terrasse 3.90 2.95 99.90
22552 2020-03-07 04:57:51 Terrasse 3.90 2.95 99.90
22551 2020-03-07 04:29:40 Terrasse 4.00 3.06 99.90
22550 2020-03-07 04:01:29 Terrasse 4.00 3.06 99.90
22549 2020-03-07 03:33:18 Terrasse 4.00 3.06 99.90
22548 2020-03-07 03:05:06 Terrasse 4.10 3.17 99.90
22547 2020-03-07 02:36:53 Terrasse 4.00 3.06 99.90
22546 2020-03-07 02:08:39 Terrasse 4.10 3.17 99.90
22545 2020-03-07 01:40:26 Terrasse 4.20 3.28 99.90
22544 2020-03-07 01:12:13 Terrasse 4.20 3.28 99.90
22543 2020-03-07 00:44:00 Terrasse 4.30 3.39 99.90
22542 2020-03-07 00:15:48 Terrasse 4.30 3.39 99.90
22541 2020-03-06 23:47:34 Terrasse 4.40 3.50 99.90
22540 2020-03-06 23:19:21 Terrasse 4.40 3.50 99.90
22539 2020-03-06 22:51:09 Terrasse 4.50 3.61 99.90
22538 2020-03-06 22:22:57 Terrasse 4.60 3.72 99.90
22537 2020-03-06 21:54:46 Terrasse 4.70 3.83 99.90
22536 2020-03-06 21:26:32 Terrasse 4.60 3.72 99.90
22535 2020-03-06 20:58:17 Terrasse 4.60 3.72 99.90
22534 2020-03-06 20:30:03 Terrasse 4.60 3.72 99.90
22533 2020-03-06 20:01:51 Terrasse 4.70 3.83 99.90
22532 2020-03-06 19:33:38 Terrasse 4.70 3.83 99.90
22531 2020-03-06 19:05:25 Terrasse 4.70 3.83 99.90
22530 2020-03-06 18:37:10 Terrasse 4.70 3.83 99.90
22529 2020-03-06 18:08:59 Terrasse 4.80 3.94 99.90
22528 2020-03-06 17:40:46 Terrasse 4.90 4.05 99.90
22527 2020-03-06 17:12:32 Terrasse 4.80 3.94 99.90
22526 2020-03-06 16:44:18 Terrasse 4.70 3.83 99.90
22525 2020-03-06 16:16:04 Terrasse 4.80 3.94 99.90
22524 2020-03-06 15:47:51 Terrasse 4.70 3.83 99.90
22523 2020-03-06 15:19:39 Terrasse 4.60 3.72 99.90
22522 2020-03-06 14:51:24 Terrasse 4.70 3.83 99.90
22521 2020-03-06 14:23:11 Terrasse 4.70 3.83 99.90
22520 2020-03-06 13:54:58 Terrasse 4.80 3.94 99.90
22519 2020-03-06 13:26:45 Terrasse 4.90 4.05 99.90
22518 2020-03-06 12:58:35 Terrasse 5.30 4.49 99.90
22517 2020-03-06 12:30:23 Terrasse 5.70 4.93 99.90
22516 2020-03-06 12:02:09 Terrasse 5.60 4.82 99.90
22515 2020-03-06 11:33:55 Terrasse 5.50 4.71 99.90
22514 2020-03-06 11:05:41 Terrasse 5.40 4.60 99.90
22513 2020-03-06 10:37:28 Terrasse 5.30 4.49 99.90
22512 2020-03-06 10:09:16 Terrasse 5.50 4.71 99.90
22511 2020-03-06 09:41:04 Terrasse 5.50 4.71 99.90
22510 2020-03-06 09:12:49 Terrasse 5.40 4.60 99.90
22509 2020-03-06 08:44:36 Terrasse 5.30 4.49 99.90
22508 2020-03-06 08:16:22 Terrasse 5.20 4.38 99.90
22507 2020-03-06 07:48:08 Terrasse 5.20 4.38 99.90
22506 2020-03-06 07:19:54 Terrasse 5.10 4.27 99.90
22505 2020-03-06 06:51:40 Terrasse 5.20 4.38 99.90
22504 2020-03-06 06:23:27 Terrasse 5.30 4.49 99.90
22503 2020-03-06 05:55:15 Terrasse 5.50 4.71 99.90
22502 2020-03-06 05:27:03 Terrasse 5.60 4.82 99.90
22501 2020-03-06 04:58:51 Terrasse 5.70 4.93 99.90
22500 2020-03-06 04:30:39 Terrasse 5.80 5.04 99.90
22499 2020-03-06 04:02:27 Terrasse 5.90 5.15 99.90
22498 2020-03-06 03:34:13 Terrasse 6.00 5.26 99.90
22497 2020-03-06 03:06:01 Terrasse 6.10 5.37 99.90
22496 2020-03-06 02:37:48 Terrasse 6.30 5.59 99.90
22495 2020-03-06 02:09:35 Terrasse 6.50 5.81 99.90
22494 2020-03-06 01:41:22 Terrasse 6.50 5.81 99.90
22493 2020-03-06 01:13:07 Terrasse 6.50 5.81 99.90
22492 2020-03-06 00:44:53 Terrasse 6.40 5.70 99.90
22491 2020-03-06 00:16:39 Terrasse 6.40 5.70 99.90
22490 2020-03-05 23:48:25 Terrasse 6.30 5.59 99.90
22489 2020-03-05 23:20:09 Terrasse 6.20 5.48 99.90
22488 2020-03-05 22:51:55 Terrasse 6.00 5.26 99.90
22487 2020-03-05 22:23:40 Terrasse 5.90 5.15 99.90
22486 2020-03-05 21:55:26 Terrasse 5.80 5.04 99.90
22485 2020-03-05 21:27:15 Terrasse 5.80 5.04 99.90
22484 2020-03-05 20:59:02 Terrasse 5.80 5.04 99.90
22483 2020-03-05 20:30:49 Terrasse 5.70 4.93 99.90
22482 2020-03-05 20:02:37 Terrasse 5.80 5.04 99.90
22481 2020-03-05 19:34:22 Terrasse 5.70 4.93 99.90
22480 2020-03-05 19:06:08 Terrasse 5.70 4.93 99.90
22479 2020-03-05 18:37:54 Terrasse 5.70 4.93 99.90
22478 2020-03-05 18:09:41 Terrasse 5.70 4.93 99.90
22477 2020-03-05 17:41:26 Terrasse 5.80 5.04 99.90
22476 2020-03-05 17:13:13 Terrasse 5.80 5.04 99.90
22475 2020-03-05 16:44:59 Terrasse 5.90 5.15 99.90
22474 2020-03-05 16:16:44 Terrasse 5.90 5.15 99.90
22473 2020-03-05 15:48:30 Terrasse 5.90 5.15 99.90
22472 2020-03-05 15:20:17 Terrasse 5.90 5.15 99.90
22471 2020-03-05 14:52:05 Terrasse 5.90 5.15 99.90
22470 2020-03-05 14:23:52 Terrasse 5.90 5.15 99.90
22469 2020-03-05 13:55:38 Terrasse 5.80 5.04 99.90
22468 2020-03-05 13:27:24 Terrasse 5.70 4.93 99.90
22467 2020-03-05 12:59:10 Terrasse 5.60 4.82 99.90
22466 2020-03-05 12:30:56 Terrasse 5.50 4.71 99.90
22465 2020-03-05 12:02:43 Terrasse 5.50 4.71 99.90
22464 2020-03-05 11:34:28 Terrasse 5.40 4.60 99.90
22463 2020-03-05 11:06:14 Terrasse 5.30 4.49 99.90
22462 2020-03-05 10:38:00 Terrasse 5.10 4.27 99.90
22461 2020-03-05 10:09:44 Terrasse 4.80 3.94 99.90
22460 2020-03-05 09:41:40 Terrasse 4.70 3.83 99.90
22459 2020-03-05 09:13:29 Terrasse 4.70 3.83 99.90
22458 2020-03-05 08:45:13 Terrasse 4.50 3.61 99.90
22457 2020-03-05 08:17:01 Terrasse 4.40 3.50 99.90
22456 2020-03-05 07:48:49 Terrasse 4.30 3.39 99.90
22455 2020-03-05 07:20:35 Terrasse 4.20 3.28 99.90
22454 2020-03-05 06:52:23 Terrasse 4.20 3.28 99.90
22453 2020-03-05 06:24:12 Terrasse 4.20 3.28 99.90
22452 2020-03-05 05:56:00 Terrasse 4.20 3.28 99.90
22451 2020-03-05 05:27:49 Terrasse 4.30 3.39 99.90
22450 2020-03-05 04:59:37 Terrasse 4.30 3.39 99.90
22449 2020-03-05 04:31:43 Terrasse 4.30 3.39 99.90
22448 2020-03-05 04:03:25 Terrasse 4.30 3.39 99.90
22447 2020-03-05 03:35:12 Terrasse 4.30 3.39 99.90
22446 2020-03-05 03:07:01 Terrasse 4.20 3.28 99.90
22445 2020-03-05 02:38:50 Terrasse 4.20 3.28 99.90
22444 2020-03-05 02:10:36 Terrasse 4.10 3.17 99.90
22443 2020-03-05 01:42:24 Terrasse 4.20 3.28 99.90
22442 2020-03-05 00:43:43 Terrasse 4.20 3.28 99.90
22441 2020-03-05 00:15:30 Terrasse 4.00 3.06 99.90
22440 2020-03-04 23:16:52 Terrasse 4.00 3.06 99.90
22439 2020-03-04 22:48:40 Terrasse 4.00 3.06 99.90
22438 2020-03-04 22:20:27 Terrasse 4.20 3.28 99.90
22437 2020-03-04 21:52:16 Terrasse 4.40 3.50 99.90
22436 2020-03-04 21:24:04 Terrasse 4.70 3.83 99.90
22435 2020-03-04 20:55:53 Terrasse 5.00 4.16 99.90
22434 2020-03-04 20:27:42 Terrasse 5.20 4.38 99.90
22433 2020-03-04 19:59:37 Terrasse 5.20 4.38 99.90
22432 2020-03-04 19:31:21 Terrasse 5.30 4.49 99.90
22431 2020-03-04 19:03:34 Terrasse 5.50 4.71 99.90
22430 2020-03-04 18:35:13 Terrasse 5.80 5.04 99.90
22429 2020-03-04 18:07:03 Terrasse 6.20 5.48 99.90
22428 2020-03-04 17:38:53 Terrasse 6.60 5.92 99.90
22427 2020-03-04 17:10:41 Terrasse 7.00 6.36 99.90
22426 2020-03-04 16:42:31 Terrasse 7.40 6.80 99.90
22425 2020-03-04 16:14:19 Terrasse 7.70 6.44 73.20
22424 2020-03-04 15:46:10 Terrasse 8.20 6.80 66.10
22423 2020-03-04 15:17:59 Terrasse 8.70 7.34 65.80
22422 2020-03-04 14:49:52 Terrasse 9.60 8.26 62.80
22421 2020-03-04 14:21:56 Terrasse 11.50 10.21 57.80
22420 2020-03-04 13:53:33 Terrasse 10.30 8.95 60.00
22419 2020-03-04 13:25:16 Terrasse 10.40 9.18 64.40
22418 2020-03-04 12:57:22 Terrasse 12.20 11.14 63.80
22417 2020-03-04 12:29:35 Terrasse 13.70 12.91 68.30
22416 2020-03-04 12:00:56 Terrasse 11.00 10.30 82.00
22415 2020-03-04 11:32:09 Terrasse 7.90 7.35 99.90
22414 2020-03-04 11:03:44 Terrasse 6.10 5.37 99.90
22413 2020-03-04 10:35:23 Terrasse 4.50 3.61 99.90
22412 2020-03-04 10:07:03 Terrasse 3.30 2.29 99.90
22411 2020-03-04 09:38:49 Terrasse 2.90 1.85 99.90
22410 2020-03-04 09:10:34 Terrasse 2.60 1.52 99.90
22409 2020-03-04 08:42:20 Terrasse 2.40 1.30 99.90
22408 2020-03-04 08:14:07 Terrasse 2.30 1.19 99.90
22407 2020-03-04 07:45:54 Terrasse 2.30 1.19 99.90
22406 2020-03-04 07:17:40 Terrasse 2.50 1.41 99.90
22405 2020-03-04 06:49:28 Terrasse 2.60 1.52 99.90
22404 2020-03-04 06:21:17 Terrasse 2.60 1.52 99.90
22403 2020-03-04 05:53:05 Terrasse 2.60 1.52 99.90
22402 2020-03-04 05:24:52 Terrasse 2.60 1.52 99.90
22401 2020-03-04 04:56:38 Terrasse 2.60 1.52 99.90
22400 2020-03-04 04:28:24 Terrasse 2.60 1.52 99.90
22399 2020-03-04 04:00:12 Terrasse 2.50 1.41 99.90
22398 2020-03-04 03:31:59 Terrasse 2.50 1.41 99.90
22397 2020-03-04 03:03:47 Terrasse 2.50 1.41 99.90
22396 2020-03-04 02:35:38 Terrasse 2.60 1.52 99.90
22395 2020-03-04 02:07:25 Terrasse 2.90 1.85 99.90
22394 2020-03-04 01:39:13 Terrasse 2.90 1.85 99.90
22393 2020-03-04 01:10:59 Terrasse 2.80 1.74 99.90
22392 2020-03-04 00:42:47 Terrasse 2.80 1.74 99.90
22391 2020-03-04 00:14:34 Terrasse 2.70 1.63 99.90
22390 2020-03-03 23:46:23 Terrasse 2.80 1.74 99.90
22389 2020-03-03 23:18:11 Terrasse 3.00 1.96 99.90
22388 2020-03-03 22:50:03 Terrasse 3.20 2.18 99.90
22387 2020-03-03 22:23:20 Terrasse 3.20 2.18 99.90
22386 2020-03-03 21:51:06 Terrasse 3.30 2.29 99.90
22385 2020-03-03 20:53:22 Terrasse 3.90 2.95 99.90
22384 2020-03-03 20:23:09 Terrasse 4.20 3.28 99.90
22383 2020-03-03 19:55:03 Terrasse 4.70 3.83 99.90
22382 2020-03-03 19:26:52 Terrasse 5.10 4.17 96.10
22381 2020-03-03 18:58:44 Terrasse 5.80 4.82 91.20
22380 2020-03-03 18:30:34 Terrasse 6.50 4.99 68.30
22379 2020-03-03 18:02:26 Terrasse 7.30 5.77 64.40
22378 2020-03-03 17:34:19 Terrasse 8.10 6.56 60.90
22377 2020-03-03 17:06:19 Terrasse 10.00 8.54 56.80
22376 2020-03-03 16:38:30 Terrasse 16.30 15.30 50.50
22375 2020-03-03 16:10:48 Terrasse 13.10 11.93 56.20
22374 2020-03-03 15:41:59 Terrasse 9.70 8.30 60.20
22373 2020-03-03 15:13:41 Terrasse 8.60 7.13 62.00
22372 2020-03-03 14:45:46 Terrasse 10.60 9.20 56.80
22371 2020-03-03 14:17:35 Terrasse 10.10 8.70 58.80
22370 2020-03-03 13:49:20 Terrasse 8.70 7.26 62.60
22369 2020-03-03 13:20:51 Terrasse 7.80 6.91 87.10
22368 2020-03-03 12:52:52 Terrasse 8.90 7.55 65.30
22367 2020-03-03 12:24:42 Terrasse 8.40 6.97 64.10
22366 2020-03-03 11:57:03 Terrasse 11.60 10.37 59.70
22365 2020-03-03 11:28:08 Terrasse 8.20 7.16 79.80
22364 2020-03-03 10:59:48 Terrasse 6.50 5.72 96.40
22363 2020-03-03 10:31:28 Terrasse 5.70 4.93 99.90
22362 2020-03-03 10:03:08 Terrasse 4.90 4.05 99.90
22361 2020-03-03 09:34:54 Terrasse 4.60 3.72 99.90
22360 2020-03-03 09:06:41 Terrasse 4.40 3.50 99.90
22359 2020-03-03 08:38:25 Terrasse 4.20 3.28 99.90
22358 2020-03-03 08:10:11 Terrasse 3.60 2.62 99.90
22357 2020-03-03 07:41:58 Terrasse 3.60 2.62 99.90
22356 2020-03-03 07:13:47 Terrasse 3.70 2.73 99.90
22355 2020-03-03 06:45:36 Terrasse 3.90 2.95 99.90
22354 2020-03-03 06:17:25 Terrasse 4.00 3.06 99.90
22353 2020-03-03 05:49:13 Terrasse 4.10 3.17 99.90
22352 2020-03-03 05:21:02 Terrasse 4.40 3.50 99.90
22351 2020-03-03 04:52:52 Terrasse 4.70 3.83 99.90
22350 2020-03-03 04:24:40 Terrasse 4.80 3.94 99.90
22349 2020-03-03 03:56:28 Terrasse 5.00 4.16 99.90
22348 2020-03-03 03:28:16 Terrasse 5.20 4.38 99.90
22347 2020-03-03 03:00:06 Terrasse 5.50 4.71 99.90
22346 2020-03-03 02:31:52 Terrasse 5.70 4.93 99.90
22345 2020-03-03 02:03:39 Terrasse 5.90 5.15 99.90
22344 2020-03-03 01:35:27 Terrasse 6.00 5.26 99.90
22343 2020-03-03 01:07:15 Terrasse 6.10 5.37 99.90
22342 2020-03-03 00:39:03 Terrasse 6.10 5.37 99.90
22341 2020-03-03 00:10:51 Terrasse 6.20 5.48 99.90
22340 2020-03-02 23:42:40 Terrasse 6.30 5.59 99.90
22339 2020-03-02 23:14:30 Terrasse 6.60 5.92 99.90
22338 2020-03-02 22:46:19 Terrasse 6.80 6.14 99.90
22337 2020-03-02 22:18:06 Terrasse 6.80 6.14 99.90
22336 2020-03-02 21:49:54 Terrasse 6.80 6.14 99.90
22335 2020-03-02 21:21:41 Terrasse 6.90 6.25 99.90
22334 2020-03-02 20:53:28 Terrasse 7.10 6.47 99.90
22333 2020-03-02 20:25:16 Terrasse 7.20 6.58 99.90
22332 2020-03-02 19:57:04 Terrasse 7.50 6.91 99.90
22331 2020-03-02 19:28:52 Terrasse 7.60 7.02 99.90
22330 2020-03-02 19:00:40 Terrasse 7.70 7.13 99.90
22329 2020-03-02 18:32:27 Terrasse 8.00 7.46 99.90
22328 2020-03-02 18:04:14 Terrasse 8.20 7.68 99.90
22327 2020-03-02 17:36:03 Terrasse 8.50 8.01 99.90
22326 2020-03-02 17:07:53 Terrasse 8.80 8.34 99.90
22325 2020-03-02 16:39:40 Terrasse 9.10 8.67 99.90
22324 2020-03-02 16:11:29 Terrasse 9.80 8.85 77.10
22323 2020-03-02 15:43:18 Terrasse 10.10 9.19 77.40
22322 2020-03-02 15:15:07 Terrasse 10.60 9.56 70.50
22321 2020-03-02 14:46:56 Terrasse 10.90 9.89 70.80
22320 2020-03-02 14:18:46 Terrasse 11.30 10.35 71.30
22319 2020-03-02 13:50:48 Terrasse 11.80 10.84 69.00
22318 2020-03-02 13:22:48 Terrasse 13.60 12.72 65.10
22317 2020-03-02 12:54:28 Terrasse 14.30 13.55 67.60
22316 2020-03-02 12:26:36 Terrasse 15.70 15.08 67.30
22315 2020-03-02 11:58:06 Terrasse 14.90 14.36 73.30
22314 2020-03-02 11:29:04 Terrasse 11.00 10.76 99.90
22313 2020-03-02 11:00:51 Terrasse 9.80 9.44 99.90
22312 2020-03-02 10:32:33 Terrasse 9.10 8.67 99.90
22311 2020-03-02 10:03:57 Terrasse 7.10 6.47 99.90
22310 2020-03-02 09:35:40 Terrasse 5.90 5.15 99.90
22309 2020-03-02 09:07:24 Terrasse 5.10 4.27 99.90
22308 2020-03-02 08:39:12 Terrasse 4.80 3.94 99.90
22307 2020-03-02 08:10:59 Terrasse 4.70 3.83 99.90
22306 2020-03-02 07:42:48 Terrasse 4.40 3.50 99.90
22305 2020-03-02 07:14:36 Terrasse 4.30 3.39 99.90
22304 2020-03-02 06:46:26 Terrasse 4.30 3.39 99.90
22303 2020-03-02 06:18:16 Terrasse 4.40 3.50 99.90
22302 2020-03-02 05:50:04 Terrasse 4.40 3.50 99.90
22301 2020-03-02 05:21:53 Terrasse 4.30 3.39 99.90
22300 2020-03-02 04:53:43 Terrasse 4.20 3.28 99.90
22299 2020-03-02 04:25:33 Terrasse 4.10 3.17 99.90
22298 2020-03-02 03:57:22 Terrasse 4.10 3.17 99.90
22297 2020-03-02 03:29:11 Terrasse 4.20 3.28 99.90
22296 2020-03-02 03:01:01 Terrasse 4.30 3.39 99.90
22295 2020-03-02 02:32:51 Terrasse 4.30 3.39 99.90
22294 2020-03-02 02:04:40 Terrasse 4.20 3.28 99.90
22293 2020-03-02 01:36:30 Terrasse 4.40 3.50 99.90
22292 2020-03-02 01:08:24 Terrasse 5.10 4.27 99.90
22291 2020-03-02 00:40:17 Terrasse 6.20 5.48 99.90
22290 2020-03-02 00:12:08 Terrasse 6.60 5.92 99.90
22289 2020-03-01 23:43:59 Terrasse 7.10 6.47 99.90
22288 2020-03-01 23:15:48 Terrasse 7.30 6.69 99.90
22287 2020-03-01 22:47:37 Terrasse 7.30 6.69 99.90
22286 2020-03-01 22:19:26 Terrasse 7.40 6.80 99.90
22285 2020-03-01 21:51:12 Terrasse 7.50 6.91 99.90
22284 2020-03-01 21:22:59 Terrasse 7.60 7.02 99.90
22283 2020-03-01 20:54:47 Terrasse 7.70 7.13 99.90
22282 2020-03-01 20:26:35 Terrasse 7.90 7.35 99.90
22281 2020-03-01 19:58:23 Terrasse 8.30 7.79 99.90
22280 2020-03-01 19:30:12 Terrasse 8.80 8.34 99.90
22279 2020-03-01 19:02:00 Terrasse 9.00 8.56 99.90
22278 2020-03-01 18:33:58 Terrasse 9.30 8.89 99.90
22277 2020-03-01 18:05:44 Terrasse 9.80 9.44 99.90
22276 2020-03-01 17:37:36 Terrasse 10.60 9.52 69.00
22275 2020-03-01 17:09:29 Terrasse 11.40 10.22 62.40
22274 2020-03-01 16:41:29 Terrasse 13.30 12.22 58.60
22273 2020-03-01 16:14:04 Terrasse 19.90 19.29 51.40
22272 2020-03-01 15:45:06 Terrasse 15.40 14.54 59.20
22271 2020-03-01 15:16:58 Terrasse 13.00 11.89 58.90
22270 2020-03-01 14:48:49 Terrasse 15.00 14.03 56.60
22269 2020-03-01 14:20:37 Terrasse 12.90 11.88 62.50
22268 2020-03-01 13:52:02 Terrasse 11.10 10.07 69.20
22267 2020-03-01 13:23:38 Terrasse 9.60 8.62 76.60
22266 2020-03-01 12:55:28 Terrasse 9.40 8.24 70.80
22265 2020-03-01 12:27:38 Terrasse 11.40 10.58 76.10
22264 2020-03-01 11:59:04 Terrasse 8.50 7.91 96.00
22263 2020-03-01 11:30:50 Terrasse 9.10 8.67 99.90
22262 2020-03-01 11:02:31 Terrasse 7.30 6.69 99.90
22261 2020-03-01 10:34:22 Terrasse 7.50 6.91 99.90
22260 2020-03-01 10:06:09 Terrasse 6.90 6.25 99.90
22259 2020-03-01 09:37:52 Terrasse 6.20 5.48 99.90
22258 2020-03-01 09:09:34 Terrasse 5.70 4.93 99.90
22257 2020-03-01 08:41:20 Terrasse 5.50 4.71 99.90
22256 2020-03-01 08:13:08 Terrasse 5.40 4.60 99.90
22255 2020-03-01 07:44:54 Terrasse 5.30 4.49 99.90
22254 2020-03-01 07:16:42 Terrasse 5.30 4.49 99.90
22253 2020-03-01 06:48:28 Terrasse 5.20 4.38 99.90
22252 2020-03-01 06:20:15 Terrasse 5.20 4.38 99.90
22251 2020-03-01 05:52:02 Terrasse 5.30 4.49 99.90
22250 2020-03-01 05:23:48 Terrasse 5.20 4.38 99.90
22249 2020-03-01 04:55:36 Terrasse 5.20 4.38 99.90
22248 2020-03-01 04:27:23 Terrasse 5.10 4.27 99.90
22247 2020-03-01 03:59:10 Terrasse 5.00 4.16 99.90
22246 2020-03-01 03:30:57 Terrasse 5.00 4.16 99.90
22245 2020-03-01 03:02:44 Terrasse 5.00 4.16 99.90
22244 2020-03-01 02:34:30 Terrasse 4.90 4.05 99.90
22243 2020-03-01 02:06:17 Terrasse 4.90 4.05 99.90
22242 2020-03-01 01:38:05 Terrasse 4.80 3.94 99.90
22241 2020-03-01 01:09:52 Terrasse 4.90 4.05 99.90
22240 2020-03-01 00:41:41 Terrasse 5.20 4.38 99.90
22239 2020-03-01 00:13:30 Terrasse 5.40 4.60 99.90
22238 2020-02-29 23:45:16 Terrasse 5.40 4.60 99.90
22237 2020-02-29 23:17:03 Terrasse 5.30 4.49 99.90
22236 2020-02-29 22:49:00 Terrasse 5.40 4.60 99.90
22235 2020-02-29 22:20:44 Terrasse 5.50 4.71 99.90
22234 2020-02-29 21:52:33 Terrasse 5.60 4.82 99.90
22233 2020-02-29 21:24:24 Terrasse 6.00 5.26 99.90
22232 2020-02-29 20:56:13 Terrasse 6.40 5.70 99.90
22231 2020-02-29 20:28:03 Terrasse 6.80 6.14 99.90
22230 2020-02-29 19:59:53 Terrasse 7.50 6.91 99.90
22229 2020-02-29 19:31:42 Terrasse 7.70 7.13 99.90
22228 2020-02-29 19:03:30 Terrasse 7.90 7.35 99.90
22227 2020-02-29 18:35:20 Terrasse 8.30 7.79 99.90
22226 2020-02-29 18:07:09 Terrasse 8.70 8.23 99.90
22225 2020-02-29 17:39:21 Terrasse 9.00 8.56 99.90
22224 2020-02-29 17:11:00 Terrasse 9.40 9.00 99.90
22223 2020-02-29 16:42:47 Terrasse 9.70 9.33 99.90
22222 2020-02-29 16:14:40 Terrasse 10.10 9.77 99.90
22221 2020-02-29 15:46:26 Terrasse 10.40 10.10 99.90
22220 2020-02-29 15:18:14 Terrasse 10.40 10.10 99.90
22219 2020-02-29 14:50:04 Terrasse 10.90 10.65 99.90
22218 2020-02-29 14:21:50 Terrasse 11.10 10.87 99.90
22217 2020-02-29 13:53:40 Terrasse 11.50 11.31 99.90
22216 2020-02-29 13:25:20 Terrasse 10.80 10.54 99.90
22215 2020-02-29 12:57:06 Terrasse 10.60 10.32 99.90
22214 2020-02-29 12:29:00 Terrasse 11.50 11.31 99.90
22213 2020-02-29 12:00:59 Terrasse 12.90 12.85 99.90
22212 2020-02-29 11:32:18 Terrasse 10.70 10.43 99.90
22211 2020-02-29 11:03:58 Terrasse 9.20 8.78 99.90
22210 2020-02-29 10:35:39 Terrasse 8.50 8.01 99.90
22209 2020-02-29 10:07:18 Terrasse 7.70 7.13 99.90
22208 2020-02-29 09:39:01 Terrasse 6.90 6.25 99.90
22207 2020-02-29 09:10:42 Terrasse 6.10 5.37 99.90
22206 2020-02-29 08:42:27 Terrasse 5.70 4.93 99.90
22205 2020-02-29 08:14:12 Terrasse 5.40 4.60 99.90
22204 2020-02-29 07:45:57 Terrasse 5.10 4.27 99.90
22203 2020-02-29 07:17:43 Terrasse 4.90 4.05 99.90
22202 2020-02-29 06:49:30 Terrasse 4.60 3.72 99.90
22201 2020-02-29 06:21:16 Terrasse 4.00 3.06 99.90
22200 2020-02-29 05:53:03 Terrasse 3.80 2.84 99.90
22199 2020-02-29 05:24:51 Terrasse 3.70 2.73 99.90
22198 2020-02-29 04:56:39 Terrasse 3.70 2.73 99.90
22197 2020-02-29 04:28:28 Terrasse 3.60 2.62 99.90
22196 2020-02-29 04:00:19 Terrasse 3.60 2.62 99.90
22195 2020-02-29 03:32:08 Terrasse 3.50 2.51 99.90
22194 2020-02-29 03:03:57 Terrasse 3.50 2.51 99.90
22193 2020-02-29 02:35:45 Terrasse 3.40 2.40 99.90
22192 2020-02-29 02:07:34 Terrasse 3.40 2.40 99.90
22191 2020-02-29 01:39:23 Terrasse 3.40 2.40 99.90
22190 2020-02-29 01:11:13 Terrasse 3.50 2.51 99.90
22189 2020-02-29 00:43:01 Terrasse 3.50 2.51 99.90
22188 2020-02-29 00:14:51 Terrasse 3.50 2.51 99.90
22187 2020-02-28 23:46:40 Terrasse 3.60 2.62 99.90
22186 2020-02-28 23:18:29 Terrasse 3.70 2.73 99.90
22185 2020-02-28 22:50:17 Terrasse 3.90 2.95 99.90
22184 2020-02-28 22:22:06 Terrasse 4.10 3.17 99.90
22183 2020-02-28 21:53:52 Terrasse 4.10 3.17 99.90
22182 2020-02-28 21:25:40 Terrasse 4.10 3.17 99.90
22181 2020-02-28 20:57:28 Terrasse 4.10 3.05 95.30
22180 2020-02-28 20:29:14 Terrasse 4.00 3.06 99.90
22179 2020-02-28 20:01:02 Terrasse 4.10 3.17 99.90
22178 2020-02-28 19:32:48 Terrasse 4.10 3.17 99.90
22177 2020-02-28 19:04:37 Terrasse 4.10 3.17 99.90
22176 2020-02-28 18:36:26 Terrasse 4.20 3.28 99.90
22175 2020-02-28 18:08:15 Terrasse 4.50 3.61 99.90
22174 2020-02-28 17:40:06 Terrasse 4.90 4.05 99.90
22173 2020-02-28 17:11:55 Terrasse 5.30 4.49 99.90
22172 2020-02-28 16:43:47 Terrasse 5.80 5.04 99.90
22171 2020-02-28 16:15:40 Terrasse 6.40 5.66 98.30
22170 2020-02-28 15:47:24 Terrasse 6.80 6.14 99.90
22169 2020-02-28 15:19:08 Terrasse 5.30 4.49 99.90
22168 2020-02-28 14:50:54 Terrasse 4.80 3.94 99.90
22167 2020-02-28 14:22:37 Terrasse 4.10 3.17 99.90
22166 2020-02-28 13:54:24 Terrasse 4.10 3.17 99.90
22165 2020-02-28 13:26:11 Terrasse 4.10 3.17 99.90
22164 2020-02-28 12:57:58 Terrasse 4.00 3.06 99.90
22163 2020-02-28 12:29:45 Terrasse 4.00 3.06 99.90
22162 2020-02-28 12:01:35 Terrasse 4.10 3.17 99.90
22161 2020-02-28 11:33:19 Terrasse 3.60 2.62 99.90
22160 2020-02-28 11:05:03 Terrasse 3.20 2.18 99.90
22159 2020-02-28 10:36:48 Terrasse 2.90 1.85 99.90
22158 2020-02-28 10:08:33 Terrasse 2.70 1.63 99.90
22157 2020-02-28 09:40:17 Terrasse 1.70 0.53 99.90
22156 2020-02-28 09:12:04 Terrasse 1.60 0.42 99.90
22155 2020-02-28 08:43:50 Terrasse 1.40 0.20 99.90
22154 2020-02-28 08:15:38 Terrasse 1.30 0.09 99.90
22153 2020-02-28 07:47:25 Terrasse 1.20 -0.02 99.90
22152 2020-02-28 07:19:14 Terrasse 1.10 -0.13 99.90
22151 2020-02-28 06:51:02 Terrasse 1.20 -0.02 99.90
22150 2020-02-28 06:22:52 Terrasse 1.20 -0.02 99.90
22149 2020-02-28 05:54:41 Terrasse 1.30 0.09 99.90
22148 2020-02-28 05:26:29 Terrasse 1.40 0.20 99.90
22147 2020-02-28 04:58:17 Terrasse 1.40 0.20 99.90
22146 2020-02-28 04:30:05 Terrasse 1.20 -0.02 99.90
22145 2020-02-28 04:01:52 Terrasse 1.50 0.31 99.90
22144 2020-02-28 03:33:40 Terrasse 1.50 0.31 99.90
22143 2020-02-28 03:05:27 Terrasse 1.50 0.31 99.90
22142 2020-02-28 02:37:17 Terrasse 1.50 0.31 99.90
22141 2020-02-28 02:09:04 Terrasse 1.50 0.31 99.90
22140 2020-02-28 01:40:52 Terrasse 1.60 0.42 99.90
22139 2020-02-28 01:12:40 Terrasse 1.60 0.42 99.90
22138 2020-02-28 00:44:28 Terrasse 1.50 0.31 99.90
22137 2020-02-28 00:16:17 Terrasse 1.50 0.31 99.90
22136 2020-02-27 23:48:05 Terrasse 1.50 0.31 99.90
22135 2020-02-27 23:19:55 Terrasse 1.70 0.53 99.90
22134 2020-02-27 22:51:44 Terrasse 1.80 0.64 99.90
22133 2020-02-27 22:23:33 Terrasse 1.80 0.64 99.90
22132 2020-02-27 21:55:21 Terrasse 1.90 0.75 99.90
22131 2020-02-27 21:27:10 Terrasse 2.00 0.86 99.90
22130 2020-02-27 20:58:58 Terrasse 2.00 0.86 99.90
22129 2020-02-27 20:30:46 Terrasse 2.00 0.86 99.90
22128 2020-02-27 20:02:33 Terrasse 2.00 0.86 99.90
22127 2020-02-27 19:34:21 Terrasse 2.00 0.86 99.90
22126 2020-02-27 19:06:10 Terrasse 2.00 0.86 99.90
22125 2020-02-27 18:37:57 Terrasse 2.00 0.86 99.90
22124 2020-02-27 18:09:45 Terrasse 2.10 0.97 99.90
22123 2020-02-27 17:41:34 Terrasse 2.20 1.08 99.90
22122 2020-02-27 17:13:21 Terrasse 2.20 1.08 99.90
22121 2020-02-27 16:45:10 Terrasse 2.40 1.30 99.90
22120 2020-02-27 16:17:00 Terrasse 2.40 1.30 99.90
22119 2020-02-27 15:48:48 Terrasse 2.60 1.52 99.90
22118 2020-02-27 15:20:35 Terrasse 2.60 1.52 99.90
22117 2020-02-27 14:52:24 Terrasse 2.70 1.63 99.90
22116 2020-02-27 14:24:12 Terrasse 2.80 1.74 99.90
22115 2020-02-27 13:56:02 Terrasse 3.00 1.96 99.90
22114 2020-02-27 13:27:50 Terrasse 3.10 2.07 99.90
22113 2020-02-27 12:59:37 Terrasse 3.10 2.07 99.90
22112 2020-02-27 12:31:27 Terrasse 3.40 2.40 99.90
22111 2020-02-27 12:03:17 Terrasse 3.60 2.62 99.90
22110 2020-02-27 11:35:03 Terrasse 3.50 2.51 99.90
22109 2020-02-27 11:06:49 Terrasse 3.30 2.29 99.90
22108 2020-02-27 10:38:38 Terrasse 3.20 2.18 99.90
22107 2020-02-27 10:10:27 Terrasse 3.20 2.18 99.90
22106 2020-02-27 09:42:15 Terrasse 3.10 2.07 99.90
22105 2020-02-27 09:14:02 Terrasse 3.10 2.07 99.90
22104 2020-02-27 08:45:48 Terrasse 2.90 1.85 99.90
22103 2020-02-27 08:17:36 Terrasse 2.70 1.63 99.90
22102 2020-02-27 07:49:23 Terrasse 2.60 1.52 99.90
22101 2020-02-27 07:21:10 Terrasse 2.50 1.41 99.90
22100 2020-02-27 06:52:58 Terrasse 2.50 1.41 99.90
22099 2020-02-27 06:24:46 Terrasse 2.50 1.41 99.90
22098 2020-02-27 05:56:34 Terrasse 2.40 1.30 99.90
22097 2020-02-27 05:28:22 Terrasse 2.40 1.30 99.90
22096 2020-02-27 05:00:11 Terrasse 2.30 1.19 99.90
22095 2020-02-27 04:31:59 Terrasse 2.30 1.19 99.90
22094 2020-02-27 04:03:49 Terrasse 2.40 1.30 99.90
22093 2020-02-27 03:35:37 Terrasse 2.60 1.52 99.90
22092 2020-02-27 03:07:25 Terrasse 2.60 1.52 99.90
22091 2020-02-27 02:39:14 Terrasse 2.70 1.63 99.90
22090 2020-02-27 02:11:02 Terrasse 2.80 1.74 99.90
22089 2020-02-27 01:42:50 Terrasse 2.90 1.85 99.90
22088 2020-02-27 01:14:37 Terrasse 2.90 1.85 99.90
22087 2020-02-27 00:46:25 Terrasse 3.00 1.96 99.90
22086 2020-02-27 00:18:12 Terrasse 3.00 1.96 99.90
22085 2020-02-26 23:50:00 Terrasse 3.00 1.96 99.90
22084 2020-02-26 23:21:49 Terrasse 3.10 2.07 99.90
22083 2020-02-26 22:53:37 Terrasse 3.20 2.18 99.90
22082 2020-02-26 22:25:24 Terrasse 3.20 2.18 99.90
22081 2020-02-26 21:57:12 Terrasse 3.30 2.29 99.90
22080 2020-02-26 21:28:59 Terrasse 3.30 2.29 99.90
22079 2020-02-26 21:00:47 Terrasse 3.30 2.29 99.90
22078 2020-02-26 20:32:35 Terrasse 3.30 2.29 99.90
22077 2020-02-26 20:04:24 Terrasse 3.40 2.40 99.90
22076 2020-02-26 19:36:13 Terrasse 3.60 2.62 99.90
22075 2020-02-26 19:08:01 Terrasse 3.60 2.62 99.90
22074 2020-02-26 18:39:50 Terrasse 3.70 2.73 99.90
22073 2020-02-26 18:11:38 Terrasse 3.80 2.84 99.90
22072 2020-02-26 17:43:27 Terrasse 4.00 3.06 99.90
22071 2020-02-26 17:15:20 Terrasse 4.40 3.50 99.90
22070 2020-02-26 16:47:12 Terrasse 5.10 4.27 99.90
22069 2020-02-26 16:19:04 Terrasse 5.50 4.71 99.90
22068 2020-02-26 15:50:36 Terrasse 5.10 4.27 99.90
22067 2020-02-26 15:22:19 Terrasse 5.80 5.04 99.90
22066 2020-02-26 14:54:08 Terrasse 5.80 5.04 99.90
22065 2020-02-26 14:25:49 Terrasse 5.30 4.49 99.90
22064 2020-02-26 13:57:30 Terrasse 4.20 3.28 99.90
22063 2020-02-26 13:29:15 Terrasse 4.10 3.17 99.90
22062 2020-02-26 13:01:05 Terrasse 4.20 3.28 99.90
22061 2020-02-26 12:32:52 Terrasse 4.20 3.28 99.90
22060 2020-02-26 12:04:38 Terrasse 3.80 2.84 99.90
22059 2020-02-26 11:36:25 Terrasse 3.60 2.62 99.90
22058 2020-02-26 11:08:10 Terrasse 3.30 2.29 99.90
22057 2020-02-26 10:39:55 Terrasse 2.80 1.74 99.90
22056 2020-02-26 10:11:43 Terrasse 2.80 1.74 99.90
22055 2020-02-26 09:43:31 Terrasse 2.70 1.63 99.90
22054 2020-02-26 09:15:21 Terrasse 3.00 1.96 99.90
22053 2020-02-26 08:47:08 Terrasse 3.00 1.96 99.90
22052 2020-02-26 08:18:55 Terrasse 2.70 1.63 99.90
22051 2020-02-26 07:50:42 Terrasse 2.70 1.63 99.90
22050 2020-02-26 07:22:32 Terrasse 2.90 1.85 99.90
22049 2020-02-26 06:54:22 Terrasse 3.20 2.18 99.90
22048 2020-02-26 06:26:11 Terrasse 3.30 2.29 99.90
22047 2020-02-26 05:58:00 Terrasse 3.40 2.40 99.90
22046 2020-02-26 05:29:52 Terrasse 3.40 2.40 99.90
22045 2020-02-26 05:01:41 Terrasse 3.60 2.62 99.90
22044 2020-02-26 04:33:29 Terrasse 3.60 2.62 99.90
22043 2020-02-26 04:05:19 Terrasse 3.80 2.84 99.90
22042 2020-02-26 03:37:08 Terrasse 4.10 3.17 99.90
22041 2020-02-26 03:08:58 Terrasse 4.20 3.28 99.90
22040 2020-02-26 02:40:48 Terrasse 4.50 3.61 99.90
22039 2020-02-26 02:12:37 Terrasse 4.70 3.83 99.90
22038 2020-02-26 01:44:25 Terrasse 4.80 3.94 99.90
22037 2020-02-26 01:16:13 Terrasse 4.80 3.94 99.90
22036 2020-02-26 00:48:02 Terrasse 4.90 4.05 99.90
22035 2020-02-26 00:19:51 Terrasse 4.90 4.05 99.90
22034 2020-02-25 23:51:40 Terrasse 5.30 4.47 99.00
22033 2020-02-25 23:23:30 Terrasse 5.50 4.71 99.90
22032 2020-02-25 22:55:19 Terrasse 5.80 5.04 99.90
22031 2020-02-25 22:27:09 Terrasse 6.10 5.37 99.90
22030 2020-02-25 21:58:58 Terrasse 6.40 5.70 99.90
22029 2020-02-25 21:30:47 Terrasse 6.70 6.03 99.90
22028 2020-02-25 21:02:35 Terrasse 6.80 6.14 99.90
22027 2020-02-25 20:34:25 Terrasse 7.10 6.47 99.90
22026 2020-02-25 20:06:15 Terrasse 7.40 6.80 99.90
22025 2020-02-25 19:38:03 Terrasse 7.60 6.92 96.00
22024 2020-02-25 19:09:52 Terrasse 7.90 7.11 90.70
22023 2020-02-25 18:41:41 Terrasse 8.20 7.17 80.20
22022 2020-02-25 18:13:33 Terrasse 8.80 7.60 71.40
22021 2020-02-25 17:45:25 Terrasse 9.70 8.45 66.10
22020 2020-02-25 17:17:21 Terrasse 10.70 9.44 62.00
22019 2020-02-25 16:49:27 Terrasse 13.20 12.08 57.60
22018 2020-02-25 16:21:59 Terrasse 21.70 21.20 49.00
22017 2020-02-25 15:52:24 Terrasse 13.10 12.08 62.00
22016 2020-02-25 15:23:53 Terrasse 10.80 9.76 70.00
22015 2020-02-25 14:56:02 Terrasse 12.40 11.38 64.40
22014 2020-02-25 14:27:12 Terrasse 10.00 9.23 83.10
22013 2020-02-25 13:58:58 Terrasse 9.80 8.84 76.80
22012 2020-02-25 13:30:44 Terrasse 9.70 9.15 92.80
22011 2020-02-25 13:02:29 Terrasse 9.70 9.33 99.90
22010 2020-02-25 12:34:12 Terrasse 9.50 9.11 99.90
22009 2020-02-25 12:06:02 Terrasse 9.60 9.22 99.90
22008 2020-02-25 11:37:46 Terrasse 9.20 8.78 99.90
22007 2020-02-25 11:09:34 Terrasse 8.80 8.34 99.90
22006 2020-02-25 10:41:21 Terrasse 9.10 8.67 99.90
22005 2020-02-25 10:13:08 Terrasse 8.50 8.01 99.90
22004 2020-02-25 09:44:47 Terrasse 7.40 6.80 99.90
22003 2020-02-25 09:16:34 Terrasse 7.40 6.80 99.90
22002 2020-02-25 08:48:22 Terrasse 7.30 6.69 99.90
22001 2020-02-25 08:20:10 Terrasse 7.30 6.69 99.90
22000 2020-02-25 07:51:57 Terrasse 7.40 6.80 99.90
21999 2020-02-25 07:23:43 Terrasse 7.50 6.91 99.90
21998 2020-02-25 06:55:31 Terrasse 7.60 7.02 99.90
21997 2020-02-25 06:27:18 Terrasse 7.60 7.02 99.90
21996 2020-02-25 05:59:06 Terrasse 7.50 6.91 99.90
21995 2020-02-25 05:30:54 Terrasse 7.70 7.13 99.90
21994 2020-02-25 05:02:42 Terrasse 7.70 7.13 99.90
21993 2020-02-25 04:34:29 Terrasse 7.80 7.24 99.90
21992 2020-02-25 04:06:16 Terrasse 7.80 7.24 99.90
21991 2020-02-25 03:38:03 Terrasse 7.80 7.24 99.90
21990 2020-02-25 03:09:51 Terrasse 7.90 7.35 99.90
21989 2020-02-25 02:41:38 Terrasse 7.90 7.35 99.90
21988 2020-02-25 02:13:26 Terrasse 8.00 7.46 99.90
21987 2020-02-25 01:45:14 Terrasse 8.10 7.57 99.90
21986 2020-02-25 01:17:02 Terrasse 8.20 7.68 99.90
21985 2020-02-25 00:48:49 Terrasse 8.20 7.68 99.90
21984 2020-02-25 00:20:36 Terrasse 8.20 7.68 99.90
21983 2020-02-24 23:52:23 Terrasse 8.20 7.68 99.90
21982 2020-02-24 23:24:11 Terrasse 8.20 7.68 99.90
21981 2020-02-24 22:55:58 Terrasse 8.30 7.79 99.90
21980 2020-02-24 22:27:46 Terrasse 8.30 7.79 99.90
21979 2020-02-24 21:59:34 Terrasse 8.30 7.79 99.90
21978 2020-02-24 21:31:19 Terrasse 8.30 7.79 99.90
21977 2020-02-24 21:03:08 Terrasse 8.20 7.68 99.90
21976 2020-02-24 20:34:53 Terrasse 8.10 7.57 99.90
21975 2020-02-24 20:06:40 Terrasse 8.00 7.46 99.90
21974 2020-02-24 19:38:27 Terrasse 8.00 7.46 99.90
21973 2020-02-24 19:10:15 Terrasse 7.90 7.35 99.90
21972 2020-02-24 18:42:02 Terrasse 7.90 7.35 99.90
21971 2020-02-24 18:13:50 Terrasse 7.60 7.02 99.90
21970 2020-02-24 17:45:34 Terrasse 7.20 6.58 99.90
21969 2020-02-24 17:17:21 Terrasse 6.70 6.03 99.90
21968 2020-02-24 16:49:09 Terrasse 6.60 5.92 99.90
21967 2020-02-24 16:20:55 Terrasse 6.50 5.81 99.90
21966 2020-02-24 15:52:44 Terrasse 6.40 5.70 99.90
21965 2020-02-24 15:24:31 Terrasse 6.30 5.59 99.90
21964 2020-02-24 14:56:17 Terrasse 6.20 5.48 99.90
21963 2020-02-24 14:28:04 Terrasse 6.10 5.37 99.90
21962 2020-02-24 13:59:52 Terrasse 6.00 5.26 99.90
21961 2020-02-24 13:31:39 Terrasse 5.80 5.04 99.90
21960 2020-02-24 13:03:26 Terrasse 5.70 4.93 99.90
21959 2020-02-24 12:35:13 Terrasse 5.70 4.93 99.90
21958 2020-02-24 12:07:00 Terrasse 5.50 4.71 99.90
21957 2020-02-24 11:38:48 Terrasse 5.40 4.60 99.90
21956 2020-02-24 11:10:35 Terrasse 5.40 4.60 99.90
21955 2020-02-24 10:42:24 Terrasse 5.30 4.49 99.90
21954 2020-02-24 10:14:12 Terrasse 5.20 4.38 99.90
21953 2020-02-24 09:45:59 Terrasse 5.20 4.38 99.90
21952 2020-02-24 09:17:46 Terrasse 5.30 4.49 99.90
21951 2020-02-24 08:49:33 Terrasse 5.10 4.27 99.90
21950 2020-02-24 08:21:20 Terrasse 5.00 4.16 99.90
21949 2020-02-24 07:53:06 Terrasse 4.80 3.94 99.90
21948 2020-02-24 07:24:54 Terrasse 4.90 4.05 99.90
21947 2020-02-24 06:56:44 Terrasse 4.80 3.94 99.90
21946 2020-02-24 06:28:31 Terrasse 4.80 3.94 99.90
21945 2020-02-24 06:00:20 Terrasse 4.80 3.94 99.90
21944 2020-02-24 05:32:09 Terrasse 4.90 4.05 99.90
21943 2020-02-24 05:03:58 Terrasse 5.00 4.16 99.90
21942 2020-02-24 04:35:46 Terrasse 5.00 4.16 99.90
21941 2020-02-24 04:07:41 Terrasse 5.00 4.16 99.90
21940 2020-02-24 03:39:28 Terrasse 5.10 4.27 99.90
21939 2020-02-24 03:11:18 Terrasse 5.20 4.38 99.90
21938 2020-02-24 02:43:07 Terrasse 5.70 4.93 99.90
21937 2020-02-24 02:14:56 Terrasse 6.00 5.26 99.90
21936 2020-02-24 01:46:45 Terrasse 6.10 5.37 99.90
21935 2020-02-24 01:18:33 Terrasse 6.40 5.70 99.90
21934 2020-02-24 00:50:23 Terrasse 6.50 5.81 99.90
21933 2020-02-24 00:22:12 Terrasse 6.70 6.03 99.90
21932 2020-02-23 23:54:00 Terrasse 6.80 6.14 99.90
21931 2020-02-23 23:25:49 Terrasse 6.90 6.25 99.90
21930 2020-02-23 22:57:38 Terrasse 7.20 6.58 99.90
21929 2020-02-23 22:29:34 Terrasse 7.60 7.02 99.90
21928 2020-02-23 22:01:21 Terrasse 7.70 7.13 99.90
21927 2020-02-23 21:33:12 Terrasse 8.00 7.46 99.90
21926 2020-02-23 21:05:01 Terrasse 8.50 8.01 99.90
21925 2020-02-23 20:36:51 Terrasse 9.20 8.78 99.90
21924 2020-02-23 20:08:46 Terrasse 10.30 9.99 99.90
21923 2020-02-23 19:40:33 Terrasse 10.50 10.21 99.90
21922 2020-02-23 19:12:21 Terrasse 10.80 10.54 99.90
21921 2020-02-23 18:44:08 Terrasse 10.80 10.54 99.90
21920 2020-02-23 18:15:54 Terrasse 10.80 10.54 99.90
21919 2020-02-23 17:47:42 Terrasse 10.80 10.54 99.90
21918 2020-02-23 17:19:27 Terrasse 10.70 10.43 99.90
21917 2020-02-23 16:51:15 Terrasse 10.70 10.43 99.90
21916 2020-02-23 16:23:01 Terrasse 10.70 10.43 99.90
21915 2020-02-23 15:54:50 Terrasse 10.70 10.43 99.90
21914 2020-02-23 15:26:36 Terrasse 10.70 10.43 99.90
21913 2020-02-23 14:58:21 Terrasse 10.40 10.10 99.90
21912 2020-02-23 14:30:07 Terrasse 10.30 9.99 99.90
21911 2020-02-23 14:01:52 Terrasse 10.00 9.66 99.90
21910 2020-02-23 13:33:38 Terrasse 9.50 9.11 99.90
21909 2020-02-23 13:05:23 Terrasse 9.20 8.78 99.90
21908 2020-02-23 12:37:10 Terrasse 9.00 8.56 99.90
21907 2020-02-23 12:09:03 Terrasse 8.80 8.34 99.90
21906 2020-02-23 11:40:53 Terrasse 8.60 8.12 99.90
21905 2020-02-23 11:12:39 Terrasse 8.40 7.90 99.90
21904 2020-02-23 10:44:25 Terrasse 8.30 7.79 99.90
21903 2020-02-23 10:16:12 Terrasse 8.20 7.68 99.90
21902 2020-02-23 09:47:58 Terrasse 8.10 7.57 99.90
21901 2020-02-23 09:19:44 Terrasse 8.00 7.46 99.90
21900 2020-02-23 08:51:31 Terrasse 7.90 7.35 99.90
21899 2020-02-23 08:23:18 Terrasse 7.90 7.35 99.90
21898 2020-02-23 07:55:07 Terrasse 7.90 7.35 99.90
21897 2020-02-23 07:26:54 Terrasse 7.90 7.35 99.90
21896 2020-02-23 06:58:42 Terrasse 8.00 7.46 99.90
21895 2020-02-23 06:30:30 Terrasse 8.00 7.46 99.90
21894 2020-02-23 06:02:19 Terrasse 8.10 7.57 99.90
21893 2020-02-23 05:34:07 Terrasse 8.20 7.68 99.90
21892 2020-02-23 05:05:55 Terrasse 8.30 7.79 99.90
21891 2020-02-23 04:37:43 Terrasse 8.40 7.90 99.90
21890 2020-02-23 04:09:30 Terrasse 8.50 8.01 99.90
21889 2020-02-23 03:41:17 Terrasse 8.50 8.01 99.90
21888 2020-02-23 03:13:04 Terrasse 8.30 7.79 99.90
21887 2020-02-23 02:44:51 Terrasse 8.30 7.79 99.90
21886 2020-02-23 02:16:38 Terrasse 8.30 7.79 99.90
21885 2020-02-23 01:48:28 Terrasse 8.40 7.90 99.90
21884 2020-02-23 01:20:16 Terrasse 8.60 8.12 99.90
21883 2020-02-23 00:52:04 Terrasse 8.70 8.23 99.90
21882 2020-02-23 00:23:51 Terrasse 8.60 8.12 99.90
21881 2020-02-22 23:55:38 Terrasse 8.60 8.12 99.90
21880 2020-02-22 23:27:24 Terrasse 8.60 8.12 99.90
21879 2020-02-22 22:59:11 Terrasse 8.50 8.01 99.90
21878 2020-02-22 22:30:58 Terrasse 8.60 8.12 99.90
21877 2020-02-22 22:02:46 Terrasse 8.60 8.12 99.90
21876 2020-02-22 21:34:32 Terrasse 8.50 8.01 99.90
21875 2020-02-22 21:06:19 Terrasse 8.40 7.90 99.90
21874 2020-02-22 20:38:07 Terrasse 8.50 8.01 99.90
21873 2020-02-22 20:09:55 Terrasse 8.60 8.12 99.90
21872 2020-02-22 19:41:44 Terrasse 8.60 8.12 99.90
21871 2020-02-22 19:13:33 Terrasse 8.70 8.23 99.90
21870 2020-02-22 18:45:20 Terrasse 8.70 8.19 98.40
21869 2020-02-22 18:17:06 Terrasse 8.60 7.78 86.60
21868 2020-02-22 17:48:54 Terrasse 8.60 7.46 74.50
21867 2020-02-22 17:20:44 Terrasse 8.60 7.34 69.90
21866 2020-02-22 16:52:31 Terrasse 8.70 7.37 67.00
21865 2020-02-22 16:24:21 Terrasse 8.70 7.33 65.10
21864 2020-02-22 15:56:08 Terrasse 8.80 7.52 68.20
21863 2020-02-22 15:27:55 Terrasse 8.80 7.58 70.50
21862 2020-02-22 14:59:41 Terrasse 8.60 7.42 73.00
21861 2020-02-22 14:31:28 Terrasse 8.50 7.29 72.20
21860 2020-02-22 14:03:15 Terrasse 8.60 7.37 71.10
21859 2020-02-22 13:35:05 Terrasse 9.00 7.74 68.30
21858 2020-02-22 13:07:02 Terrasse 10.10 8.83 63.90
21857 2020-02-22 12:38:42 Terrasse 9.90 8.69 67.00
21856 2020-02-22 12:10:42 Terrasse 10.90 9.70 63.30
21855 2020-02-22 11:42:45 Terrasse 13.60 12.63 61.90
21854 2020-02-22 11:14:15 Terrasse 8.10 7.37 92.00
21853 2020-02-22 10:45:55 Terrasse 6.80 6.14 99.90
21852 2020-02-22 10:17:40 Terrasse 6.10 5.37 99.90
21851 2020-02-22 09:49:17 Terrasse 4.80 3.94 99.90
21850 2020-02-22 09:21:00 Terrasse 3.80 2.84 99.90
21849 2020-02-22 08:52:43 Terrasse 3.10 2.07 99.90
21848 2020-02-22 08:24:29 Terrasse 2.70 1.63 99.90
21847 2020-02-22 07:56:17 Terrasse 2.40 1.30 99.90
21846 2020-02-22 07:28:05 Terrasse 2.20 1.08 99.90
21845 2020-02-22 06:59:54 Terrasse 2.30 1.19 99.90
21844 2020-02-22 06:31:43 Terrasse 2.40 1.30 99.90
21843 2020-02-22 06:03:31 Terrasse 2.40 1.30 99.90
21842 2020-02-22 05:35:20 Terrasse 2.30 1.19 99.90
21841 2020-02-22 05:07:11 Terrasse 2.50 1.41 99.90
21840 2020-02-22 04:39:01 Terrasse 2.70 1.63 99.90
21839 2020-02-22 04:10:52 Terrasse 2.90 1.85 99.90
21838 2020-02-22 03:42:42 Terrasse 3.00 1.96 99.90
21837 2020-02-22 03:14:32 Terrasse 3.10 2.07 99.90
21836 2020-02-22 02:46:31 Terrasse 3.10 2.07 99.90
21835 2020-02-22 02:18:18 Terrasse 3.20 2.18 99.90
21834 2020-02-22 01:50:07 Terrasse 3.20 2.18 99.90
21833 2020-02-22 01:21:56 Terrasse 3.40 2.40 99.90
21832 2020-02-22 00:53:46 Terrasse 3.80 2.84 99.90
21831 2020-02-22 00:25:36 Terrasse 4.10 3.17 99.90
21830 2020-02-21 23:57:27 Terrasse 4.40 3.50 99.90
21829 2020-02-21 23:29:16 Terrasse 4.70 3.81 99.00
21828 2020-02-21 23:01:05 Terrasse 5.00 4.02 94.50
21827 2020-02-21 22:32:56 Terrasse 5.30 4.26 90.90
21826 2020-02-21 22:04:46 Terrasse 5.60 4.50 87.30
21825 2020-02-21 21:36:35 Terrasse 5.80 4.63 84.20
21824 2020-02-21 21:08:23 Terrasse 6.00 4.79 81.60
21823 2020-02-21 20:40:13 Terrasse 6.10 4.79 77.40
21822 2020-02-21 20:12:02 Terrasse 6.10 4.69 73.80
21821 2020-02-21 19:43:50 Terrasse 6.40 4.94 70.50
21820 2020-02-21 19:15:40 Terrasse 6.80 5.31 67.90
21819 2020-02-21 18:47:30 Terrasse 7.00 5.47 65.80
21818 2020-02-21 18:19:19 Terrasse 7.30 5.79 65.20
21817 2020-02-21 17:51:09 Terrasse 7.60 6.10 64.40
21816 2020-02-21 17:22:59 Terrasse 8.00 6.49 62.50
21815 2020-02-21 16:54:51 Terrasse 8.70 7.20 60.30
21814 2020-02-21 16:26:43 Terrasse 9.10 7.62 59.40
21813 2020-02-21 15:58:40 Terrasse 10.50 9.10 57.10
21812 2020-02-21 15:30:19 Terrasse 12.00 10.78 58.30
21811 2020-02-21 15:01:46 Terrasse 8.40 6.93 62.70
21810 2020-02-21 14:33:36 Terrasse 8.70 7.22 61.00
21809 2020-02-21 14:05:31 Terrasse 9.60 8.15 58.70
21808 2020-02-21 13:37:24 Terrasse 11.60 10.27 55.60
21807 2020-02-21 13:09:07 Terrasse 10.70 9.31 56.80
21806 2020-02-21 12:40:59 Terrasse 11.40 10.06 56.20
21805 2020-02-21 12:13:10 Terrasse 12.90 11.76 58.00
21804 2020-02-21 11:44:48 Terrasse 10.20 8.90 62.30
21803 2020-02-21 11:16:10 Terrasse 6.90 5.77 81.50
21802 2020-02-21 10:47:55 Terrasse 6.20 5.21 89.40
21801 2020-02-21 10:19:44 Terrasse 5.90 5.15 99.90
21800 2020-02-21 09:51:20 Terrasse 4.70 3.83 99.90
21799 2020-02-21 09:23:04 Terrasse 3.80 2.84 99.90
21798 2020-02-21 08:54:49 Terrasse 3.10 2.07 99.90
21797 2020-02-21 08:26:37 Terrasse 2.90 1.85 99.90
21796 2020-02-21 07:58:26 Terrasse 2.90 1.85 99.90
21795 2020-02-21 07:30:15 Terrasse 3.10 2.07 99.90
21794 2020-02-21 07:02:05 Terrasse 3.20 2.18 99.90
21793 2020-02-21 06:33:55 Terrasse 3.40 2.40 99.90
21792 2020-02-21 06:05:43 Terrasse 3.40 2.40 99.90
21791 2020-02-21 05:37:32 Terrasse 3.40 2.40 99.90
21790 2020-02-21 05:09:21 Terrasse 3.50 2.51 99.90
21789 2020-02-21 04:41:10 Terrasse 3.50 2.51 99.90
21788 2020-02-21 04:12:59 Terrasse 3.60 2.62 99.90
21787 2020-02-21 03:44:49 Terrasse 3.70 2.73 99.90
21786 2020-02-21 03:16:38 Terrasse 4.00 3.06 99.90
21785 2020-02-21 02:48:29 Terrasse 4.20 3.28 99.90
21784 2020-02-21 02:20:19 Terrasse 4.40 3.50 99.90
21783 2020-02-21 01:52:09 Terrasse 4.70 3.83 99.90
21782 2020-02-21 01:24:00 Terrasse 5.10 4.27 99.90
21781 2020-02-21 00:55:50 Terrasse 5.40 4.60 99.90
21780 2020-02-21 00:27:39 Terrasse 5.60 4.82 99.90
21779 2020-02-20 23:59:28 Terrasse 5.80 5.04 99.90
21778 2020-02-20 23:31:20 Terrasse 6.30 5.59 99.90
21777 2020-02-20 23:03:10 Terrasse 6.50 5.81 99.90
21776 2020-02-20 22:34:58 Terrasse 6.70 6.03 99.90
21775 2020-02-20 22:06:47 Terrasse 6.80 6.14 99.90
21774 2020-02-20 21:38:36 Terrasse 7.10 6.47 99.90
21773 2020-02-20 21:10:24 Terrasse 7.00 6.36 99.90
21772 2020-02-20 20:42:12 Terrasse 6.90 6.25 99.90
21771 2020-02-20 20:14:00 Terrasse 6.80 6.14 99.90
21770 2020-02-20 19:45:47 Terrasse 6.90 6.25 99.90
21769 2020-02-20 19:17:37 Terrasse 7.00 6.36 99.90
21768 2020-02-20 18:49:25 Terrasse 7.10 6.47 99.90
21767 2020-02-20 18:21:15 Terrasse 7.20 6.58 99.90
21766 2020-02-20 17:53:03 Terrasse 7.20 6.58 99.90
21765 2020-02-20 17:24:52 Terrasse 7.40 6.80 99.90
21764 2020-02-20 16:56:40 Terrasse 7.60 7.02 99.90
21763 2020-02-20 16:28:30 Terrasse 7.80 7.24 99.90
21762 2020-02-20 16:00:21 Terrasse 8.10 7.57 99.90
21761 2020-02-20 15:32:13 Terrasse 8.70 8.23 99.90
21760 2020-02-20 15:03:47 Terrasse 9.10 8.67 99.90
21759 2020-02-20 14:35:32 Terrasse 8.10 7.57 99.90
21758 2020-02-20 14:07:22 Terrasse 8.10 7.57 99.90
21757 2020-02-20 13:39:13 Terrasse 8.50 8.01 99.90
21756 2020-02-20 13:10:54 Terrasse 7.00 6.36 99.90
21755 2020-02-20 12:42:37 Terrasse 6.90 6.25 99.90
21754 2020-02-20 12:14:21 Terrasse 6.20 5.48 99.90
21753 2020-02-20 11:46:09 Terrasse 6.00 5.26 99.90
21752 2020-02-20 11:17:56 Terrasse 5.80 5.04 99.90
21751 2020-02-20 10:49:42 Terrasse 5.60 4.82 99.90
21750 2020-02-20 10:21:30 Terrasse 5.50 4.71 99.90
21749 2020-02-20 09:53:17 Terrasse 5.30 4.49 99.90
21748 2020-02-20 09:25:04 Terrasse 5.10 4.27 99.90
21747 2020-02-20 08:00:43 Terrasse 4.70 3.83 99.90
21746 2020-02-20 07:32:32 Terrasse 4.60 3.72 99.90
21745 2020-02-20 07:04:21 Terrasse 4.60 3.72 99.90
21744 2020-02-20 06:08:08 Terrasse 4.50 3.61 99.90
21743 2020-02-20 05:39:59 Terrasse 4.50 3.61 99.90
21742 2020-02-20 05:11:48 Terrasse 4.50 3.61 99.90
21741 2020-02-20 04:43:38 Terrasse 4.40 3.50 99.90
21740 2020-02-20 04:15:27 Terrasse 4.30 3.39 99.90
21739 2020-02-20 03:47:18 Terrasse 4.30 3.39 99.90
21738 2020-02-20 03:19:09 Terrasse 4.30 3.39 99.90
21737 2020-02-20 02:50:58 Terrasse 4.20 3.28 99.90
21736 2020-02-20 02:22:47 Terrasse 4.20 3.28 99.90
21735 2020-02-20 01:54:37 Terrasse 4.20 3.28 99.90
21734 2020-02-20 01:26:27 Terrasse 4.20 3.28 99.90
21733 2020-02-20 00:58:18 Terrasse 4.20 3.26 98.80
21732 2020-02-20 00:30:08 Terrasse 4.20 3.17 95.50
21731 2020-02-20 00:01:58 Terrasse 4.20 3.10 92.90
21730 2020-02-19 23:33:48 Terrasse 4.20 2.98 88.30
21729 2020-02-19 23:05:38 Terrasse 4.00 2.75 87.90
21728 2020-02-19 22:37:29 Terrasse 3.90 2.63 87.50
21727 2020-02-19 22:09:20 Terrasse 4.00 2.64 83.50
21726 2020-02-19 21:41:11 Terrasse 4.10 2.57 76.80
21725 2020-02-19 21:13:04 Terrasse 4.30 2.81 77.40
21724 2020-02-19 20:44:57 Terrasse 5.00 3.32 67.50
21723 2020-02-19 20:17:00 Terrasse 5.40 3.68 64.60
21722 2020-02-19 19:20:36 Terrasse 5.80 4.00 59.90
21721 2020-02-19 18:52:25 Terrasse 6.00 4.20 59.20
21720 2020-02-19 18:24:16 Terrasse 6.30 4.49 57.70
21719 2020-02-19 17:56:06 Terrasse 6.70 4.89 56.20
21718 2020-02-19 17:27:57 Terrasse 7.10 5.32 55.60
21717 2020-02-19 16:59:50 Terrasse 7.70 5.96 54.80
21716 2020-02-19 16:31:47 Terrasse 9.00 7.34 53.00
21715 2020-02-19 16:03:47 Terrasse 12.40 11.02 50.60
21714 2020-02-19 15:35:32 Terrasse 8.30 6.60 54.20
21713 2020-02-19 15:07:30 Terrasse 9.60 8.02 53.70
21712 2020-02-19 14:39:47 Terrasse 11.90 10.49 51.40
21711 2020-02-19 14:11:32 Terrasse 11.60 10.22 53.90
21710 2020-02-19 13:43:37 Terrasse 12.60 11.31 53.40
21709 2020-02-19 13:16:00 Terrasse 15.90 14.91 52.40
21708 2020-02-19 12:47:43 Terrasse 17.40 16.51 50.40
21707 2020-02-19 12:19:15 Terrasse 13.50 12.47 59.90
21706 2020-02-19 11:50:34 Terrasse 12.20 11.21 66.60
21705 2020-02-19 11:21:51 Terrasse 7.40 6.80 99.90
21704 2020-02-19 10:53:28 Terrasse 5.70 4.93 99.90
21703 2020-02-19 10:25:13 Terrasse 4.60 3.72 99.90
21702 2020-02-19 09:57:00 Terrasse 4.60 3.72 99.90
21701 2020-02-19 09:28:47 Terrasse 4.30 3.39 99.90
21700 2020-02-19 09:00:37 Terrasse 4.50 3.61 99.90
21699 2020-02-19 08:32:27 Terrasse 5.00 4.16 99.90
21698 2020-02-19 08:04:16 Terrasse 4.90 4.05 99.90
21697 2020-02-19 07:36:05 Terrasse 5.00 4.16 99.90
21696 2020-02-19 07:07:52 Terrasse 5.00 4.16 99.90
21695 2020-02-19 06:39:42 Terrasse 5.20 4.38 99.90
21694 2020-02-19 06:11:31 Terrasse 5.20 4.38 99.90
21693 2020-02-19 05:43:19 Terrasse 5.30 4.49 99.90
21692 2020-02-19 05:15:08 Terrasse 5.30 4.49 99.90
21691 2020-02-19 04:46:57 Terrasse 5.40 4.60 99.90
21690 2020-02-19 04:18:46 Terrasse 5.50 4.71 99.90
21689 2020-02-19 03:50:33 Terrasse 5.50 4.71 99.90
21688 2020-02-19 03:22:22 Terrasse 5.50 4.71 99.90
21687 2020-02-19 02:54:11 Terrasse 5.60 4.82 99.90
21686 2020-02-19 02:25:59 Terrasse 5.60 4.82 99.90
21685 2020-02-19 01:57:48 Terrasse 5.60 4.82 99.90
21684 2020-02-19 01:29:37 Terrasse 5.60 4.82 99.90
21683 2020-02-19 01:01:25 Terrasse 5.70 4.93 99.90
21682 2020-02-19 00:33:13 Terrasse 5.60 4.82 99.90
21681 2020-02-19 00:05:01 Terrasse 5.60 4.82 99.90
21680 2020-02-18 23:36:51 Terrasse 5.80 5.04 99.90
21679 2020-02-18 23:08:39 Terrasse 5.70 4.93 99.90
21678 2020-02-18 22:40:26 Terrasse 5.70 4.93 99.90
21677 2020-02-18 22:12:16 Terrasse 5.80 5.04 99.90
21676 2020-02-18 21:44:06 Terrasse 5.80 5.04 99.90
21675 2020-02-18 21:15:55 Terrasse 5.80 5.04 99.90
21674 2020-02-18 20:47:43 Terrasse 5.90 5.15 99.90
21673 2020-02-18 20:19:33 Terrasse 6.00 5.26 99.90
21672 2020-02-18 19:51:22 Terrasse 6.20 5.48 99.90
21671 2020-02-18 19:23:11 Terrasse 6.30 5.59 99.90
21670 2020-02-18 18:55:00 Terrasse 6.50 5.81 99.90
21669 2020-02-18 18:26:50 Terrasse 6.80 6.10 98.40
21668 2020-02-18 17:58:38 Terrasse 7.00 6.09 89.30
21667 2020-02-18 17:30:28 Terrasse 7.30 6.15 79.10
21666 2020-02-18 17:02:18 Terrasse 7.60 6.39 75.60
21665 2020-02-18 16:34:09 Terrasse 8.10 6.81 70.70
21664 2020-02-18 16:06:05 Terrasse 9.30 8.01 66.20
21663 2020-02-18 15:37:45 Terrasse 8.10 6.82 70.90
21662 2020-02-18 15:09:32 Terrasse 7.90 6.70 74.90
21661 2020-02-18 14:41:19 Terrasse 7.80 6.73 80.40
21660 2020-02-18 14:13:12 Terrasse 8.40 7.24 74.50
21659 2020-02-18 13:44:50 Terrasse 8.30 7.25 79.00
21658 2020-02-18 13:16:48 Terrasse 9.10 8.03 75.30
21657 2020-02-18 12:48:26 Terrasse 7.70 6.96 93.10
21656 2020-02-18 12:20:14 Terrasse 8.00 6.79 73.90
21655 2020-02-18 11:52:01 Terrasse 8.00 6.80 74.30
21654 2020-02-18 11:23:46 Terrasse 7.60 6.89 94.70
21653 2020-02-18 10:55:30 Terrasse 6.50 5.81 99.90
21652 2020-02-18 10:27:18 Terrasse 6.60 5.92 99.90
21651 2020-02-18 09:59:02 Terrasse 5.80 5.04 99.90
21650 2020-02-18 09:30:49 Terrasse 5.80 5.04 99.90
21649 2020-02-18 09:02:38 Terrasse 5.60 4.82 99.90
21648 2020-02-18 08:34:25 Terrasse 5.50 4.71 99.90
21647 2020-02-18 08:06:14 Terrasse 5.50 4.71 99.90
21646 2020-02-18 07:38:03 Terrasse 5.50 4.71 99.90
21645 2020-02-18 07:09:52 Terrasse 5.50 4.71 99.90
21644 2020-02-18 06:41:41 Terrasse 5.60 4.82 99.90
21643 2020-02-18 06:13:28 Terrasse 5.70 4.93 99.90
21642 2020-02-18 05:45:17 Terrasse 5.70 4.93 99.90
21641 2020-02-18 05:17:06 Terrasse 5.80 5.04 99.90
21640 2020-02-18 04:48:55 Terrasse 5.90 5.15 99.90
21639 2020-02-18 04:20:46 Terrasse 6.10 5.37 99.90
21638 2020-02-18 03:52:34 Terrasse 6.00 5.26 99.90
21637 2020-02-18 03:24:23 Terrasse 6.10 5.37 99.90
21636 2020-02-18 02:56:13 Terrasse 6.20 5.48 99.90
21635 2020-02-18 02:28:00 Terrasse 6.20 5.48 99.90
21634 2020-02-18 01:59:49 Terrasse 6.20 5.48 99.90
21633 2020-02-18 01:31:38 Terrasse 6.20 5.48 99.90
21632 2020-02-18 01:03:27 Terrasse 6.30 5.59 99.90
21631 2020-02-18 00:35:15 Terrasse 6.30 5.59 99.90
21630 2020-02-18 00:07:03 Terrasse 6.30 5.59 99.90
21629 2020-02-17 23:38:51 Terrasse 6.20 5.48 99.90
21628 2020-02-17 23:10:40 Terrasse 6.30 5.59 99.90
21627 2020-02-17 22:42:28 Terrasse 6.30 5.59 99.90
21626 2020-02-17 22:14:17 Terrasse 6.30 5.59 99.90
21625 2020-02-17 21:46:07 Terrasse 6.30 5.59 99.90
21624 2020-02-17 21:17:58 Terrasse 6.40 5.70 99.90
21623 2020-02-17 20:49:48 Terrasse 6.60 5.92 99.90
21622 2020-02-17 20:21:37 Terrasse 6.70 6.03 99.90
21621 2020-02-17 19:53:27 Terrasse 6.70 6.03 99.90
21620 2020-02-17 19:25:17 Terrasse 7.20 6.58 99.90
21619 2020-02-17 18:57:11 Terrasse 7.90 7.35 99.90
21618 2020-02-17 18:29:02 Terrasse 8.10 7.57 99.90
21617 2020-02-17 18:00:51 Terrasse 8.20 7.68 99.90
21616 2020-02-17 17:32:41 Terrasse 8.50 8.01 99.90
21615 2020-02-17 17:04:29 Terrasse 8.70 8.23 99.90
21614 2020-02-17 16:36:19 Terrasse 9.00 8.56 99.90
21613 2020-02-17 16:08:08 Terrasse 8.80 8.34 99.90
21612 2020-02-17 15:39:52 Terrasse 8.60 8.12 99.90
21611 2020-02-17 15:11:41 Terrasse 8.40 7.90 99.90
21610 2020-02-17 14:43:33 Terrasse 8.50 8.01 99.90
21609 2020-02-17 14:15:21 Terrasse 8.50 8.01 99.90
21608 2020-02-17 13:47:06 Terrasse 8.10 7.57 99.90
21607 2020-02-17 13:18:54 Terrasse 7.90 7.35 99.90
21606 2020-02-17 12:50:42 Terrasse 7.90 7.35 99.90
21605 2020-02-17 12:22:33 Terrasse 8.00 7.46 99.90
21604 2020-02-17 11:54:20 Terrasse 8.00 7.46 99.90
21603 2020-02-17 11:26:10 Terrasse 8.00 7.46 99.90
21602 2020-02-17 10:57:59 Terrasse 8.00 7.46 99.90
21601 2020-02-17 10:29:46 Terrasse 7.90 7.35 99.90
21600 2020-02-17 10:01:34 Terrasse 7.80 7.24 99.90
21599 2020-02-17 09:33:23 Terrasse 7.80 7.24 99.90
21598 2020-02-17 09:05:11 Terrasse 7.80 7.24 99.90
21597 2020-02-17 08:36:59 Terrasse 7.90 7.35 99.90
21596 2020-02-17 08:08:49 Terrasse 8.00 7.46 99.90
21595 2020-02-17 07:40:36 Terrasse 8.00 7.46 99.90
21594 2020-02-17 07:12:24 Terrasse 8.10 7.57 99.90
21593 2020-02-17 06:44:12 Terrasse 8.20 7.68 99.90
21592 2020-02-17 06:16:01 Terrasse 8.20 7.68 99.90
21591 2020-02-17 05:47:49 Terrasse 8.30 7.79 99.90
21590 2020-02-17 05:19:39 Terrasse 8.60 8.12 99.90
21589 2020-02-17 04:51:28 Terrasse 8.80 8.34 99.90
21588 2020-02-17 04:23:17 Terrasse 9.00 8.56 99.90
21587 2020-02-17 03:55:04 Terrasse 9.10 8.67 99.90
21586 2020-02-17 03:26:54 Terrasse 9.30 8.89 99.90
21585 2020-02-17 02:58:44 Terrasse 9.70 9.33 99.90
21584 2020-02-17 02:30:33 Terrasse 10.00 9.66 99.90
21583 2020-02-17 02:02:25 Terrasse 10.30 9.99 99.90
21582 2020-02-17 01:34:16 Terrasse 10.80 10.54 99.90
21581 2020-02-17 01:06:09 Terrasse 11.40 11.20 99.90
21580 2020-02-17 00:38:05 Terrasse 12.30 12.19 99.90
21579 2020-02-17 00:09:55 Terrasse 13.00 12.83 94.60
21578 2020-02-16 23:41:42 Terrasse 12.90 12.61 90.40
21577 2020-02-16 23:13:31 Terrasse 13.00 12.60 86.10
21576 2020-02-16 22:45:21 Terrasse 12.90 12.33 79.90
21575 2020-02-16 22:17:08 Terrasse 12.90 12.28 77.90
21574 2020-02-16 21:48:55 Terrasse 12.80 12.09 75.00
21573 2020-02-16 21:20:43 Terrasse 12.90 12.11 71.60
21572 2020-02-16 20:52:31 Terrasse 12.80 11.96 69.70
21571 2020-02-16 20:24:21 Terrasse 12.90 12.01 67.40
21570 2020-02-16 19:56:30 Terrasse 13.00 12.07 65.50
21569 2020-02-16 19:28:31 Terrasse 13.10 12.14 64.30
21568 2020-02-16 19:00:13 Terrasse 13.20 12.23 63.50
21567 2020-02-16 18:32:02 Terrasse 13.50 12.51 61.40
21566 2020-02-16 18:03:51 Terrasse 13.70 12.72 61.00
21565 2020-02-16 17:35:40 Terrasse 14.00 13.07 61.80
21564 2020-02-16 17:07:30 Terrasse 14.40 13.49 61.10
21563 2020-02-16 16:39:19 Terrasse 14.60 13.71 61.00
21562 2020-02-16 16:11:10 Terrasse 15.20 14.36 60.80
21561 2020-02-16 15:43:02 Terrasse 15.20 14.36 60.50
21560 2020-02-16 15:14:57 Terrasse 16.10 15.37 61.40
21559 2020-02-16 14:18:34 Terrasse 15.20 14.46 64.50
21558 2020-02-16 13:50:31 Terrasse 16.20 15.50 62.20
21557 2020-02-16 13:22:28 Terrasse 17.70 17.05 58.30
21556 2020-02-16 12:54:07 Terrasse 16.80 16.19 63.40
21555 2020-02-16 12:25:35 Terrasse 13.80 13.38 82.20
21554 2020-02-16 11:57:06 Terrasse 10.90 10.65 99.90
21553 2020-02-16 11:28:56 Terrasse 10.90 10.65 99.90
21552 2020-02-16 11:00:43 Terrasse 10.60 10.32 99.90
21551 2020-02-16 10:32:26 Terrasse 9.80 9.44 99.90
21550 2020-02-16 10:04:16 Terrasse 9.80 9.44 99.90
21549 2020-02-16 09:35:59 Terrasse 9.20 8.78 99.90
21548 2020-02-16 09:07:43 Terrasse 8.70 8.23 99.90
21547 2020-02-16 08:39:27 Terrasse 8.10 7.57 99.90
21546 2020-02-16 08:11:15 Terrasse 7.80 7.24 99.90
21545 2020-02-16 07:43:02 Terrasse 7.60 7.02 99.90
21544 2020-02-16 07:14:47 Terrasse 7.20 6.58 99.90
21543 2020-02-16 06:46:35 Terrasse 7.00 6.36 99.90
21542 2020-02-16 06:18:23 Terrasse 7.00 6.36 99.90
21541 2020-02-16 05:50:13 Terrasse 6.90 6.25 99.90
21540 2020-02-16 05:22:01 Terrasse 6.90 6.25 99.90
21539 2020-02-16 04:53:50 Terrasse 6.80 6.14 99.90
21538 2020-02-16 04:25:38 Terrasse 6.80 6.14 99.90
21537 2020-02-16 03:57:28 Terrasse 6.90 6.25 99.90
21536 2020-02-16 03:29:16 Terrasse 6.80 6.14 99.90
21535 2020-02-16 03:01:05 Terrasse 6.80 6.14 99.90
21534 2020-02-16 02:32:55 Terrasse 6.80 6.14 99.90
21533 2020-02-16 02:04:45 Terrasse 7.00 6.36 99.90
21532 2020-02-16 01:36:33 Terrasse 7.10 6.47 99.90
21531 2020-02-16 01:08:22 Terrasse 7.40 6.80 99.90
21530 2020-02-16 00:40:11 Terrasse 7.50 6.91 99.90
21529 2020-02-16 00:11:58 Terrasse 7.30 6.69 99.90
21528 2020-02-15 23:43:47 Terrasse 7.30 6.69 99.90
21527 2020-02-15 23:15:35 Terrasse 7.30 6.69 99.90
21526 2020-02-15 22:47:22 Terrasse 7.40 6.80 99.90
21525 2020-02-15 22:19:20 Terrasse 7.40 6.80 99.90
21524 2020-02-15 21:51:05 Terrasse 7.40 6.80 99.90
21523 2020-02-15 21:22:53 Terrasse 7.30 6.69 99.90
21522 2020-02-15 20:54:41 Terrasse 7.20 6.58 99.90
21521 2020-02-15 20:26:29 Terrasse 7.20 6.58 99.90
21520 2020-02-15 19:58:17 Terrasse 7.10 6.47 99.90
21519 2020-02-15 19:30:07 Terrasse 7.10 6.47 99.90
21518 2020-02-15 19:01:57 Terrasse 7.40 6.80 99.90
21517 2020-02-15 18:33:49 Terrasse 7.80 7.24 99.90
21516 2020-02-15 18:05:42 Terrasse 8.40 7.90 99.90
21515 2020-02-15 17:37:36 Terrasse 9.10 8.67 99.90
21514 2020-02-15 17:09:32 Terrasse 10.10 9.77 99.90
21513 2020-02-15 16:41:32 Terrasse 11.70 11.53 99.90
21512 2020-02-15 16:13:29 Terrasse 14.10 13.58 77.20
21511 2020-02-15 15:44:50 Terrasse 11.30 11.09 99.90
21510 2020-02-15 15:16:20 Terrasse 9.80 9.44 99.90
21509 2020-02-15 14:48:07 Terrasse 9.70 9.33 99.90
21508 2020-02-15 14:19:59 Terrasse 10.10 9.77 99.90
21507 2020-02-15 13:51:50 Terrasse 10.30 9.99 99.90
21506 2020-02-15 13:23:50 Terrasse 11.40 11.20 99.90
21505 2020-02-15 12:55:42 Terrasse 11.70 11.53 99.90
21504 2020-02-15 12:27:15 Terrasse 10.70 10.43 99.90
21503 2020-02-15 11:58:41 Terrasse 8.30 7.79 99.90
21502 2020-02-15 11:30:29 Terrasse 8.10 7.57 99.90
21501 2020-02-15 11:02:13 Terrasse 7.60 7.02 99.90
21500 2020-02-15 10:33:55 Terrasse 6.50 5.81 99.90
21499 2020-02-15 10:05:45 Terrasse 6.10 5.37 99.90
21498 2020-02-15 09:37:26 Terrasse 5.10 4.27 99.90
21497 2020-02-15 09:09:13 Terrasse 4.20 3.28 99.90
21496 2020-02-15 08:41:00 Terrasse 3.80 2.84 99.90
21495 2020-02-15 08:12:49 Terrasse 3.60 2.62 99.90
21494 2020-02-15 07:44:41 Terrasse 3.40 2.40 99.90
21493 2020-02-15 07:16:32 Terrasse 3.50 2.51 99.90
21492 2020-02-15 06:48:24 Terrasse 3.60 2.62 99.90
21491 2020-02-15 06:20:15 Terrasse 3.70 2.73 99.90
21490 2020-02-15 05:52:06 Terrasse 3.70 2.73 99.90
21489 2020-02-15 05:23:58 Terrasse 3.70 2.73 99.90
21488 2020-02-15 04:55:48 Terrasse 3.90 2.95 99.90
21487 2020-02-15 04:27:41 Terrasse 4.10 3.17 99.90
21486 2020-02-15 03:59:32 Terrasse 4.30 3.39 99.90
21485 2020-02-15 03:31:24 Terrasse 4.30 3.39 99.90
21484 2020-02-15 03:03:15 Terrasse 4.30 3.39 99.90
21483 2020-02-15 02:35:05 Terrasse 4.30 3.39 99.90
21482 2020-02-15 02:06:54 Terrasse 4.10 3.17 99.90
21481 2020-02-15 01:38:46 Terrasse 4.00 3.06 99.90
21480 2020-02-15 01:10:39 Terrasse 4.20 3.28 99.90
21479 2020-02-15 00:42:31 Terrasse 4.30 3.39 99.90
21478 2020-02-15 00:14:22 Terrasse 4.50 3.61 99.90
21477 2020-02-14 23:46:15 Terrasse 4.70 3.83 99.90
21476 2020-02-14 23:18:06 Terrasse 4.80 3.94 99.90
21475 2020-02-14 22:49:57 Terrasse 4.80 3.94 99.90
21474 2020-02-14 22:21:48 Terrasse 4.80 3.94 99.90
21473 2020-02-14 21:54:05 Terrasse 4.70 3.83 99.90
21472 2020-02-14 21:25:44 Terrasse 4.60 3.72 99.90
21471 2020-02-14 20:57:35 Terrasse 4.60 3.72 99.90
21470 2020-02-14 20:29:26 Terrasse 4.90 4.05 99.90
21469 2020-02-14 20:01:18 Terrasse 5.00 4.16 99.90
21468 2020-02-14 19:33:09 Terrasse 5.10 4.27 99.90
21467 2020-02-14 19:05:01 Terrasse 5.30 4.49 99.90
21466 2020-02-14 18:36:52 Terrasse 5.60 4.82 99.90
21465 2020-02-14 18:08:44 Terrasse 5.90 5.15 99.90
21464 2020-02-14 17:40:36 Terrasse 6.20 5.48 99.90
21463 2020-02-14 17:12:30 Terrasse 6.50 5.81 99.90
21462 2020-02-14 16:44:23 Terrasse 6.50 5.81 99.90
21461 2020-02-14 16:16:14 Terrasse 6.50 5.81 99.90
21460 2020-02-14 15:48:03 Terrasse 6.50 5.81 99.90
21459 2020-02-14 15:19:54 Terrasse 6.40 5.70 99.90
21458 2020-02-14 14:51:43 Terrasse 6.30 5.59 99.90
21457 2020-02-14 14:23:33 Terrasse 6.20 5.48 99.90
21456 2020-02-14 13:55:23 Terrasse 6.10 5.37 99.90
21455 2020-02-14 13:27:14 Terrasse 6.10 5.37 99.90
21454 2020-02-14 12:59:05 Terrasse 6.10 5.37 99.90
21453 2020-02-14 12:30:56 Terrasse 6.40 5.70 99.90
21452 2020-02-14 12:02:47 Terrasse 6.60 5.92 99.90
21451 2020-02-14 11:34:33 Terrasse 6.00 5.26 99.90
21450 2020-02-14 11:06:23 Terrasse 6.00 5.26 99.90
21449 2020-02-14 10:38:15 Terrasse 6.00 5.26 99.90
21448 2020-02-14 10:09:59 Terrasse 5.60 4.82 99.90
21447 2020-02-14 09:41:46 Terrasse 5.30 4.49 99.90
21446 2020-02-14 09:13:34 Terrasse 5.10 4.27 99.90
21445 2020-02-14 08:45:22 Terrasse 4.80 3.94 99.90
21444 2020-02-14 08:17:12 Terrasse 4.70 3.83 99.90
21443 2020-02-14 07:49:04 Terrasse 4.70 3.83 99.90
21442 2020-02-14 07:20:43 Terrasse 4.90 4.05 99.90
21441 2020-02-14 06:18:20 Terrasse 4.80 3.94 99.90
21440 2020-02-14 05:50:12 Terrasse 4.90 4.05 99.90
21439 2020-02-14 05:22:03 Terrasse 4.90 4.05 99.90
21438 2020-02-14 04:53:53 Terrasse 4.90 4.05 99.90
21437 2020-02-14 04:25:43 Terrasse 4.90 4.05 99.90
21436 2020-02-14 03:57:41 Terrasse 5.10 4.27 99.90
21435 2020-02-14 03:29:31 Terrasse 5.10 4.27 99.90
21434 2020-02-14 03:01:22 Terrasse 5.10 4.27 99.90
21433 2020-02-14 02:33:22 Terrasse 5.10 4.27 99.90
21432 2020-02-14 02:06:50 Terrasse 5.00 4.16 99.90
21431 2020-02-14 01:33:35 Terrasse 4.90 4.05 99.90
21430 2020-02-14 01:05:25 Terrasse 4.80 3.94 99.90
21429 2020-02-14 00:37:18 Terrasse 4.50 3.61 99.90
21428 2020-02-14 00:09:08 Terrasse 4.40 3.50 99.90
21427 2020-02-13 23:41:00 Terrasse 4.30 3.39 99.90
21426 2020-02-13 23:12:50 Terrasse 4.20 3.28 99.90
21425 2020-02-13 22:44:40 Terrasse 4.20 3.28 99.90
21424 2020-02-13 22:16:30 Terrasse 4.10 3.17 99.90
21423 2020-02-13 21:48:19 Terrasse 4.10 3.17 99.90
21422 2020-02-13 21:20:07 Terrasse 4.10 3.17 99.90
21421 2020-02-13 20:51:56 Terrasse 4.10 3.17 99.90
21420 2020-02-13 20:23:45 Terrasse 4.10 3.17 99.90
21419 2020-02-13 19:55:34 Terrasse 4.10 3.17 99.90
21418 2020-02-13 19:27:24 Terrasse 4.00 3.06 99.90
21417 2020-02-13 18:59:14 Terrasse 3.90 2.95 99.90
21416 2020-02-13 18:31:04 Terrasse 3.80 2.84 99.90
21415 2020-02-13 18:02:53 Terrasse 3.80 2.84 99.90
21414 2020-02-13 17:34:42 Terrasse 3.80 2.84 99.90
21413 2020-02-13 17:06:33 Terrasse 3.70 2.73 99.90
21412 2020-02-13 16:38:24 Terrasse 3.60 2.62 99.90
21411 2020-02-13 16:10:14 Terrasse 3.50 2.51 99.90
21410 2020-02-13 15:42:06 Terrasse 3.40 2.40 99.90
21409 2020-02-13 15:13:55 Terrasse 3.40 2.40 99.90
21408 2020-02-13 14:45:46 Terrasse 3.40 2.40 99.90
21407 2020-02-13 14:17:38 Terrasse 3.30 2.29 99.90
21406 2020-02-13 13:49:31 Terrasse 3.50 2.51 99.90
21405 2020-02-13 13:21:24 Terrasse 3.90 2.95 99.90
21404 2020-02-13 12:53:14 Terrasse 3.80 2.84 99.90
21403 2020-02-13 12:25:08 Terrasse 3.90 2.95 99.90
21402 2020-02-13 11:56:57 Terrasse 3.60 2.62 99.90
21401 2020-02-13 11:28:46 Terrasse 3.30 2.29 99.90
21400 2020-02-13 11:00:36 Terrasse 3.20 2.18 99.90
21399 2020-02-13 10:32:27 Terrasse 3.00 1.96 99.90
21398 2020-02-13 10:04:19 Terrasse 2.90 1.85 99.90
21397 2020-02-13 09:36:11 Terrasse 2.80 1.74 99.90
21396 2020-02-13 09:08:02 Terrasse 2.60 1.52 99.90
21395 2020-02-13 08:39:54 Terrasse 2.40 1.30 99.90
21394 2020-02-13 08:11:46 Terrasse 2.30 1.19 99.90
21393 2020-02-13 07:43:39 Terrasse 2.20 1.08 99.90
21392 2020-02-13 07:15:33 Terrasse 2.20 1.08 99.90
21391 2020-02-13 06:47:23 Terrasse 2.10 0.97 99.90
21390 2020-02-13 06:19:41 Terrasse 2.00 0.86 99.90
21389 2020-02-13 05:51:41 Terrasse 1.80 0.64 99.90
21388 2020-02-13 05:23:24 Terrasse 1.70 0.53 99.90
21387 2020-02-13 04:55:15 Terrasse 1.50 0.31 99.90
21386 2020-02-13 04:27:06 Terrasse 1.20 -0.02 99.90
21385 2020-02-13 03:59:16 Terrasse 0.90 -0.35 99.90
21384 2020-02-13 03:31:01 Terrasse 1.10 -0.13 99.90
21383 2020-02-13 03:02:54 Terrasse 1.30 0.09 99.90
21382 2020-02-13 02:34:49 Terrasse 1.60 0.42 99.90
21381 2020-02-13 02:06:41 Terrasse 1.60 0.42 99.90
21380 2020-02-13 01:38:33 Terrasse 1.60 0.42 99.90
21379 2020-02-13 01:10:25 Terrasse 1.60 0.42 99.90
21378 2020-02-13 00:42:16 Terrasse 1.50 0.31 99.90
21377 2020-02-13 00:14:06 Terrasse 1.40 0.20 99.90
21376 2020-02-12 23:45:56 Terrasse 1.50 0.31 99.90
21375 2020-02-12 23:17:49 Terrasse 1.80 0.64 99.90
21374 2020-02-12 22:49:40 Terrasse 2.20 1.08 99.90
21373 2020-02-12 22:21:33 Terrasse 2.60 1.52 99.90
21372 2020-02-12 21:53:24 Terrasse 2.90 1.85 99.90
21371 2020-02-12 21:25:14 Terrasse 3.00 1.96 99.90
21370 2020-02-12 20:57:05 Terrasse 3.00 1.96 99.90
21369 2020-02-12 20:28:56 Terrasse 3.30 2.29 99.90
21368 2020-02-12 20:00:48 Terrasse 3.70 2.73 99.90
21367 2020-02-12 19:32:39 Terrasse 3.80 2.84 99.90
21366 2020-02-12 19:04:30 Terrasse 4.00 3.06 99.90
21365 2020-02-12 18:36:22 Terrasse 4.40 3.50 99.90
21364 2020-02-12 18:08:13 Terrasse 4.80 3.77 93.30
21363 2020-02-12 17:40:07 Terrasse 5.50 4.32 85.00
21362 2020-02-12 17:12:03 Terrasse 6.40 5.03 74.00
21361 2020-02-12 16:44:00 Terrasse 7.60 6.21 68.60
21360 2020-02-12 16:16:02 Terrasse 10.60 9.27 59.50
21359 2020-02-12 15:47:35 Terrasse 10.70 9.34 58.10
21358 2020-02-12 15:19:11 Terrasse 6.70 5.30 71.60
21357 2020-02-12 14:50:51 Terrasse 6.10 5.15 91.40
21356 2020-02-12 14:22:42 Terrasse 5.60 4.67 94.00
21355 2020-02-12 13:24:09 Terrasse 5.40 4.43 93.10
21354 2020-02-12 12:56:01 Terrasse 5.70 4.84 96.40
21353 2020-02-12 12:27:53 Terrasse 5.70 4.42 80.20
21352 2020-02-12 11:59:47 Terrasse 6.10 5.37 99.90
21351 2020-02-12 11:31:28 Terrasse 5.00 3.85 87.70
21350 2020-02-12 11:03:18 Terrasse 4.80 3.78 93.70
21349 2020-02-12 10:35:08 Terrasse 4.60 3.54 92.80
21348 2020-02-12 10:06:57 Terrasse 4.50 3.50 95.50
21347 2020-02-12 09:08:21 Terrasse 3.40 2.40 99.90
21346 2020-02-12 08:40:10 Terrasse 3.30 2.29 99.90
21345 2020-02-12 08:12:00 Terrasse 3.20 2.18 99.90
21344 2020-02-12 07:43:51 Terrasse 3.40 2.40 99.90
21343 2020-02-12 07:15:47 Terrasse 3.40 2.40 99.90
21342 2020-02-12 05:46:57 Terrasse 3.10 2.07 99.90
21341 2020-02-12 05:18:49 Terrasse 3.10 2.07 99.90
21340 2020-02-12 04:20:21 Terrasse 3.10 2.04 98.50
21339 2020-02-12 02:51:30 Terrasse 3.00 1.96 99.90
21338 2020-02-12 02:23:22 Terrasse 3.00 1.96 99.90
21337 2020-02-12 01:55:12 Terrasse 3.10 2.07 99.90
21336 2020-02-12 00:56:44 Terrasse 3.10 1.97 96.10
21335 2020-02-12 00:28:36 Terrasse 3.10 1.94 94.60
21334 2020-02-11 23:30:06 Terrasse 3.00 1.96 99.90
21333 2020-02-11 23:01:57 Terrasse 3.10 1.72 86.50
21332 2020-02-11 22:33:49 Terrasse 3.20 1.80 85.30
21331 2020-02-11 22:05:51 Terrasse 3.30 2.08 91.70
21330 2020-02-11 21:37:38 Terrasse 3.20 2.18 99.90
21329 2020-02-11 21:09:45 Terrasse 3.50 2.51 99.90
21328 2020-02-11 20:03:15 Terrasse 4.00 2.77 88.60
21327 2020-02-11 19:34:37 Terrasse 4.20 3.02 89.80
21326 2020-02-11 19:06:29 Terrasse 4.50 3.22 84.70
21325 2020-02-11 18:38:22 Terrasse 4.80 3.48 82.30
21324 2020-02-11 17:40:07 Terrasse 4.90 3.79 89.80
21323 2020-02-11 17:11:54 Terrasse 5.10 4.03 90.60
21322 2020-02-11 16:43:55 Terrasse 6.30 5.36 90.80
21321 2020-02-11 16:15:36 Terrasse 7.00 6.24 95.00
21320 2020-02-11 15:47:25 Terrasse 5.10 4.27 99.90
21319 2020-02-11 15:19:21 Terrasse 5.60 4.82 99.90
21318 2020-02-11 14:51:22 Terrasse 6.70 4.99 59.90
21317 2020-02-11 14:23:14 Terrasse 7.20 5.53 59.60
21316 2020-02-11 13:55:04 Terrasse 7.60 5.98 60.00
21315 2020-02-11 13:27:07 Terrasse 9.20 7.65 56.40
21314 2020-02-11 12:58:53 Terrasse 8.10 6.52 59.60
21313 2020-02-11 12:30:59 Terrasse 8.30 6.64 55.70
21312 2020-02-11 12:02:51 Terrasse 8.30 6.69 57.50
21311 2020-02-11 11:34:26 Terrasse 7.20 5.61 62.70
21310 2020-02-11 11:06:11 Terrasse 6.10 4.55 68.50
21309 2020-02-11 10:37:57 Terrasse 5.30 3.95 79.20
21308 2020-02-11 10:09:44 Terrasse 4.70 3.83 99.90
21307 2020-02-11 09:41:32 Terrasse 4.30 3.39 99.90
21306 2020-02-11 09:13:24 Terrasse 4.00 3.06 99.90
21305 2020-02-11 08:45:15 Terrasse 4.00 2.97 96.30
21304 2020-02-11 08:17:04 Terrasse 3.80 2.84 99.90
21303 2020-02-11 07:48:56 Terrasse 4.10 3.09 96.50
21302 2020-02-11 07:20:47 Terrasse 4.20 2.85 83.20
21301 2020-02-11 06:52:38 Terrasse 4.20 3.14 94.20
21300 2020-02-11 06:24:29 Terrasse 4.30 3.39 99.90
21299 2020-02-11 05:56:20 Terrasse 4.50 3.06 78.50
21298 2020-02-11 05:28:12 Terrasse 4.50 2.92 73.30
21297 2020-02-11 05:00:03 Terrasse 4.50 2.92 73.50
21296 2020-02-11 04:32:04 Terrasse 4.50 3.09 79.80
21295 2020-02-11 04:03:52 Terrasse 4.50 3.24 85.50
21294 2020-02-11 03:35:45 Terrasse 4.70 3.83 99.90
21293 2020-02-11 03:07:37 Terrasse 5.00 3.35 68.60
21292 2020-02-11 02:39:28 Terrasse 4.90 3.32 71.70
21291 2020-02-11 02:11:19 Terrasse 5.00 3.68 81.30
21290 2020-02-11 01:43:11 Terrasse 5.10 4.27 99.90
21289 2020-02-11 01:15:06 Terrasse 5.70 4.93 99.90
21288 2020-02-11 00:46:59 Terrasse 6.20 5.01 81.90
21287 2020-02-11 00:18:49 Terrasse 6.20 5.38 96.00
21286 2020-02-10 23:50:40 Terrasse 6.20 5.48 99.90
21285 2020-02-10 23:22:31 Terrasse 6.20 5.48 99.90
21284 2020-02-10 22:54:21 Terrasse 5.90 5.15 99.90
21283 2020-02-10 22:26:12 Terrasse 5.80 5.04 99.90
21282 2020-02-10 21:58:02 Terrasse 5.70 4.93 99.90
21281 2020-02-10 21:29:53 Terrasse 5.60 4.82 99.90
21280 2020-02-10 21:01:45 Terrasse 5.70 4.93 99.90
21279 2020-02-10 20:33:36 Terrasse 5.70 4.93 99.90
21278 2020-02-10 20:05:28 Terrasse 5.80 5.04 99.90
21277 2020-02-10 19:37:32 Terrasse 5.80 5.04 99.90
21276 2020-02-10 19:09:19 Terrasse 5.90 5.15 99.90
21275 2020-02-10 18:41:15 Terrasse 6.10 5.37 99.90
21274 2020-02-10 18:13:07 Terrasse 6.40 5.70 99.90
21273 2020-02-10 17:45:00 Terrasse 6.60 5.92 99.90
21272 2020-02-10 17:16:54 Terrasse 7.00 6.36 99.90
21271 2020-02-10 16:48:48 Terrasse 7.40 6.33 81.80
21270 2020-02-10 16:20:43 Terrasse 7.90 6.53 68.20
21269 2020-02-10 15:52:36 Terrasse 8.20 7.07 76.30
21268 2020-02-10 15:24:28 Terrasse 8.50 7.46 78.60
21267 2020-02-10 14:56:22 Terrasse 9.30 8.32 77.80
21266 2020-02-10 14:28:29 Terrasse 10.70 9.44 62.00
21265 2020-02-10 14:00:00 Terrasse 9.70 9.10 91.10
21264 2020-02-10 13:31:43 Terrasse 9.60 9.22 99.90
21263 2020-02-10 13:03:18 Terrasse 7.40 6.80 99.90
21262 2020-02-10 12:35:35 Terrasse 10.60 9.21 57.10
21261 2020-02-10 12:08:03 Terrasse 14.40 13.28 52.90
21260 2020-02-10 11:39:00 Terrasse 9.90 8.69 66.90
21259 2020-02-10 11:10:43 Terrasse 8.60 7.30 68.30
21258 2020-02-10 10:42:33 Terrasse 8.10 6.99 77.50
21257 2020-02-10 10:14:20 Terrasse 7.80 7.00 90.70
21256 2020-02-10 09:46:08 Terrasse 7.00 6.36 99.90
21255 2020-02-10 09:18:03 Terrasse 7.50 6.91 99.90
21254 2020-02-10 08:49:51 Terrasse 7.30 6.69 99.90
21253 2020-02-10 08:21:42 Terrasse 7.20 6.58 99.90
21252 2020-02-10 07:53:32 Terrasse 7.30 6.69 99.90
21251 2020-02-10 07:25:22 Terrasse 7.30 6.69 99.90
21250 2020-02-10 06:57:13 Terrasse 7.60 7.02 99.90
21249 2020-02-10 06:29:06 Terrasse 7.90 7.35 99.90
21248 2020-02-10 06:01:04 Terrasse 8.10 7.57 99.90
21247 2020-02-10 05:32:51 Terrasse 8.20 7.68 99.90
21246 2020-02-10 05:04:42 Terrasse 8.20 7.68 99.90
21245 2020-02-10 04:36:31 Terrasse 8.20 7.68 99.90
21244 2020-02-10 04:08:21 Terrasse 8.10 7.57 99.90
21243 2020-02-10 03:40:09 Terrasse 7.90 7.35 99.90
21242 2020-02-10 03:12:02 Terrasse 8.10 7.57 99.90
21241 2020-02-10 02:43:57 Terrasse 9.90 9.55 99.90
21240 2020-02-10 02:15:49 Terrasse 10.10 9.77 99.90
21239 2020-02-10 01:47:39 Terrasse 10.20 9.88 99.90
21238 2020-02-10 01:19:28 Terrasse 10.30 9.99 99.90
21237 2020-02-10 00:51:19 Terrasse 10.40 10.10 99.90
21236 2020-02-10 00:23:08 Terrasse 10.50 10.21 99.90
21235 2020-02-09 23:54:56 Terrasse 10.50 10.21 99.90
21234 2020-02-09 23:26:45 Terrasse 10.50 10.21 99.90
21233 2020-02-09 22:58:36 Terrasse 10.50 10.21 99.90
21232 2020-02-09 22:30:25 Terrasse 10.40 10.10 99.90
21231 2020-02-09 22:02:15 Terrasse 10.40 10.10 99.90
21230 2020-02-09 21:34:03 Terrasse 10.30 9.99 99.90
21229 2020-02-09 21:05:52 Terrasse 10.10 9.77 99.90
21228 2020-02-09 20:37:42 Terrasse 10.30 9.99 99.90
21227 2020-02-09 20:09:32 Terrasse 10.20 9.88 99.90
21226 2020-02-09 19:41:21 Terrasse 10.10 9.77 99.90
21225 2020-02-09 19:13:14 Terrasse 10.10 9.75 98.90
21224 2020-02-09 18:45:03 Terrasse 10.10 9.65 95.10
21223 2020-02-09 17:46:14 Terrasse 9.90 9.55 99.60
21222 2020-02-09 17:18:08 Terrasse 9.70 9.33 99.90
21221 2020-02-09 16:50:00 Terrasse 9.80 9.44 99.90
21220 2020-02-09 16:21:53 Terrasse 9.90 9.55 99.90
21219 2020-02-09 15:53:44 Terrasse 10.00 9.66 99.90
21218 2020-02-09 15:25:47 Terrasse 10.00 9.66 99.90
21217 2020-02-09 14:57:32 Terrasse 9.80 9.44 99.90
21216 2020-02-09 14:29:36 Terrasse 9.50 9.11 99.90
21215 2020-02-09 14:01:28 Terrasse 10.00 9.66 99.90
21214 2020-02-09 13:33:41 Terrasse 10.70 10.43 99.90
21213 2020-02-09 13:05:37 Terrasse 9.30 8.89 99.90
21212 2020-02-09 12:37:12 Terrasse 8.30 7.79 99.90
21211 2020-02-09 12:08:56 Terrasse 6.10 5.37 99.90
21210 2020-02-09 11:40:44 Terrasse 5.60 4.82 99.90
21209 2020-02-09 11:12:32 Terrasse 5.10 4.27 99.90
21208 2020-02-09 10:44:23 Terrasse 4.70 3.83 99.90
21207 2020-02-09 10:16:13 Terrasse 4.50 3.61 99.90
21206 2020-02-09 09:48:04 Terrasse 4.30 3.39 99.90
21205 2020-02-09 09:19:55 Terrasse 4.10 3.17 99.90
21204 2020-02-09 08:51:45 Terrasse 3.80 2.84 99.90
21203 2020-02-09 08:23:37 Terrasse 3.70 2.73 99.90
21202 2020-02-09 07:55:31 Terrasse 3.70 2.73 99.90
21201 2020-02-09 07:27:23 Terrasse 3.70 2.73 99.90
21200 2020-02-09 06:59:15 Terrasse 3.80 2.84 99.90
21199 2020-02-09 06:31:07 Terrasse 3.70 2.73 99.90
21198 2020-02-09 06:02:59 Terrasse 3.70 2.73 99.90
21197 2020-02-09 05:34:51 Terrasse 3.70 2.73 99.90
21196 2020-02-09 05:06:44 Terrasse 3.80 2.84 99.90
21195 2020-02-09 04:38:34 Terrasse 3.50 2.51 99.90
21194 2020-02-09 04:10:25 Terrasse 3.40 2.40 99.90
21193 2020-02-09 03:42:17 Terrasse 3.20 2.18 99.90
21192 2020-02-09 03:14:11 Terrasse 3.30 2.29 99.90
21191 2020-02-09 02:46:06 Terrasse 3.50 2.51 99.90
21190 2020-02-09 02:18:05 Terrasse 3.60 2.62 99.90
21189 2020-02-09 01:49:55 Terrasse 3.80 2.84 99.90
21188 2020-02-09 01:21:46 Terrasse 3.90 2.95 99.90
21187 2020-02-09 00:53:44 Terrasse 4.00 3.06 99.90
21186 2020-02-09 00:25:34 Terrasse 4.10 3.17 99.90
21185 2020-02-08 23:57:27 Terrasse 4.40 3.50 99.90
21184 2020-02-08 23:29:19 Terrasse 4.60 3.72 99.90
21183 2020-02-08 23:01:18 Terrasse 4.90 4.05 99.90
21182 2020-02-08 22:33:07 Terrasse 5.10 4.27 99.90
21181 2020-02-08 22:05:09 Terrasse 5.00 4.16 99.90
21180 2020-02-08 21:37:02 Terrasse 5.00 4.16 99.90
21179 2020-02-08 21:08:56 Terrasse 5.00 4.16 99.90
21178 2020-02-08 20:40:51 Terrasse 4.90 4.05 99.90
21177 2020-02-08 20:12:38 Terrasse 4.80 3.94 99.90
21176 2020-02-08 19:44:29 Terrasse 4.80 3.94 99.90
21175 2020-02-08 19:16:22 Terrasse 4.70 3.83 99.90
21174 2020-02-08 18:48:15 Terrasse 4.70 3.83 99.90
21173 2020-02-08 18:20:06 Terrasse 4.80 3.94 99.90
21172 2020-02-08 17:51:56 Terrasse 4.70 3.83 99.90
21171 2020-02-08 17:23:47 Terrasse 4.80 3.94 99.90
21170 2020-02-08 16:55:39 Terrasse 4.80 3.94 99.90
21169 2020-02-08 16:27:35 Terrasse 4.80 3.94 99.90
21168 2020-02-08 15:59:26 Terrasse 5.00 4.16 99.90
21167 2020-02-08 15:31:17 Terrasse 5.10 4.27 99.90
21166 2020-02-08 15:03:16 Terrasse 5.20 4.38 99.90
21165 2020-02-08 14:35:05 Terrasse 5.10 4.27 99.90
21164 2020-02-08 14:06:56 Terrasse 5.10 4.19 96.60
21163 2020-02-08 13:39:01 Terrasse 5.10 4.15 95.30
21162 2020-02-08 13:11:03 Terrasse 5.00 4.13 98.70
21161 2020-02-08 12:42:55 Terrasse 5.50 4.69 98.80
21160 2020-02-08 12:14:41 Terrasse 4.90 4.05 99.90
21159 2020-02-08 11:46:36 Terrasse 5.00 4.16 99.90
21158 2020-02-08 11:18:25 Terrasse 4.60 3.72 99.90
21157 2020-02-08 09:24:12 Terrasse 1.90 0.75 99.90
21156 2020-02-08 08:56:03 Terrasse 1.60 0.42 99.90
21155 2020-02-08 08:27:24 Terrasse 1.30 0.09 99.90
21154 2020-02-08 07:59:16 Terrasse 0.90 -0.35 99.90
21153 2020-02-08 07:31:06 Terrasse 0.80 -0.46 99.90
21152 2020-02-08 07:02:46 Terrasse 0.80 -0.46 99.90
21151 2020-02-08 06:34:39 Terrasse 0.60 -0.68 99.90
21150 2020-02-08 06:06:32 Terrasse 0.70 -0.57 99.90
21149 2020-02-08 05:38:24 Terrasse 0.80 -0.46 99.90
21148 2020-02-08 05:10:17 Terrasse 0.90 -0.35 99.90
21147 2020-02-08 04:42:11 Terrasse 1.00 -0.24 99.90
21146 2020-02-08 04:14:06 Terrasse 1.20 -0.02 99.90
21145 2020-02-08 03:46:01 Terrasse 1.40 0.20 99.90
21144 2020-02-08 03:17:53 Terrasse 1.60 0.42 99.90
21143 2020-02-08 02:49:47 Terrasse 1.60 0.42 99.90
21142 2020-02-08 02:21:41 Terrasse 1.80 0.64 99.90
21141 2020-02-08 01:53:34 Terrasse 1.80 0.64 99.90
21140 2020-02-08 01:25:28 Terrasse 2.10 0.97 99.90
21139 2020-02-08 00:57:21 Terrasse 2.20 1.08 99.90
21138 2020-02-08 00:29:14 Terrasse 2.40 1.30 99.90
21137 2020-02-08 00:01:07 Terrasse 2.60 1.52 99.90
21136 2020-02-07 23:33:08 Terrasse 2.70 1.63 99.90
21135 2020-02-07 23:05:00 Terrasse 2.90 1.85 99.90
21134 2020-02-07 22:37:00 Terrasse 3.10 2.07 99.90
21133 2020-02-07 22:08:51 Terrasse 3.30 2.29 99.90
21132 2020-02-07 21:40:43 Terrasse 3.50 2.51 99.90
21131 2020-02-07 21:13:03 Terrasse 3.60 2.62 99.90
21130 2020-02-07 20:44:48 Terrasse 3.80 2.82 99.00
21129 2020-02-07 20:16:48 Terrasse 4.10 3.04 94.60
21128 2020-02-07 19:48:39 Terrasse 4.30 3.22 93.20
21127 2020-02-07 19:20:33 Terrasse 4.60 3.30 83.60
21126 2020-02-07 18:52:28 Terrasse 4.90 3.43 75.90
21125 2020-02-07 18:24:24 Terrasse 5.40 3.76 67.60
21124 2020-02-07 17:56:19 Terrasse 6.00 4.33 64.20
21123 2020-02-07 17:27:55 Terrasse 7.00 5.37 61.80
21122 2020-02-07 17:00:40 Terrasse 8.50 6.99 60.50
21121 2020-02-07 15:47:06 Terrasse 12.90 11.69 55.50
21120 2020-02-07 15:04:56 Terrasse 14.20 13.09 54.10
21119 2020-02-07 14:30:36 Terrasse 11.40 10.12 58.30
21118 2020-02-07 14:01:50 Terrasse 10.30 9.00 61.80
21117 2020-02-07 13:33:44 Terrasse 10.10 8.77 61.30
21116 2020-02-07 13:05:48 Terrasse 10.10 8.76 61.10
21115 2020-02-07 12:37:48 Terrasse 11.80 10.64 61.40
21114 2020-02-07 12:09:53 Terrasse 11.40 10.30 65.20
21113 2020-02-07 11:41:14 Terrasse 8.80 7.68 74.60
21112 2020-02-07 11:12:42 Terrasse 4.70 3.83 99.90
21111 2020-02-07 10:44:31 Terrasse 3.80 2.84 99.90
21110 2020-02-07 10:16:19 Terrasse 2.90 1.85 99.90
21109 2020-02-07 09:48:07 Terrasse 1.90 0.75 99.90
21108 2020-02-07 09:19:56 Terrasse 1.20 -0.02 99.90
21107 2020-02-07 08:51:48 Terrasse 0.70 -0.57 99.90
21106 2020-02-07 08:23:42 Terrasse 0.50 -0.79 99.90
21105 2020-02-07 07:55:35 Terrasse 0.50 -0.79 99.90
21104 2020-02-07 07:27:31 Terrasse 0.40 -0.90 99.90
21103 2020-02-07 06:59:25 Terrasse 0.40 -0.90 99.90
21102 2020-02-07 06:31:18 Terrasse 0.50 -0.79 99.90
21101 2020-02-07 06:03:14 Terrasse 0.50 -0.79 99.90
21100 2020-02-07 05:35:07 Terrasse 0.50 -0.79 99.90
21099 2020-02-07 05:07:02 Terrasse 0.50 -0.79 99.90
21098 2020-02-07 04:38:55 Terrasse 0.40 -0.90 99.90
21097 2020-02-07 04:10:49 Terrasse 0.30 -1.01 99.90
21096 2020-02-07 03:14:46 Terrasse 0.40 -0.90 99.90
21095 2020-02-07 02:46:39 Terrasse 0.30 -1.01 99.90
21094 2020-02-07 02:18:33 Terrasse 0.40 -0.90 99.90
21093 2020-02-07 01:50:27 Terrasse 0.30 -1.01 99.90
21092 2020-02-07 01:22:23 Terrasse 0.40 -0.90 99.90
21091 2020-02-07 00:54:16 Terrasse 0.60 -0.68 99.90
21090 2020-02-07 00:26:10 Terrasse 0.60 -0.68 99.90
21089 2020-02-06 23:58:05 Terrasse 0.60 -0.68 99.90
21088 2020-02-06 23:30:00 Terrasse 0.80 -0.46 99.90
21087 2020-02-06 23:01:56 Terrasse 1.00 -0.24 99.90
21086 2020-02-06 22:33:49 Terrasse 1.10 -0.13 99.90
21085 2020-02-06 22:05:42 Terrasse 1.20 -0.02 99.90
21084 2020-02-06 21:37:37 Terrasse 1.40 0.20 99.90
21083 2020-02-06 21:09:32 Terrasse 1.50 0.31 99.90
21082 2020-02-06 20:41:25 Terrasse 1.70 0.53 99.90
21081 2020-02-06 20:13:22 Terrasse 1.80 0.64 99.90
21080 2020-02-06 19:45:16 Terrasse 2.00 0.86 99.90
21079 2020-02-06 19:17:13 Terrasse 2.20 1.08 99.90
21078 2020-02-06 18:49:08 Terrasse 2.40 1.30 99.90
21077 2020-02-06 18:21:04 Terrasse 2.80 1.74 99.90
21076 2020-02-06 17:53:01 Terrasse 3.30 2.29 99.90
21075 2020-02-06 17:24:57 Terrasse 3.90 2.95 99.90
21074 2020-02-06 16:56:53 Terrasse 4.30 3.39 99.90
21073 2020-02-06 16:28:47 Terrasse 4.50 3.61 99.90
21072 2020-02-06 16:00:41 Terrasse 4.60 3.72 99.90
21071 2020-02-06 15:32:35 Terrasse 4.60 3.72 99.90
21070 2020-02-06 15:04:28 Terrasse 4.60 3.72 99.90
21069 2020-02-06 14:36:36 Terrasse 4.80 3.94 99.90
21068 2020-02-06 14:08:26 Terrasse 5.00 4.16 99.90
21067 2020-02-06 13:40:20 Terrasse 4.90 4.05 99.90
21066 2020-02-06 13:12:13 Terrasse 4.80 3.94 99.90
21065 2020-02-06 12:44:06 Terrasse 4.80 3.94 99.90
21064 2020-02-06 12:16:06 Terrasse 4.50 3.61 99.90
21063 2020-02-06 11:48:03 Terrasse 4.10 3.17 99.90
21062 2020-02-06 11:19:51 Terrasse 3.60 2.62 99.90
21061 2020-02-06 10:51:41 Terrasse 3.20 2.18 99.90
21060 2020-02-06 10:23:32 Terrasse 2.80 1.74 99.90
21059 2020-02-06 09:55:24 Terrasse 2.40 1.30 99.90
21058 2020-02-06 09:27:16 Terrasse 2.00 0.86 99.90
21057 2020-02-06 08:59:16 Terrasse 1.70 0.53 99.90
21056 2020-02-06 08:31:08 Terrasse 1.40 0.20 99.90
21055 2020-02-06 08:03:02 Terrasse 1.20 -0.02 99.90
21054 2020-02-06 07:34:55 Terrasse 1.10 -0.13 99.90
21053 2020-02-06 07:06:51 Terrasse 1.10 -0.13 99.90
21052 2020-02-06 06:38:46 Terrasse 1.10 -0.13 99.90
21051 2020-02-06 06:10:41 Terrasse 1.20 -0.02 99.90
21050 2020-02-06 05:42:37 Terrasse 1.30 0.09 99.90
21049 2020-02-06 05:14:33 Terrasse 1.40 0.20 99.90
21048 2020-02-06 04:46:29 Terrasse 1.50 0.31 99.90
21047 2020-02-06 04:18:26 Terrasse 1.70 0.53 99.90
21046 2020-02-06 03:50:20 Terrasse 1.80 0.64 99.90
21045 2020-02-06 03:22:14 Terrasse 1.90 0.75 99.90
21044 2020-02-06 02:54:11 Terrasse 2.00 0.86 99.90
21043 2020-02-06 02:26:08 Terrasse 2.30 1.19 99.90
21042 2020-02-06 01:58:06 Terrasse 2.50 1.41 99.90
21041 2020-02-06 01:30:01 Terrasse 2.40 1.30 99.90
21040 2020-02-06 01:01:57 Terrasse 2.20 1.08 99.90
21039 2020-02-06 00:33:54 Terrasse 2.40 1.30 99.90
21038 2020-02-06 00:05:52 Terrasse 2.40 1.30 99.90
21037 2020-02-05 23:37:50 Terrasse 2.60 1.52 99.90
21036 2020-02-05 23:09:48 Terrasse 3.00 1.96 99.90
21035 2020-02-05 22:41:46 Terrasse 3.30 2.29 99.90
21034 2020-02-05 22:13:43 Terrasse 3.50 2.51 99.90
21033 2020-02-05 21:45:40 Terrasse 3.80 2.82 98.90
21032 2020-02-05 21:17:38 Terrasse 4.30 3.20 92.30
21031 2020-02-05 20:49:34 Terrasse 4.30 2.77 76.10
21030 2020-02-05 20:21:31 Terrasse 4.50 3.08 79.60
21029 2020-02-05 19:53:28 Terrasse 4.50 3.16 82.50
21028 2020-02-05 19:25:28 Terrasse 4.60 3.40 87.50
21027 2020-02-05 18:57:28 Terrasse 5.00 3.38 70.00
21026 2020-02-05 18:29:27 Terrasse 5.60 3.94 65.90
21025 2020-02-05 18:01:28 Terrasse 6.40 4.78 64.60
21024 2020-02-05 17:33:31 Terrasse 7.40 5.75 59.50
21023 2020-02-05 17:05:34 Terrasse 8.60 7.03 58.00
21022 2020-02-05 16:37:45 Terrasse 10.80 9.35 54.00
21021 2020-02-05 16:09:31 Terrasse 15.40 14.27 48.90
21020 2020-02-05 15:41:26 Terrasse 12.80 11.57 54.80
21019 2020-02-05 15:13:26 Terrasse 13.70 12.57 55.40
21018 2020-02-05 14:45:19 Terrasse 13.80 12.68 55.20
21017 2020-02-05 14:17:14 Terrasse 11.70 10.48 59.60
21016 2020-02-05 13:49:01 Terrasse 10.90 9.60 59.70
21015 2020-02-05 13:20:54 Terrasse 10.80 9.55 61.70
21014 2020-02-05 12:53:12 Terrasse 12.10 10.97 61.40
21013 2020-02-05 12:24:52 Terrasse 12.10 11.02 63.40
21012 2020-02-05 11:56:51 Terrasse 12.30 11.32 66.60
21011 2020-02-05 11:27:59 Terrasse 7.30 6.56 94.60
21010 2020-02-05 10:03:43 Terrasse 3.90 2.95 99.90
21009 2020-02-05 09:35:32 Terrasse 3.20 2.18 99.90
21008 2020-02-05 09:07:26 Terrasse 2.70 1.63 99.90
21007 2020-02-05 08:39:21 Terrasse 2.60 1.52 99.90
21006 2020-02-05 08:11:17 Terrasse 2.60 1.52 99.90
21005 2020-02-05 07:43:12 Terrasse 2.60 1.52 99.90
21004 2020-02-05 07:15:09 Terrasse 2.80 1.74 99.90
21003 2020-02-05 06:47:04 Terrasse 2.90 1.85 99.90
21002 2020-02-05 05:51:05 Terrasse 3.00 1.96 99.90
21001 2020-02-05 05:23:00 Terrasse 3.10 2.07 99.90
21000 2020-02-05 04:54:56 Terrasse 3.10 2.07 99.90
20999 2020-02-05 04:26:51 Terrasse 3.20 2.18 99.90
20998 2020-02-05 03:58:47 Terrasse 3.10 2.07 99.90
20997 2020-02-05 03:30:44 Terrasse 3.30 2.29 99.90
20996 2020-02-05 03:02:41 Terrasse 3.40 2.40 99.90
20995 2020-02-05 02:34:35 Terrasse 3.40 2.40 99.90
20994 2020-02-05 02:06:30 Terrasse 3.50 2.51 99.90
20993 2020-02-05 01:38:26 Terrasse 3.50 2.51 99.90
20992 2020-02-05 01:10:22 Terrasse 3.60 2.62 99.90
20991 2020-02-05 00:42:18 Terrasse 3.80 2.84 99.90
20990 2020-02-05 00:14:13 Terrasse 3.90 2.95 99.90
20989 2020-02-04 23:46:08 Terrasse 3.90 2.95 99.90
20988 2020-02-04 23:18:06 Terrasse 3.90 2.95 99.90
20987 2020-02-04 22:50:01 Terrasse 4.00 3.06 99.90
20986 2020-02-04 22:21:57 Terrasse 4.20 3.28 99.90
20985 2020-02-04 21:53:53 Terrasse 4.20 3.28 99.90
20984 2020-02-04 21:26:17 Terrasse 4.30 3.39 99.90
20983 2020-02-04 20:58:01 Terrasse 4.40 3.50 99.90
20982 2020-02-04 20:29:55 Terrasse 4.40 3.50 99.90
20981 2020-02-04 20:01:50 Terrasse 4.30 3.39 99.90
20980 2020-02-04 19:33:45 Terrasse 4.30 3.39 99.90
20979 2020-02-04 19:05:42 Terrasse 4.40 3.50 99.90
20978 2020-02-04 18:37:36 Terrasse 4.50 3.61 99.90
20977 2020-02-04 18:09:34 Terrasse 4.70 3.83 99.90
20976 2020-02-04 17:41:31 Terrasse 4.80 3.94 99.90
20975 2020-02-04 17:13:31 Terrasse 5.20 4.38 99.90
20974 2020-02-04 16:45:33 Terrasse 6.30 5.59 99.90
20973 2020-02-04 16:17:51 Terrasse 9.50 8.29 68.50
20972 2020-02-04 15:49:29 Terrasse 13.60 12.69 64.10
20971 2020-02-04 15:21:06 Terrasse 7.90 7.35 99.90
20970 2020-02-04 14:53:14 Terrasse 7.50 6.91 99.90
20969 2020-02-04 14:24:45 Terrasse 6.00 5.26 99.90
20968 2020-02-04 13:56:44 Terrasse 6.00 5.26 99.90
20967 2020-02-04 13:28:34 Terrasse 5.80 5.04 99.90
20966 2020-02-04 13:00:41 Terrasse 6.20 5.48 99.90
20965 2020-02-04 12:32:45 Terrasse 7.40 6.80 99.90
20964 2020-02-04 12:04:25 Terrasse 5.40 4.60 99.90
20963 2020-02-04 11:36:26 Terrasse 5.60 4.82 99.90
20962 2020-02-04 11:08:15 Terrasse 4.80 3.94 99.90
20961 2020-02-04 10:40:07 Terrasse 4.40 3.50 99.90
20960 2020-02-04 10:12:06 Terrasse 3.90 2.95 99.90
20959 2020-02-04 09:44:08 Terrasse 4.60 3.72 99.90
20958 2020-02-04 09:16:00 Terrasse 4.20 3.28 99.90
20957 2020-02-04 08:47:57 Terrasse 3.90 2.95 99.90
20956 2020-02-04 08:19:52 Terrasse 3.80 2.84 99.90
20955 2020-02-04 07:51:49 Terrasse 3.90 2.95 99.90
20954 2020-02-04 07:23:46 Terrasse 3.90 2.95 99.90
20953 2020-02-04 06:55:43 Terrasse 4.00 3.06 99.90
20952 2020-02-04 06:27:39 Terrasse 4.20 3.28 99.90
20951 2020-02-04 05:59:34 Terrasse 4.20 3.28 99.90
20950 2020-02-04 05:31:31 Terrasse 4.60 3.72 99.90
20949 2020-02-04 05:03:28 Terrasse 4.80 3.94 99.90
20948 2020-02-04 04:35:25 Terrasse 4.90 4.05 99.90
20947 2020-02-04 04:07:21 Terrasse 5.00 4.16 99.90
20946 2020-02-04 03:39:18 Terrasse 5.30 4.49 99.90
20945 2020-02-04 03:11:15 Terrasse 5.50 4.71 99.90
20944 2020-02-04 02:43:11 Terrasse 5.70 4.93 99.90
20943 2020-02-04 02:15:09 Terrasse 6.00 5.26 99.90
20942 2020-02-04 01:47:07 Terrasse 6.60 5.92 99.90
20941 2020-02-04 01:19:06 Terrasse 6.90 6.25 99.90
20940 2020-02-04 00:51:07 Terrasse 7.30 6.69 99.90
20939 2020-02-04 00:23:07 Terrasse 7.50 6.91 99.90
20938 2020-02-03 23:55:03 Terrasse 7.70 7.13 99.90
20937 2020-02-03 23:27:01 Terrasse 7.90 7.35 99.90
20936 2020-02-03 22:59:00 Terrasse 8.00 7.46 99.90
20935 2020-02-03 22:30:57 Terrasse 8.20 7.68 99.90
20934 2020-02-03 22:02:56 Terrasse 8.30 7.79 99.90
20933 2020-02-03 21:34:52 Terrasse 8.40 7.90 99.90
20932 2020-02-03 21:06:50 Terrasse 8.60 8.12 99.90
20931 2020-02-03 20:38:47 Terrasse 8.80 8.34 99.90
20930 2020-02-03 20:10:44 Terrasse 9.10 8.67 99.90
20929 2020-02-03 19:42:42 Terrasse 9.40 9.00 99.90
20928 2020-02-03 19:14:40 Terrasse 9.50 9.11 99.90
20927 2020-02-03 18:47:43 Terrasse 9.60 9.22 99.90
20926 2020-02-03 18:15:42 Terrasse 9.70 9.33 99.90
20925 2020-02-03 17:47:38 Terrasse 9.80 9.44 99.90
20924 2020-02-03 17:19:34 Terrasse 9.90 9.55 99.90
20923 2020-02-03 16:51:30 Terrasse 10.00 9.66 99.90
20922 2020-02-03 16:23:27 Terrasse 10.30 9.99 99.90
20921 2020-02-03 15:55:22 Terrasse 10.30 9.99 99.90
20920 2020-02-03 15:27:18 Terrasse 10.30 9.99 99.90
20919 2020-02-03 14:59:14 Terrasse 10.40 10.10 99.90
20918 2020-02-03 14:31:09 Terrasse 10.40 10.10 99.90
20917 2020-02-03 14:03:07 Terrasse 10.40 10.10 99.90
20916 2020-02-03 13:35:02 Terrasse 10.50 10.21 99.90
20915 2020-02-03 13:06:55 Terrasse 10.20 9.88 99.90
20914 2020-02-03 12:38:50 Terrasse 10.10 9.77 99.90
20913 2020-02-03 12:10:46 Terrasse 10.10 9.77 99.90
20912 2020-02-03 11:42:42 Terrasse 10.10 9.77 99.90
20911 2020-02-03 11:14:41 Terrasse 10.20 9.88 99.90
20910 2020-02-03 10:46:34 Terrasse 9.70 9.33 99.90
20909 2020-02-03 10:18:28 Terrasse 9.30 8.89 99.90
20908 2020-02-03 09:50:21 Terrasse 8.80 8.34 99.90
20907 2020-02-03 09:22:16 Terrasse 8.60 8.12 99.90
20906 2020-02-03 08:54:10 Terrasse 8.50 8.01 99.90
20905 2020-02-03 08:26:06 Terrasse 8.30 7.79 99.90
20904 2020-02-03 07:58:03 Terrasse 8.30 7.79 99.90
20903 2020-02-03 07:30:00 Terrasse 8.30 7.79 99.90
20902 2020-02-03 07:01:56 Terrasse 8.40 7.90 99.90
20901 2020-02-03 06:33:54 Terrasse 8.30 7.79 99.90
20900 2020-02-03 06:05:51 Terrasse 8.30 7.79 99.90
20899 2020-02-03 05:37:49 Terrasse 8.40 7.90 99.90
20898 2020-02-03 05:09:48 Terrasse 8.40 7.90 99.90
20897 2020-02-03 04:41:47 Terrasse 8.40 7.90 99.90
20896 2020-02-03 04:13:45 Terrasse 8.40 7.90 99.90
20895 2020-02-03 03:45:43 Terrasse 8.50 8.01 99.90
20894 2020-02-03 03:17:42 Terrasse 8.60 8.12 99.90
20893 2020-02-03 02:49:46 Terrasse 8.70 8.23 99.90
20892 2020-02-03 02:21:46 Terrasse 8.90 8.45 99.90
20891 2020-02-03 01:53:46 Terrasse 9.20 8.78 99.90
20890 2020-02-03 01:25:46 Terrasse 9.60 9.22 99.90
20889 2020-02-03 00:57:46 Terrasse 9.90 9.55 99.90
20888 2020-02-03 00:29:44 Terrasse 10.10 9.77 99.90
20887 2020-02-03 00:01:41 Terrasse 10.10 9.77 99.90
20886 2020-02-02 23:33:40 Terrasse 10.20 9.88 99.90
20885 2020-02-02 23:05:39 Terrasse 10.20 9.88 99.90
20884 2020-02-02 22:37:37 Terrasse 10.30 9.99 99.90
20883 2020-02-02 22:09:35 Terrasse 10.40 10.10 99.90
20882 2020-02-02 21:41:34 Terrasse 10.40 10.10 99.90
20881 2020-02-02 21:13:32 Terrasse 10.50 10.21 99.90
20880 2020-02-02 20:45:31 Terrasse 10.70 10.43 99.90
20879 2020-02-02 20:17:29 Terrasse 10.70 10.43 99.90
20878 2020-02-02 19:49:26 Terrasse 10.60 10.32 99.90
20877 2020-02-02 19:21:46 Terrasse 10.60 10.32 99.90
20876 2020-02-02 18:53:38 Terrasse 10.70 10.43 99.90
20875 2020-02-02 18:25:50 Terrasse 10.70 10.43 99.90
20874 2020-02-02 17:57:44 Terrasse 10.70 10.43 99.90
20873 2020-02-02 17:29:57 Terrasse 10.60 10.32 99.90
20872 2020-02-02 17:01:51 Terrasse 10.50 10.21 99.90
20871 2020-02-02 16:33:50 Terrasse 10.20 9.88 99.90
20870 2020-02-02 16:05:48 Terrasse 10.00 9.66 99.90
20869 2020-02-02 15:37:47 Terrasse 9.70 9.33 99.90
20868 2020-02-02 15:09:43 Terrasse 9.40 9.00 99.90
20867 2020-02-02 14:41:45 Terrasse 9.50 9.11 99.90
20866 2020-02-02 14:13:51 Terrasse 10.00 9.66 99.90
20865 2020-02-02 13:46:08 Terrasse 11.60 11.42 99.90
20864 2020-02-02 13:19:04 Terrasse 23.00 22.77 54.30
20863 2020-02-02 11:03:57 Terrasse 7.10 6.47 99.90
20862 2020-02-02 10:32:55 Terrasse 6.80 6.14 99.90
20861 2020-02-02 10:01:55 Terrasse 6.60 5.92 99.90
20860 2020-02-02 09:30:54 Terrasse 6.40 5.70 99.90
20859 2020-02-02 02:12:54 Terrasse 6.50 5.81 99.90
20858 2020-02-02 01:41:57 Terrasse 6.60 5.92 99.90
20857 2020-02-02 01:11:00 Terrasse 6.80 6.14 99.90
20856 2020-02-02 00:40:04 Terrasse 7.10 6.47 99.90
20855 2020-02-02 00:09:09 Terrasse 7.30 6.69 99.90
20854 2020-02-01 23:38:13 Terrasse 7.50 6.91 99.90
20853 2020-02-01 23:07:17 Terrasse 7.70 7.13 99.90
20852 2020-02-01 22:36:18 Terrasse 7.90 7.35 99.90
20851 2020-02-01 22:05:26 Terrasse 8.20 7.68 99.90
20850 2020-02-01 21:34:32 Terrasse 8.50 8.01 99.90
20849 2020-02-01 21:03:36 Terrasse 8.80 8.34 99.90
20848 2020-02-01 20:32:43 Terrasse 9.20 8.78 99.90
20847 2020-02-01 20:02:05 Terrasse 9.70 9.33 99.90
20846 2020-02-01 19:31:05 Terrasse 9.80 9.44 99.90
20845 2020-02-01 18:29:29 Terrasse 9.80 9.44 99.90
20844 2020-02-01 17:58:29 Terrasse 9.80 9.44 99.90
20843 2020-02-01 17:27:29 Terrasse 9.80 9.44 99.90
20842 2020-02-01 16:56:31 Terrasse 10.00 9.66 99.90
20841 2020-02-01 16:25:31 Terrasse 10.10 9.77 99.90
20840 2020-02-01 15:54:32 Terrasse 10.30 9.99 99.90
20839 2020-02-01 15:23:32 Terrasse 10.40 10.10 99.90
20838 2020-02-01 14:52:32 Terrasse 10.40 10.10 99.90
20837 2020-02-01 14:21:31 Terrasse 10.40 10.10 99.90
20836 2020-02-01 13:50:32 Terrasse 10.40 10.10 99.90
20835 2020-02-01 13:19:33 Terrasse 10.40 10.10 99.90
20834 2020-02-01 12:48:33 Terrasse 10.40 10.10 99.90
20833 2020-02-01 12:17:32 Terrasse 10.30 9.99 99.90
20832 2020-02-01 11:46:31 Terrasse 10.30 9.99 99.90
20831 2020-02-01 09:12:41 Terrasse 10.10 9.77 99.90
20830 2020-02-01 08:41:43 Terrasse 10.10 9.77 99.90
20829 2020-02-01 08:10:43 Terrasse 10.10 9.77 99.90
20828 2020-02-01 07:39:44 Terrasse 10.20 9.88 99.90
20827 2020-02-01 07:08:46 Terrasse 10.20 9.88 99.90
20826 2020-02-01 06:37:47 Terrasse 10.20 9.88 99.90
20825 2020-02-01 06:06:48 Terrasse 10.20 9.88 99.90
20824 2020-02-01 05:35:50 Terrasse 10.20 9.88 99.90
20823 2020-02-01 05:04:51 Terrasse 10.20 9.88 99.90
20822 2020-02-01 04:33:54 Terrasse 10.30 9.99 99.90
20821 2020-02-01 04:02:56 Terrasse 10.30 9.99 99.90
20820 2020-02-01 03:32:00 Terrasse 10.40 10.10 99.90
20819 2020-02-01 03:01:00 Terrasse 10.40 10.10 99.90
20818 2020-02-01 02:30:10 Terrasse 10.40 10.10 99.90
20817 2020-02-01 01:59:09 Terrasse 10.40 10.10 99.90
20816 2020-02-01 01:28:13 Terrasse 10.60 10.32 99.90
20815 2020-02-01 00:57:15 Terrasse 10.70 10.43 99.90
20814 2020-02-01 00:26:17 Terrasse 10.70 10.43 99.90
20813 2020-01-31 23:55:19 Terrasse 10.70 10.43 99.90
20812 2020-01-31 23:24:19 Terrasse 10.60 10.32 99.90
20811 2020-01-31 22:53:22 Terrasse 10.60 10.32 99.90
20810 2020-01-31 22:22:24 Terrasse 10.60 10.32 99.90
20809 2020-01-31 21:51:24 Terrasse 10.60 10.32 99.90
20808 2020-01-31 21:20:24 Terrasse 10.60 10.32 99.90
20807 2020-01-31 20:49:26 Terrasse 10.70 10.43 99.90
20806 2020-01-31 20:18:27 Terrasse 10.80 10.54 99.90
20805 2020-01-31 19:47:30 Terrasse 10.90 10.65 99.90
20804 2020-01-31 19:16:32 Terrasse 11.10 10.87 99.90
20803 2020-01-31 18:45:32 Terrasse 11.20 10.98 99.90
20802 2020-01-31 18:14:35 Terrasse 11.30 11.09 99.90
20801 2020-01-31 17:13:01 Terrasse 12.00 11.86 99.90
20800 2020-01-31 16:42:05 Terrasse 12.50 12.41 99.90
20799 2020-01-31 16:10:56 Terrasse 12.50 12.41 99.90
20798 2020-01-31 15:39:58 Terrasse 12.60 12.52 99.90
20797 2020-01-31 15:09:01 Terrasse 12.70 12.63 99.90
20796 2020-01-31 14:38:03 Terrasse 12.90 12.85 99.90
20795 2020-01-31 14:07:07 Terrasse 13.30 13.29 99.90
20794 2020-01-31 13:36:10 Terrasse 13.50 13.51 99.90
20793 2020-01-31 13:05:12 Terrasse 14.20 14.28 99.90
20792 2020-01-31 12:34:29 Terrasse 15.70 15.93 99.90
20791 2020-01-31 12:03:21 Terrasse 14.10 14.17 99.90
20790 2020-01-31 11:32:12 Terrasse 12.10 11.97 99.90
20789 2020-01-31 11:01:16 Terrasse 12.10 11.97 99.90
20788 2020-01-31 10:30:09 Terrasse 11.70 11.53 99.90
20787 2020-01-31 09:59:06 Terrasse 10.90 10.65 99.90
20786 2020-01-31 09:28:02 Terrasse 10.40 10.10 99.90
20785 2020-01-31 08:56:59 Terrasse 10.10 9.77 99.90
20784 2020-01-31 08:25:58 Terrasse 9.90 9.55 99.90
20783 2020-01-31 07:55:06 Terrasse 9.90 9.55 99.90
20782 2020-01-31 07:24:01 Terrasse 9.80 9.44 99.90
20781 2020-01-31 06:52:50 Terrasse 9.80 9.44 99.90
20780 2020-01-31 06:21:52 Terrasse 9.70 9.33 99.90
20779 2020-01-31 05:51:02 Terrasse 9.70 9.33 99.90
20778 2020-01-31 05:20:07 Terrasse 9.60 9.22 99.90
20777 2020-01-31 04:49:08 Terrasse 9.40 9.00 99.90
20776 2020-01-31 04:18:09 Terrasse 9.30 8.89 99.90
20775 2020-01-31 03:47:09 Terrasse 9.00 8.56 99.90
20774 2020-01-31 03:16:21 Terrasse 8.70 8.23 99.90
20773 2020-01-31 02:45:18 Terrasse 8.30 7.79 99.90
20772 2020-01-31 02:14:31 Terrasse 8.00 7.46 99.90
20771 2020-01-31 01:43:28 Terrasse 7.70 7.13 99.90
20770 2020-01-31 01:12:38 Terrasse 7.50 6.91 99.90
20769 2020-01-31 00:41:39 Terrasse 7.30 6.69 99.90
20768 2020-01-31 00:10:46 Terrasse 7.10 6.47 99.90
20767 2020-01-30 23:39:35 Terrasse 6.90 6.25 99.90
20766 2020-01-30 23:08:52 Terrasse 6.80 6.14 99.90
20765 2020-01-30 22:37:52 Terrasse 6.80 6.14 99.90
20764 2020-01-30 22:07:14 Terrasse 6.70 6.03 99.90
20763 2020-01-30 21:36:10 Terrasse 6.70 6.03 99.90
20762 2020-01-30 20:04:05 Terrasse 6.80 6.14 99.90
20761 2020-01-30 19:33:18 Terrasse 6.90 6.25 99.90
20760 2020-01-30 19:02:13 Terrasse 6.80 6.14 99.90
20759 2020-01-30 18:31:16 Terrasse 6.80 6.14 99.90
20758 2020-01-30 18:00:19 Terrasse 6.90 6.25 99.90
20757 2020-01-30 16:56:04 Terrasse 7.10 6.47 99.90
20756 2020-01-30 16:25:09 Terrasse 7.50 6.91 99.90
20755 2020-01-30 15:54:18 Terrasse 7.60 7.02 99.90
20754 2020-01-30 14:19:16 Terrasse 7.60 7.02 99.90
20753 2020-01-30 13:48:37 Terrasse 7.60 7.02 99.90
20752 2020-01-30 13:17:30 Terrasse 7.50 6.91 99.90
20751 2020-01-30 12:46:26 Terrasse 7.10 6.47 99.90
20750 2020-01-30 12:15:19 Terrasse 6.10 5.37 99.90
20749 2020-01-30 11:44:15 Terrasse 5.80 5.04 99.90
20748 2020-01-30 11:13:12 Terrasse 5.10 4.27 99.90
20747 2020-01-30 10:42:10 Terrasse 4.80 3.94 99.90
20746 2020-01-30 10:11:06 Terrasse 4.30 3.39 99.90
20745 2020-01-30 09:40:03 Terrasse 4.00 3.06 99.90
20744 2020-01-30 09:09:04 Terrasse 3.90 2.95 99.90
20743 2020-01-30 08:38:04 Terrasse 3.60 2.62 99.90
20742 2020-01-30 08:07:06 Terrasse 3.60 2.62 99.90
20741 2020-01-30 07:36:08 Terrasse 3.70 2.73 99.90
20740 2020-01-30 07:05:16 Terrasse 3.70 2.73 99.90
20739 2020-01-30 06:34:42 Terrasse 3.70 2.73 99.90
20738 2020-01-29 22:40:45 Terrasse 3.20 2.18 99.90
20737 2020-01-29 22:09:48 Terrasse 3.20 2.18 99.90
20736 2020-01-29 20:06:49 Terrasse 3.90 2.95 99.90
20735 2020-01-29 19:35:51 Terrasse 4.00 3.06 99.90
20734 2020-01-29 19:04:54 Terrasse 4.10 3.16 99.30
20733 2020-01-29 18:33:58 Terrasse 4.40 3.29 91.70
20732 2020-01-29 18:03:02 Terrasse 4.50 3.40 91.70
20731 2020-01-29 17:32:05 Terrasse 4.50 3.36 90.20
20730 2020-01-29 17:01:08 Terrasse 4.50 3.49 95.30
20729 2020-01-29 16:30:10 Terrasse 4.60 3.72 99.90
20728 2020-01-29 15:59:13 Terrasse 4.70 3.83 99.90
20727 2020-01-29 15:28:17 Terrasse 4.90 4.05 99.90
20726 2020-01-29 14:57:22 Terrasse 5.10 4.26 99.40
20725 2020-01-29 14:26:42 Terrasse 5.60 4.82 99.90
20724 2020-01-29 13:55:37 Terrasse 5.10 4.27 99.90
20723 2020-01-29 13:24:42 Terrasse 5.20 4.38 99.90
20722 2020-01-29 12:53:36 Terrasse 3.90 2.95 99.90
20721 2020-01-29 12:22:38 Terrasse 3.60 2.62 99.90
20720 2020-01-29 11:51:40 Terrasse 3.50 2.51 99.90
20719 2020-01-29 11:20:41 Terrasse 3.40 2.40 99.90
20718 2020-01-29 10:49:42 Terrasse 3.20 2.18 99.90
20717 2020-01-29 10:18:46 Terrasse 3.10 2.07 99.90
20716 2020-01-29 09:47:47 Terrasse 3.00 1.96 99.90
20715 2020-01-29 09:16:48 Terrasse 2.80 1.74 99.90
20714 2020-01-29 08:45:49 Terrasse 2.50 1.41 99.90
20713 2020-01-29 08:14:50 Terrasse 2.30 1.19 99.90
20712 2020-01-29 07:43:54 Terrasse 2.30 1.19 99.90
20711 2020-01-29 07:12:57 Terrasse 2.40 1.30 99.90
20710 2020-01-29 06:42:00 Terrasse 2.30 1.19 99.90
20709 2020-01-29 06:11:02 Terrasse 2.30 1.19 99.90
20708 2020-01-29 05:40:04 Terrasse 2.30 1.19 99.90
20707 2020-01-29 05:09:05 Terrasse 2.30 1.19 99.90
20706 2020-01-29 04:38:07 Terrasse 2.10 0.97 99.90
20705 2020-01-29 04:07:11 Terrasse 2.20 1.08 99.90
20704 2020-01-29 03:36:11 Terrasse 2.00 0.86 99.90
20703 2020-01-29 03:05:14 Terrasse 1.90 0.75 99.90
20702 2020-01-29 02:34:17 Terrasse 1.90 0.75 99.90
20701 2020-01-29 02:03:20 Terrasse 1.90 0.75 99.90
20700 2020-01-29 01:32:25 Terrasse 2.10 0.97 99.90
20699 2020-01-29 00:28:05 Terrasse 2.10 0.97 99.90
20698 2020-01-28 23:57:06 Terrasse 2.10 0.97 99.90
20697 2020-01-28 23:26:08 Terrasse 2.20 1.08 99.90
20696 2020-01-28 22:55:12 Terrasse 2.30 1.19 99.90
20695 2020-01-28 22:24:17 Terrasse 2.30 1.19 99.90
20694 2020-01-28 21:53:21 Terrasse 2.50 1.41 99.90
20693 2020-01-28 21:22:25 Terrasse 2.70 1.63 99.90
20692 2020-01-28 20:51:29 Terrasse 3.00 1.96 99.90
20691 2020-01-28 20:20:40 Terrasse 3.10 2.07 99.90
20690 2020-01-28 19:49:43 Terrasse 3.30 2.29 99.90
20689 2020-01-28 19:18:47 Terrasse 3.40 2.40 99.90
20688 2020-01-28 18:47:52 Terrasse 3.50 2.51 99.90
20687 2020-01-28 18:16:57 Terrasse 3.70 2.73 99.90
20686 2020-01-28 17:46:02 Terrasse 3.90 2.95 99.90
20685 2020-01-28 17:15:07 Terrasse 4.20 3.28 99.90
20684 2020-01-28 16:44:11 Terrasse 4.50 3.61 99.90
20683 2020-01-28 16:13:17 Terrasse 4.80 3.94 99.90
20682 2020-01-28 15:42:20 Terrasse 5.30 4.49 99.90
20681 2020-01-28 15:11:24 Terrasse 5.50 4.71 99.90
20680 2020-01-28 14:40:34 Terrasse 6.60 5.92 99.90
20679 2020-01-28 14:09:32 Terrasse 5.80 5.04 99.90
20678 2020-01-28 13:38:34 Terrasse 5.00 4.16 99.90
20677 2020-01-28 13:07:35 Terrasse 5.20 4.38 99.90
20676 2020-01-28 12:36:33 Terrasse 4.90 4.05 99.90
20675 2020-01-28 12:05:36 Terrasse 4.90 4.05 99.90
20674 2020-01-28 11:34:40 Terrasse 5.00 4.16 99.90
20673 2020-01-28 11:03:41 Terrasse 5.40 4.60 99.90
20672 2020-01-28 10:32:41 Terrasse 4.60 3.72 99.90
20671 2020-01-28 10:01:56 Terrasse 5.00 4.16 99.90
20670 2020-01-28 09:30:53 Terrasse 5.00 4.16 99.90
20669 2020-01-28 09:00:00 Terrasse 5.20 4.38 99.90
20668 2020-01-28 08:29:00 Terrasse 5.20 4.38 99.90
20667 2020-01-28 07:58:02 Terrasse 5.20 4.38 99.90
20666 2020-01-28 07:27:05 Terrasse 5.10 4.27 99.90
20665 2020-01-28 06:56:06 Terrasse 5.10 4.27 99.90
20664 2020-01-28 06:25:09 Terrasse 5.10 4.27 99.90
20663 2020-01-28 05:54:13 Terrasse 5.10 4.27 99.90
20662 2020-01-28 05:23:14 Terrasse 5.20 4.38 99.90
20661 2020-01-28 04:52:16 Terrasse 5.20 4.38 99.90
20660 2020-01-28 04:21:17 Terrasse 5.20 4.38 99.90
20659 2020-01-28 03:50:19 Terrasse 5.30 4.49 99.90
20658 2020-01-28 03:19:20 Terrasse 5.10 4.27 99.90
20657 2020-01-28 02:48:20 Terrasse 5.00 4.16 99.90
20656 2020-01-28 02:17:21 Terrasse 4.90 4.05 99.90
20655 2020-01-28 01:46:24 Terrasse 4.90 4.05 99.90
20654 2020-01-28 01:15:24 Terrasse 4.80 3.94 99.90
20653 2020-01-28 00:44:31 Terrasse 4.80 3.94 99.90
20652 2020-01-28 00:13:30 Terrasse 4.80 3.94 99.90
20651 2020-01-27 23:42:32 Terrasse 4.80 3.94 99.90
20650 2020-01-27 23:11:33 Terrasse 4.80 3.94 99.90
20649 2020-01-27 22:40:34 Terrasse 4.80 3.94 99.90
20648 2020-01-27 22:09:36 Terrasse 4.70 3.83 99.90
20647 2020-01-27 21:38:38 Terrasse 4.80 3.94 99.90
20646 2020-01-27 21:07:43 Terrasse 4.90 4.05 99.90
20645 2020-01-27 20:37:43 Terrasse 5.00 4.16 99.90
20644 2020-01-27 20:06:15 Terrasse 5.00 4.16 99.90
20643 2020-01-27 19:35:16 Terrasse 5.00 4.16 99.90
20642 2020-01-27 19:04:25 Terrasse 5.00 4.16 99.90
20641 2020-01-27 18:33:36 Terrasse 5.00 4.16 99.90
20640 2020-01-27 18:02:46 Terrasse 5.10 4.27 99.90
20639 2020-01-27 17:31:58 Terrasse 5.20 4.38 99.90
20638 2020-01-27 17:01:08 Terrasse 5.20 4.38 99.90
20637 2020-01-27 16:30:19 Terrasse 5.30 4.49 99.90
20636 2020-01-27 15:59:30 Terrasse 5.40 4.60 99.90
20635 2020-01-27 15:28:40 Terrasse 5.40 4.60 99.90
20634 2020-01-27 14:57:48 Terrasse 5.30 4.49 99.90
20633 2020-01-27 14:27:03 Terrasse 5.20 4.38 99.90
20632 2020-01-27 13:25:20 Terrasse 4.90 4.05 99.90
20631 2020-01-27 12:54:28 Terrasse 4.60 3.72 99.90
20630 2020-01-27 12:23:36 Terrasse 4.40 3.50 99.90
20629 2020-01-27 11:52:45 Terrasse 4.20 3.28 99.90
20628 2020-01-27 11:21:53 Terrasse 4.00 3.06 99.90
20627 2020-01-27 10:51:00 Terrasse 3.80 2.84 99.90
20626 2020-01-27 10:20:10 Terrasse 3.60 2.62 99.90
20625 2020-01-27 09:49:18 Terrasse 3.40 2.40 99.90
20624 2020-01-27 09:18:27 Terrasse 3.10 2.07 99.90
20623 2020-01-27 08:47:37 Terrasse 3.00 1.96 99.90
20622 2020-01-27 08:16:45 Terrasse 2.90 1.85 99.90
20621 2020-01-27 07:45:57 Terrasse 2.90 1.85 99.90
20620 2020-01-27 07:15:09 Terrasse 2.90 1.85 99.90
20619 2020-01-26 09:27:29 Terrasse 1.10 -0.13 99.90
20618 2020-01-26 08:56:39 Terrasse 1.00 -0.24 99.90
20617 2020-01-26 08:25:50 Terrasse 0.80 -0.46 99.90
20616 2020-01-26 07:55:02 Terrasse 0.70 -0.57 99.90
20615 2020-01-26 07:24:14 Terrasse 0.60 -0.68 99.90
20614 2020-01-26 06:53:25 Terrasse 0.60 -0.68 99.90
20613 2020-01-26 06:22:39 Terrasse 0.60 -0.68 99.90
20612 2020-01-26 05:51:50 Terrasse 0.70 -0.57 99.90
20611 2020-01-26 05:21:00 Terrasse 0.70 -0.57 99.90
20610 2020-01-26 04:50:12 Terrasse 0.70 -0.57 99.90
20609 2020-01-26 04:19:23 Terrasse 0.70 -0.57 99.90
20608 2020-01-26 03:48:33 Terrasse 0.70 -0.57 99.90
20607 2020-01-26 03:17:45 Terrasse 0.60 -0.68 99.90
20606 2020-01-26 02:46:56 Terrasse 0.60 -0.68 99.90
20605 2020-01-26 02:16:08 Terrasse 0.40 -0.90 99.90
20604 2020-01-26 01:45:20 Terrasse 0.60 -0.68 99.90
20603 2020-01-26 01:14:33 Terrasse 0.60 -0.68 99.90
20602 2020-01-26 00:43:45 Terrasse 0.70 -0.57 99.90
20601 2020-01-26 00:12:58 Terrasse 0.70 -0.57 99.90
20600 2020-01-25 23:42:10 Terrasse 0.80 -0.46 99.90
20599 2020-01-25 23:11:23 Terrasse 0.90 -0.35 99.90
20598 2020-01-25 22:40:36 Terrasse 1.00 -0.24 99.90
20597 2020-01-25 22:09:50 Terrasse 1.10 -0.13 99.90
20596 2020-01-25 21:39:02 Terrasse 1.20 -0.02 99.90
20595 2020-01-25 21:08:14 Terrasse 1.20 -0.02 99.90
20594 2020-01-25 20:37:26 Terrasse 1.30 0.09 99.90
20593 2020-01-25 20:06:39 Terrasse 1.20 -0.02 99.90
20592 2020-01-25 19:35:51 Terrasse 1.30 0.09 99.90
20591 2020-01-25 19:04:54 Terrasse 1.30 0.09 99.90
20590 2020-01-25 18:33:58 Terrasse 1.40 0.20 99.90
20589 2020-01-25 18:03:03 Terrasse 1.50 0.31 99.90
20588 2020-01-25 17:32:06 Terrasse 1.70 0.53 99.90
20587 2020-01-25 17:01:11 Terrasse 1.90 0.75 99.90
20586 2020-01-25 16:30:13 Terrasse 1.90 0.75 99.90
20585 2020-01-25 15:59:17 Terrasse 2.00 0.86 99.90
20584 2020-01-25 15:28:20 Terrasse 2.10 0.97 99.90
20583 2020-01-25 14:57:28 Terrasse 2.10 0.97 99.90
20582 2020-01-25 14:26:31 Terrasse 2.00 0.86 99.90
20581 2020-01-25 13:56:50 Terrasse 2.00 0.86 99.90
20580 2020-01-25 13:25:27 Terrasse 1.80 0.64 99.90
20579 2020-01-25 12:55:14 Terrasse 1.70 0.53 99.90
20578 2020-01-25 12:24:05 Terrasse 1.40 0.20 99.90
20577 2020-01-25 11:53:51 Terrasse 1.10 -0.13 99.90
20576 2020-01-25 11:23:05 Terrasse 0.80 -0.46 99.90
20575 2020-01-25 10:52:21 Terrasse 0.60 -0.68 99.90
20574 2020-01-25 10:21:47 Terrasse 0.40 -0.90 99.90
20573 2020-01-25 09:51:26 Terrasse 0.20 -1.12 99.90
20572 2020-01-25 09:20:40 Terrasse -0.10 -1.45 99.90
20571 2020-01-25 08:50:09 Terrasse -0.20 -1.56 99.90
20570 2020-01-25 08:19:26 Terrasse -0.30 -1.67 99.90
20569 2020-01-25 07:12:41 Terrasse 0.00 -1.34 99.90
20568 2020-01-25 06:35:34 Terrasse -0.10 -1.45 99.90
20567 2020-01-25 05:24:59 Terrasse 0.10 -1.23 99.90
20566 2020-01-25 04:54:27 Terrasse 0.10 -1.23 99.90
20565 2020-01-25 04:22:54 Terrasse 0.10 -1.23 99.90
20564 2020-01-25 03:50:37 Terrasse 0.20 -1.12 99.90
20563 2020-01-25 03:16:42 Terrasse 0.30 -1.01 99.90
20562 2020-01-25 02:45:46 Terrasse 0.30 -1.01 99.90
20561 2020-01-25 02:14:03 Terrasse 0.40 -0.90 99.90
20560 2020-01-25 01:43:30 Terrasse 0.40 -0.90 99.90
20559 2020-01-25 00:36:09 Terrasse 0.50 -0.79 99.90
20558 2020-01-25 00:04:45 Terrasse 0.50 -0.79 99.90
20557 2020-01-24 23:33:30 Terrasse 0.50 -0.79 99.90
20556 2020-01-24 22:27:37 Terrasse 0.60 -0.68 99.90
20555 2020-01-24 21:55:54 Terrasse 0.60 -0.68 99.90
20554 2020-01-24 21:24:46 Terrasse 0.60 -0.68 99.90
20553 2020-01-24 20:54:30 Terrasse 0.60 -0.68 99.90
20552 2020-01-24 20:24:11 Terrasse 0.60 -0.68 99.90
20551 2020-01-24 19:52:41 Terrasse 0.60 -0.68 99.90
20550 2020-01-24 19:21:47 Terrasse 0.70 -0.57 99.90
20549 2020-01-24 18:50:51 Terrasse 0.70 -0.57 99.90
20548 2020-01-24 18:19:57 Terrasse 0.60 -0.68 99.90
20547 2020-01-24 17:49:00 Terrasse 0.70 -0.57 99.90
20546 2020-01-24 17:18:05 Terrasse 0.70 -0.57 99.90
20545 2020-01-24 16:47:10 Terrasse 0.80 -0.46 99.90
20544 2020-01-24 16:16:14 Terrasse 0.90 -0.35 99.90
20543 2020-01-24 15:45:18 Terrasse 1.00 -0.24 99.90
20542 2020-01-24 15:14:23 Terrasse 1.10 -0.13 99.90
20541 2020-01-24 14:43:29 Terrasse 1.20 -0.02 99.90
20540 2020-01-24 14:12:33 Terrasse 1.20 -0.02 99.90
20539 2020-01-24 13:41:38 Terrasse 1.10 -0.13 99.90
20538 2020-01-24 13:10:40 Terrasse 1.00 -0.24 99.90
20537 2020-01-24 12:39:42 Terrasse 0.70 -0.57 99.90
20536 2020-01-24 12:08:46 Terrasse 0.60 -0.68 99.90
20535 2020-01-24 11:37:49 Terrasse 0.60 -0.68 99.90
20534 2020-01-24 11:06:52 Terrasse 0.50 -0.79 99.90
20533 2020-01-24 10:36:00 Terrasse 0.40 -0.90 99.90
20532 2020-01-24 10:05:04 Terrasse 0.40 -0.90 99.90
20531 2020-01-24 09:34:08 Terrasse 0.40 -0.90 99.90
20530 2020-01-24 09:03:13 Terrasse 0.30 -1.01 99.90
20529 2020-01-24 08:32:18 Terrasse 0.30 -1.01 99.90
20528 2020-01-24 08:01:22 Terrasse 0.30 -1.01 99.90
20527 2020-01-24 07:30:26 Terrasse 0.30 -1.01 99.90
20526 2020-01-24 06:59:29 Terrasse 0.40 -0.90 99.90
20525 2020-01-24 06:28:34 Terrasse 0.40 -0.90 99.90
20524 2020-01-24 05:57:37 Terrasse 0.40 -0.90 99.90
20523 2020-01-24 05:26:43 Terrasse 0.40 -0.90 99.90
20522 2020-01-24 04:55:47 Terrasse 0.40 -0.90 99.90
20521 2020-01-24 04:24:50 Terrasse 0.40 -0.90 99.90
20520 2020-01-24 03:53:55 Terrasse 0.50 -0.79 99.90
20519 2020-01-24 03:22:59 Terrasse 0.70 -0.57 99.90
20518 2020-01-24 02:52:04 Terrasse 0.90 -0.35 99.90
20517 2020-01-24 02:21:09 Terrasse 1.00 -0.24 99.90
20516 2020-01-24 01:50:14 Terrasse 1.20 -0.02 99.90
20515 2020-01-24 01:19:19 Terrasse 1.30 0.09 99.90
20514 2020-01-24 00:48:24 Terrasse 1.30 0.09 99.90
20513 2020-01-24 00:17:27 Terrasse 1.40 0.20 99.90
20512 2020-01-23 23:46:32 Terrasse 1.40 0.20 99.90
20511 2020-01-23 23:15:36 Terrasse 1.50 0.31 99.90
20510 2020-01-23 22:44:44 Terrasse 1.70 0.53 99.90
20509 2020-01-23 22:13:50 Terrasse 1.70 0.53 99.90
20508 2020-01-23 21:42:56 Terrasse 1.90 0.75 99.90
20507 2020-01-23 21:12:01 Terrasse 2.10 0.97 99.90
20506 2020-01-23 20:41:05 Terrasse 2.20 1.08 99.90
20505 2020-01-23 20:10:11 Terrasse 2.30 1.19 99.90
20504 2020-01-23 19:39:16 Terrasse 2.20 1.08 99.90
20503 2020-01-23 19:08:20 Terrasse 2.20 1.08 99.90
20502 2020-01-23 18:37:26 Terrasse 2.50 1.41 99.90
20501 2020-01-23 18:06:34 Terrasse 2.90 1.85 99.90
20500 2020-01-23 17:35:42 Terrasse 3.60 2.62 99.90
20499 2020-01-23 17:05:01 Terrasse 4.70 3.83 99.90
20498 2020-01-23 16:34:17 Terrasse 6.50 5.04 70.10
20497 2020-01-23 16:04:09 Terrasse 13.10 11.92 55.60
20496 2020-01-23 15:32:46 Terrasse 8.70 7.44 69.60
20495 2020-01-23 15:02:21 Terrasse 9.70 8.46 66.60
20494 2020-01-23 14:30:48 Terrasse 10.60 9.51 68.90
20493 2020-01-23 13:59:16 Terrasse 4.30 3.39 99.90
20492 2020-01-23 13:28:18 Terrasse 3.60 2.62 99.90
20491 2020-01-23 12:57:18 Terrasse 3.00 1.96 99.90
20490 2020-01-23 12:26:20 Terrasse 2.50 1.41 99.90
20489 2020-01-23 11:55:22 Terrasse 2.30 1.19 99.90
20488 2020-01-23 11:24:22 Terrasse 2.20 1.08 99.90
20487 2020-01-23 10:53:24 Terrasse 2.00 0.86 99.90
20486 2020-01-23 10:22:26 Terrasse 1.90 0.75 99.90
20485 2020-01-23 09:51:30 Terrasse 1.80 0.64 99.90
20484 2020-01-23 09:20:34 Terrasse 1.70 0.53 99.90
20483 2020-01-23 08:49:36 Terrasse 1.60 0.42 99.90
20482 2020-01-23 08:18:38 Terrasse 1.60 0.42 99.90
20481 2020-01-23 07:47:43 Terrasse 1.60 0.42 99.90
20480 2020-01-23 07:16:45 Terrasse 1.60 0.42 99.90
20479 2020-01-23 06:45:50 Terrasse 1.60 0.42 99.90
20478 2020-01-23 06:14:54 Terrasse 1.50 0.31 99.90
20477 2020-01-23 05:43:58 Terrasse 1.50 0.31 99.90
20476 2020-01-23 05:13:00 Terrasse 1.50 0.31 99.90
20475 2020-01-23 04:42:04 Terrasse 1.50 0.31 99.90
20474 2020-01-23 04:11:08 Terrasse 1.40 0.20 99.90
20473 2020-01-23 03:40:14 Terrasse 1.40 0.20 99.90
20472 2020-01-23 03:09:17 Terrasse 1.20 -0.02 99.90
20471 2020-01-23 02:38:22 Terrasse 1.30 0.09 99.90
20470 2020-01-23 02:07:29 Terrasse 1.60 0.42 99.90
20469 2020-01-23 01:36:33 Terrasse 1.60 0.42 99.90
20468 2020-01-23 01:05:35 Terrasse 1.60 0.42 99.90
20467 2020-01-23 00:34:40 Terrasse 1.60 0.42 99.90
20466 2020-01-23 00:03:42 Terrasse 1.40 0.20 99.90
20465 2020-01-22 23:32:44 Terrasse 1.10 -0.13 99.90
20464 2020-01-22 23:01:48 Terrasse 1.20 -0.02 99.90
20463 2020-01-22 22:30:50 Terrasse 0.80 -0.46 99.90
20462 2020-01-22 21:59:53 Terrasse 0.60 -0.68 99.90
20461 2020-01-22 21:28:58 Terrasse 0.60 -0.68 99.90
20460 2020-01-22 20:58:01 Terrasse 0.30 -1.01 99.90
20459 2020-01-22 20:27:03 Terrasse 0.20 -1.12 99.90
20458 2020-01-22 19:56:07 Terrasse 0.20 -1.12 99.90
20457 2020-01-22 19:25:12 Terrasse 0.30 -1.01 99.90
20456 2020-01-22 18:54:16 Terrasse 0.30 -1.01 99.90
20455 2020-01-22 18:23:22 Terrasse 0.60 -0.68 99.90
20454 2020-01-22 17:52:27 Terrasse 0.70 -0.57 99.90
20453 2020-01-22 17:21:31 Terrasse 0.50 -0.79 99.90
20452 2020-01-22 16:50:36 Terrasse 0.70 -0.57 99.90
20451 2020-01-22 16:19:41 Terrasse 0.90 -0.35 99.90
20450 2020-01-22 15:48:47 Terrasse 1.30 0.09 99.90
20449 2020-01-22 15:17:52 Terrasse 1.20 -0.02 99.90
20448 2020-01-22 14:47:30 Terrasse 0.80 -0.46 99.90
20447 2020-01-22 14:16:20 Terrasse 0.50 -0.79 99.90
20446 2020-01-22 13:45:24 Terrasse 0.50 -0.79 99.90
20445 2020-01-22 13:14:29 Terrasse 0.80 -0.46 99.90
20444 2020-01-22 12:43:40 Terrasse 1.30 0.09 99.90
20443 2020-01-22 12:12:48 Terrasse 1.60 0.42 99.90
20442 2020-01-22 11:41:54 Terrasse 2.20 1.08 99.90
20441 2020-01-22 11:10:52 Terrasse 1.20 -0.02 99.90
20440 2020-01-22 10:39:50 Terrasse 0.00 -1.34 99.90
20439 2020-01-22 10:08:44 Terrasse -1.20 -2.66 99.90
20438 2020-01-22 09:37:44 Terrasse -1.80 -3.32 99.90
20437 2020-01-22 09:06:46 Terrasse -2.20 -3.76 99.90
20436 2020-01-22 08:35:50 Terrasse -2.40 -3.98 99.90
20435 2020-01-22 08:04:55 Terrasse -2.30 -3.87 99.90
20434 2020-01-22 07:34:05 Terrasse -1.90 -3.43 99.90
20433 2020-01-22 07:03:02 Terrasse -2.40 -3.98 99.90
20432 2020-01-22 06:32:07 Terrasse -2.30 -3.87 99.90
20431 2020-01-22 06:01:12 Terrasse -2.20 -3.76 99.90
20430 2020-01-22 05:30:18 Terrasse -2.00 -3.54 99.90
20429 2020-01-22 04:59:24 Terrasse -1.80 -3.32 99.90
20428 2020-01-22 04:28:31 Terrasse -1.70 -3.21 99.90
20427 2020-01-22 03:57:34 Terrasse -1.70 -3.21 99.90
20426 2020-01-22 03:26:38 Terrasse -1.50 -2.99 99.90
20425 2020-01-22 02:55:43 Terrasse -1.40 -2.88 99.90
20424 2020-01-22 02:24:49 Terrasse -1.30 -2.77 99.90
20423 2020-01-22 01:53:53 Terrasse -1.10 -2.55 99.90
20422 2020-01-22 01:23:01 Terrasse -0.90 -2.33 99.90
20421 2020-01-22 00:52:05 Terrasse -0.80 -2.22 99.90
20420 2020-01-22 00:21:10 Terrasse -0.70 -2.11 99.90
20419 2020-01-21 23:50:16 Terrasse -0.50 -1.89 99.90
20418 2020-01-21 23:19:21 Terrasse -0.30 -1.67 99.90
20417 2020-01-21 22:48:26 Terrasse -0.10 -1.45 99.90
20416 2020-01-21 22:17:31 Terrasse 0.00 -1.34 99.90
20415 2020-01-21 21:46:38 Terrasse 0.30 -1.01 99.90
20414 2020-01-21 21:15:42 Terrasse 0.50 -0.79 99.90
20413 2020-01-21 20:44:46 Terrasse 0.80 -0.46 99.90
20412 2020-01-21 20:13:52 Terrasse 1.00 -0.24 99.90
20411 2020-01-21 19:42:57 Terrasse 1.10 -0.13 99.90
20410 2020-01-21 19:12:04 Terrasse 1.40 0.20 99.90
20409 2020-01-21 18:41:12 Terrasse 1.80 0.64 99.90
20408 2020-01-21 18:10:22 Terrasse 2.70 1.29 86.60
20407 2020-01-21 17:39:31 Terrasse 3.60 1.78 67.40
20406 2020-01-21 17:08:46 Terrasse 5.10 3.31 62.90
20405 2020-01-21 16:38:00 Terrasse 7.10 5.40 58.60
20404 2020-01-21 16:07:20 Terrasse 9.60 8.04 54.40
20403 2020-01-21 15:36:41 Terrasse 11.30 9.86 52.70
20402 2020-01-21 15:05:56 Terrasse 13.50 12.32 54.10
20401 2020-01-21 14:35:03 Terrasse 14.00 12.89 55.00
20400 2020-01-21 14:04:08 Terrasse 14.50 13.44 54.90
20399 2020-01-21 13:33:09 Terrasse 14.60 13.53 54.00
20398 2020-01-21 13:02:02 Terrasse 12.90 11.74 57.20
20397 2020-01-21 12:30:56 Terrasse 11.80 10.61 60.40
20396 2020-01-21 11:59:46 Terrasse 10.40 9.21 65.70
20395 2020-01-21 11:28:28 Terrasse 8.30 7.15 75.10
20394 2020-01-21 10:56:56 Terrasse 6.00 5.03 90.90
20393 2020-01-21 10:25:42 Terrasse 3.90 2.95 99.90
20392 2020-01-21 09:54:30 Terrasse 1.10 -0.13 99.90
20391 2020-01-21 09:23:25 Terrasse -0.70 -2.11 99.90
20390 2020-01-21 08:52:27 Terrasse -1.30 -2.77 99.90
20389 2020-01-21 08:21:32 Terrasse -1.30 -2.77 99.90
20388 2020-01-21 07:50:37 Terrasse -1.10 -2.55 99.90
20387 2020-01-21 07:19:43 Terrasse -0.90 -2.33 99.90
20386 2020-01-21 06:48:46 Terrasse -0.80 -2.22 99.90
20385 2020-01-21 06:17:53 Terrasse -0.60 -2.00 99.90
20384 2020-01-21 05:46:58 Terrasse -0.50 -1.89 99.90
20383 2020-01-21 05:16:02 Terrasse -0.60 -2.00 99.90
20382 2020-01-21 04:45:07 Terrasse -0.60 -2.00 99.90
20381 2020-01-21 04:14:12 Terrasse -0.40 -1.78 99.90
20380 2020-01-21 03:43:17 Terrasse -0.10 -1.45 99.90
20379 2020-01-21 03:12:22 Terrasse 0.10 -1.23 99.90
20378 2020-01-21 02:41:25 Terrasse 0.00 -1.34 99.90
20377 2020-01-21 02:10:31 Terrasse 0.00 -1.34 99.90
20376 2020-01-21 01:39:35 Terrasse 0.20 -1.12 99.90
20375 2020-01-21 01:08:40 Terrasse 0.20 -1.12 99.90
20374 2020-01-21 00:37:47 Terrasse 0.30 -1.01 99.90
20373 2020-01-21 00:06:53 Terrasse 0.50 -0.79 99.90
20372 2020-01-20 23:36:00 Terrasse 0.70 -0.57 99.90
20371 2020-01-20 23:05:05 Terrasse 0.90 -0.35 99.90
20370 2020-01-20 22:34:11 Terrasse 1.30 0.09 99.90
20369 2020-01-20 22:03:17 Terrasse 1.50 0.31 99.90
20368 2020-01-20 21:32:23 Terrasse 1.70 0.53 99.90
20367 2020-01-20 21:01:27 Terrasse 1.90 0.75 99.90
20366 2020-01-20 20:30:32 Terrasse 2.00 0.86 99.90
20365 2020-01-20 19:59:37 Terrasse 2.10 0.97 99.90
20364 2020-01-20 19:28:41 Terrasse 2.20 1.08 99.90
20363 2020-01-20 18:57:47 Terrasse 2.20 1.08 99.90
20362 2020-01-20 18:26:56 Terrasse 2.90 1.85 99.90
20361 2020-01-20 17:56:05 Terrasse 3.50 2.51 99.90
20360 2020-01-20 17:25:16 Terrasse 4.50 3.30 87.80
20359 2020-01-20 16:54:27 Terrasse 5.70 4.22 72.70
20358 2020-01-20 16:23:37 Terrasse 6.80 5.26 66.20
20357 2020-01-20 15:52:50 Terrasse 8.00 6.51 63.50
20356 2020-01-20 15:22:10 Terrasse 9.90 8.53 60.70
20355 2020-01-20 14:51:41 Terrasse 13.90 12.87 58.30
20354 2020-01-20 14:20:45 Terrasse 14.20 13.23 59.50
20353 2020-01-20 13:49:37 Terrasse 13.20 12.15 60.40
20352 2020-01-20 13:18:54 Terrasse 14.10 13.14 60.40
20351 2020-01-20 12:48:05 Terrasse 13.70 12.77 62.80
20350 2020-01-20 12:16:47 Terrasse 11.90 10.81 63.90
20349 2020-01-20 11:45:29 Terrasse 10.40 9.33 70.10
20348 2020-01-20 11:13:55 Terrasse 7.80 6.70 79.20
20347 2020-01-20 10:42:39 Terrasse 6.70 5.63 84.60
20346 2020-01-20 10:11:30 Terrasse 4.90 4.05 99.90
20345 2020-01-20 09:40:22 Terrasse 2.80 1.74 99.90
20344 2020-01-20 09:09:23 Terrasse 2.30 1.19 99.90
20343 2020-01-20 08:38:26 Terrasse 2.20 1.08 99.90
20342 2020-01-20 08:07:32 Terrasse 2.40 1.30 99.90
20341 2020-01-20 07:36:37 Terrasse 2.70 1.63 99.90
20340 2020-01-20 07:05:41 Terrasse 2.80 1.74 99.90
20339 2020-01-20 06:34:45 Terrasse 2.80 1.74 99.90
20338 2020-01-20 06:03:51 Terrasse 3.00 1.96 99.90
20337 2020-01-20 05:32:54 Terrasse 3.00 1.96 99.90
20336 2020-01-20 05:01:58 Terrasse 3.10 2.07 99.90
20335 2020-01-20 04:31:01 Terrasse 3.10 2.07 99.90
20334 2020-01-20 04:00:04 Terrasse 3.20 2.18 99.90
20333 2020-01-20 03:29:08 Terrasse 3.20 2.18 99.90
20332 2020-01-20 02:58:13 Terrasse 3.20 2.18 99.90
20331 2020-01-20 02:27:16 Terrasse 3.30 2.29 99.90
20330 2020-01-20 01:56:19 Terrasse 3.30 2.29 99.90
20329 2020-01-20 01:25:23 Terrasse 3.20 2.18 99.90
20328 2020-01-20 00:54:27 Terrasse 3.10 2.07 99.90
20327 2020-01-20 00:23:33 Terrasse 3.40 2.40 99.90
20326 2020-01-19 23:52:39 Terrasse 3.50 2.51 99.90
20325 2020-01-19 23:21:42 Terrasse 3.40 2.40 99.90
20324 2020-01-19 22:50:51 Terrasse 3.40 2.40 99.90
20323 2020-01-19 22:19:52 Terrasse 3.50 2.51 99.90
20322 2020-01-19 21:48:56 Terrasse 3.40 2.40 99.90
20321 2020-01-19 21:17:59 Terrasse 3.30 2.29 99.90
20320 2020-01-19 20:47:04 Terrasse 3.40 2.40 99.90
20319 2020-01-19 20:16:06 Terrasse 3.30 2.29 99.90
20318 2020-01-19 19:45:09 Terrasse 3.20 2.18 99.90
20317 2020-01-19 19:14:12 Terrasse 3.00 1.96 99.90
20316 2020-01-19 18:43:16 Terrasse 3.10 2.07 99.90
20315 2020-01-19 18:12:20 Terrasse 3.10 2.07 99.90
20314 2020-01-19 17:41:25 Terrasse 3.20 2.18 99.90
20313 2020-01-19 17:10:32 Terrasse 3.50 2.51 99.90
20312 2020-01-19 16:39:42 Terrasse 4.30 3.39 99.90
20311 2020-01-19 16:08:50 Terrasse 5.10 4.27 99.90
20310 2020-01-19 15:37:55 Terrasse 5.50 4.71 99.90
20309 2020-01-19 15:07:01 Terrasse 5.60 4.82 99.90
20308 2020-01-19 14:36:05 Terrasse 5.50 4.71 99.90
20307 2020-01-19 14:05:12 Terrasse 5.50 4.71 99.90
20306 2020-01-19 13:34:19 Terrasse 6.20 5.48 99.90
20305 2020-01-19 13:03:26 Terrasse 6.40 5.70 99.90
20304 2020-01-19 12:32:20 Terrasse 5.90 5.15 99.90
20303 2020-01-19 12:01:37 Terrasse 6.70 6.03 99.90
20302 2020-01-19 11:30:22 Terrasse 4.40 3.50 99.90
20301 2020-01-19 10:59:20 Terrasse 4.00 3.06 99.90
20300 2020-01-19 10:28:19 Terrasse 3.60 2.62 99.90
20299 2020-01-19 09:57:18 Terrasse 3.00 1.96 99.90
20298 2020-01-19 09:26:21 Terrasse 2.10 0.97 99.90
20297 2020-01-19 08:55:23 Terrasse 1.90 0.75 99.90
20296 2020-01-19 08:24:25 Terrasse 1.80 0.64 99.90
20295 2020-01-19 07:53:29 Terrasse 1.70 0.53 99.90
20294 2020-01-19 07:22:33 Terrasse 1.60 0.42 99.90
20293 2020-01-19 06:51:36 Terrasse 1.60 0.42 99.90
20292 2020-01-19 06:20:39 Terrasse 1.60 0.42 99.90
20291 2020-01-19 05:49:43 Terrasse 1.80 0.64 99.90
20290 2020-01-19 05:18:47 Terrasse 1.80 0.64 99.90
20289 2020-01-19 04:47:51 Terrasse 1.80 0.64 99.90
20288 2020-01-19 04:16:55 Terrasse 1.90 0.75 99.90
20287 2020-01-19 03:45:59 Terrasse 1.90 0.75 99.90
20286 2020-01-19 03:15:03 Terrasse 2.10 0.97 99.90
20285 2020-01-19 02:44:09 Terrasse 2.10 0.97 99.90
20284 2020-01-19 02:13:14 Terrasse 2.20 1.08 99.90
20283 2020-01-19 01:42:18 Terrasse 2.50 1.41 99.90
20282 2020-01-19 01:11:22 Terrasse 2.40 1.30 99.90
20281 2020-01-19 00:40:28 Terrasse 2.50 1.41 99.90
20280 2020-01-19 00:09:32 Terrasse 2.50 1.41 99.90
20279 2020-01-18 23:38:36 Terrasse 2.40 1.30 99.90
20278 2020-01-18 23:07:40 Terrasse 2.30 1.19 99.90
20277 2020-01-18 22:36:43 Terrasse 2.30 1.19 99.90
20276 2020-01-18 22:05:47 Terrasse 2.40 1.30 99.90
20275 2020-01-18 21:34:51 Terrasse 2.50 1.41 99.90
20274 2020-01-18 21:03:57 Terrasse 2.50 1.41 99.90
20273 2020-01-18 20:33:01 Terrasse 2.60 1.52 99.90
20272 2020-01-18 20:02:06 Terrasse 2.60 1.52 99.90
20271 2020-01-18 19:31:10 Terrasse 3.00 1.96 99.90
20270 2020-01-18 19:00:16 Terrasse 3.20 2.18 99.90
20269 2020-01-18 18:29:24 Terrasse 3.70 2.73 99.90
20268 2020-01-18 17:58:30 Terrasse 4.20 3.28 99.90
20267 2020-01-18 17:27:35 Terrasse 4.50 3.61 99.90
20266 2020-01-18 16:56:44 Terrasse 5.10 4.27 99.90
20265 2020-01-18 16:25:56 Terrasse 5.70 4.93 99.90
20264 2020-01-18 15:55:06 Terrasse 6.40 5.70 99.90
20263 2020-01-18 15:24:12 Terrasse 6.20 5.48 99.90
20262 2020-01-18 14:53:16 Terrasse 6.10 5.37 99.90
20261 2020-01-18 14:22:23 Terrasse 6.50 5.81 99.90
20260 2020-01-18 13:51:30 Terrasse 6.10 5.37 99.90
20259 2020-01-18 13:20:39 Terrasse 6.80 6.14 99.90
20258 2020-01-18 12:49:42 Terrasse 7.20 6.58 99.90
20257 2020-01-18 12:18:21 Terrasse 5.00 4.16 99.90
20256 2020-01-18 11:47:25 Terrasse 5.20 4.38 99.90
20255 2020-01-18 11:16:21 Terrasse 4.90 4.05 99.90
20254 2020-01-18 10:45:36 Terrasse 4.40 3.50 99.90
20253 2020-01-18 10:14:24 Terrasse 3.50 2.51 99.90
20252 2020-01-18 09:43:21 Terrasse 2.40 1.30 99.90
20251 2020-01-18 09:12:20 Terrasse 1.90 0.75 99.90
20250 2020-01-18 08:41:22 Terrasse 1.60 0.42 99.90
20249 2020-01-18 08:10:26 Terrasse 1.50 0.31 99.90
20248 2020-01-18 07:39:31 Terrasse 1.70 0.53 99.90
20247 2020-01-18 07:08:36 Terrasse 1.70 0.53 99.90
20246 2020-01-18 06:37:41 Terrasse 1.80 0.64 99.90
20245 2020-01-18 06:06:48 Terrasse 2.20 1.08 99.90
20244 2020-01-18 05:35:54 Terrasse 2.40 1.30 99.90
20243 2020-01-18 05:04:59 Terrasse 2.50 1.41 99.90
20242 2020-01-18 04:34:05 Terrasse 2.80 1.74 99.90
20241 2020-01-18 04:03:09 Terrasse 3.10 2.07 99.90
20240 2020-01-18 03:32:16 Terrasse 3.50 2.51 99.90
20239 2020-01-18 03:01:22 Terrasse 3.90 2.95 99.90
20238 2020-01-18 02:30:28 Terrasse 4.10 3.17 99.90
20237 2020-01-18 01:59:33 Terrasse 4.20 3.28 99.90
20236 2020-01-18 01:28:37 Terrasse 4.30 3.39 99.90
20235 2020-01-18 00:57:42 Terrasse 4.50 3.61 99.90
20234 2020-01-18 00:26:47 Terrasse 4.70 3.83 99.90
20233 2020-01-17 23:55:52 Terrasse 5.00 4.16 99.90
20232 2020-01-17 23:24:58 Terrasse 5.30 4.49 99.90
20231 2020-01-17 22:54:02 Terrasse 5.50 4.71 99.90
20230 2020-01-17 22:23:05 Terrasse 5.60 4.82 99.90
20229 2020-01-17 21:52:08 Terrasse 5.70 4.93 99.90
20228 2020-01-17 21:21:11 Terrasse 5.70 4.93 99.90
20227 2020-01-17 20:50:18 Terrasse 6.20 5.48 99.90
20226 2020-01-17 20:19:21 Terrasse 6.30 5.59 99.90
20225 2020-01-17 19:48:25 Terrasse 6.40 5.70 99.90
20224 2020-01-17 19:17:28 Terrasse 6.50 5.81 99.90
20223 2020-01-17 18:46:30 Terrasse 6.40 5.70 99.90
20222 2020-01-17 18:15:34 Terrasse 6.40 5.70 99.90
20221 2020-01-17 17:44:38 Terrasse 6.50 5.81 99.90
20220 2020-01-17 17:13:43 Terrasse 6.60 5.92 99.90
20219 2020-01-17 16:42:46 Terrasse 6.90 6.25 99.90
20218 2020-01-17 16:11:50 Terrasse 7.20 6.58 99.90
20217 2020-01-17 15:40:52 Terrasse 7.20 6.58 99.90
20216 2020-01-17 15:09:57 Terrasse 7.30 6.69 99.90
20215 2020-01-17 14:39:01 Terrasse 7.50 6.91 99.90
20214 2020-01-17 14:08:08 Terrasse 7.90 7.35 99.90
20213 2020-01-17 13:37:12 Terrasse 8.30 7.79 99.90
20212 2020-01-17 13:06:11 Terrasse 7.90 7.35 99.90
20211 2020-01-17 12:35:19 Terrasse 8.40 7.90 99.90
20210 2020-01-17 12:04:08 Terrasse 7.30 6.69 99.90
20209 2020-01-17 11:33:13 Terrasse 7.20 6.58 99.90
20208 2020-01-17 11:02:26 Terrasse 8.10 7.57 99.90
20207 2020-01-17 10:31:15 Terrasse 6.80 6.14 99.90
20206 2020-01-17 10:00:11 Terrasse 5.30 4.49 99.90
20205 2020-01-17 09:29:05 Terrasse 3.80 2.84 99.90
20204 2020-01-17 08:58:07 Terrasse 3.40 2.40 99.90
20203 2020-01-17 08:27:11 Terrasse 3.30 2.29 99.90
20202 2020-01-17 07:56:14 Terrasse 3.30 2.29 99.90
20201 2020-01-17 07:25:20 Terrasse 3.40 2.40 99.90
20200 2020-01-17 06:54:26 Terrasse 3.50 2.51 99.90
20199 2020-01-17 06:23:32 Terrasse 3.70 2.73 99.90
20198 2020-01-17 05:52:37 Terrasse 3.90 2.95 99.90
20197 2020-01-17 05:21:42 Terrasse 4.10 3.17 99.90
20196 2020-01-17 04:50:46 Terrasse 4.20 3.28 99.90
20195 2020-01-17 04:19:59 Terrasse 4.50 3.61 99.90
20194 2020-01-17 03:49:01 Terrasse 4.60 3.72 99.90
20193 2020-01-17 03:18:07 Terrasse 4.80 3.94 99.90
20192 2020-01-17 02:47:11 Terrasse 5.10 4.27 99.90
20191 2020-01-17 02:16:17 Terrasse 5.30 4.49 99.90
20190 2020-01-17 01:45:21 Terrasse 5.50 4.71 99.90
20189 2020-01-17 01:14:26 Terrasse 5.90 5.15 99.90
20188 2020-01-17 00:43:31 Terrasse 6.00 5.26 99.90
20187 2020-01-17 00:12:36 Terrasse 6.20 5.48 99.90
20186 2020-01-16 23:41:41 Terrasse 6.50 5.81 99.90
20185 2020-01-16 23:10:45 Terrasse 6.60 5.92 99.90
20184 2020-01-16 22:39:48 Terrasse 6.60 5.92 99.90
20183 2020-01-16 22:08:51 Terrasse 6.60 5.92 99.90
20182 2020-01-16 21:37:54 Terrasse 6.60 5.92 99.90
20181 2020-01-16 21:06:59 Terrasse 6.70 6.03 99.90
20180 2020-01-16 20:36:02 Terrasse 6.80 6.14 99.90
20179 2020-01-16 20:05:07 Terrasse 7.10 6.47 99.90
20178 2020-01-16 19:34:12 Terrasse 7.50 6.91 99.90
20177 2020-01-16 19:03:17 Terrasse 7.70 7.13 99.90
20176 2020-01-16 18:32:23 Terrasse 8.20 7.68 99.90
20175 2020-01-16 18:01:32 Terrasse 8.90 8.45 99.90
20174 2020-01-16 17:30:43 Terrasse 9.70 9.33 99.90
20173 2020-01-16 16:59:53 Terrasse 11.00 10.76 99.90
20172 2020-01-16 16:29:05 Terrasse 12.50 12.41 99.90
20171 2020-01-16 15:58:23 Terrasse 14.60 14.31 84.10
20170 2020-01-16 15:27:43 Terrasse 15.80 15.48 78.30
20169 2020-01-16 14:56:55 Terrasse 17.50 17.37 78.90
20168 2020-01-16 14:26:06 Terrasse 18.10 17.89 73.80
20167 2020-01-16 13:55:11 Terrasse 18.40 18.30 76.80
20166 2020-01-16 13:24:09 Terrasse 17.60 17.50 79.90
20165 2020-01-16 12:53:08 Terrasse 16.60 16.57 86.30
20164 2020-01-16 12:22:04 Terrasse 15.90 16.15 99.90
20163 2020-01-16 11:50:45 Terrasse 13.70 13.73 99.90
20162 2020-01-16 11:18:56 Terrasse 10.10 9.77 99.90
20161 2020-01-16 10:48:00 Terrasse 9.70 9.33 99.90
20160 2020-01-16 10:16:52 Terrasse 7.90 7.35 99.90
20159 2020-01-16 09:45:47 Terrasse 7.10 6.47 99.90
20158 2020-01-16 09:14:44 Terrasse 6.10 5.37 99.90
20157 2020-01-16 08:43:47 Terrasse 6.00 5.26 99.90
20156 2020-01-16 08:12:52 Terrasse 6.20 5.48 99.90
20155 2020-01-16 07:41:58 Terrasse 6.60 5.92 99.90
20154 2020-01-16 07:11:05 Terrasse 7.10 6.47 99.90
20153 2020-01-16 06:40:13 Terrasse 7.80 7.24 99.90
20152 2020-01-16 06:09:17 Terrasse 8.20 7.68 99.90
20151 2020-01-16 05:38:20 Terrasse 8.30 7.79 99.90
20150 2020-01-16 05:07:23 Terrasse 8.30 7.79 99.90
20149 2020-01-16 04:36:28 Terrasse 8.30 7.79 99.90
20148 2020-01-16 04:05:31 Terrasse 8.40 7.90 99.90
20147 2020-01-16 03:34:34 Terrasse 8.50 8.01 99.90
20146 2020-01-16 03:03:37 Terrasse 8.50 8.01 99.90
20145 2020-01-16 02:32:41 Terrasse 8.60 8.12 99.90
20144 2020-01-16 02:01:44 Terrasse 8.60 8.12 99.90
20143 2020-01-16 01:30:49 Terrasse 8.90 8.45 99.90
20142 2020-01-16 00:59:52 Terrasse 9.00 8.56 99.90
20141 2020-01-16 00:28:57 Terrasse 9.20 8.78 99.90
20140 2020-01-15 23:58:00 Terrasse 9.30 8.89 99.90
20139 2020-01-15 23:27:03 Terrasse 9.40 9.00 99.90
20138 2020-01-15 22:56:08 Terrasse 9.60 9.22 99.90
20137 2020-01-15 22:25:11 Terrasse 9.60 9.22 99.90
20136 2020-01-15 21:54:14 Terrasse 9.60 9.22 99.90
20135 2020-01-15 21:23:18 Terrasse 9.80 9.44 99.90
20134 2020-01-15 20:52:22 Terrasse 9.90 9.55 99.90
20133 2020-01-15 20:21:24 Terrasse 9.90 9.55 99.90
20132 2020-01-15 19:50:27 Terrasse 10.10 9.77 99.90
20131 2020-01-15 19:19:31 Terrasse 10.20 9.88 99.90
20130 2020-01-15 18:48:34 Terrasse 10.40 10.10 99.90
20129 2020-01-15 18:17:38 Terrasse 10.60 10.26 97.40
20128 2020-01-15 17:46:42 Terrasse 10.70 10.37 97.60
20127 2020-01-15 17:15:46 Terrasse 10.90 10.65 99.90
20126 2020-01-15 16:44:51 Terrasse 11.30 10.90 92.60
20125 2020-01-15 16:14:00 Terrasse 12.00 11.20 74.50
20124 2020-01-15 15:43:18 Terrasse 14.10 13.31 66.70
20123 2020-01-15 15:12:37 Terrasse 15.60 15.05 70.30
20122 2020-01-15 14:41:46 Terrasse 16.80 16.27 66.40
20121 2020-01-15 14:10:49 Terrasse 16.30 15.82 70.20
20120 2020-01-15 13:39:23 Terrasse 13.70 13.55 92.70
20119 2020-01-15 13:08:55 Terrasse 14.40 13.92 77.50
20118 2020-01-15 12:38:15 Terrasse 15.20 14.64 71.30
20117 2020-01-15 12:07:14 Terrasse 14.70 14.30 79.30
20116 2020-01-15 11:35:57 Terrasse 12.70 12.45 92.80
20115 2020-01-15 11:04:29 Terrasse 10.10 9.77 99.90
20114 2020-01-15 10:33:28 Terrasse 9.50 9.11 99.90
20113 2020-01-15 10:02:18 Terrasse 8.30 7.79 99.90
20112 2020-01-15 09:31:06 Terrasse 5.70 4.93 99.90
20111 2020-01-15 09:00:08 Terrasse 5.30 4.49 99.90
20110 2020-01-15 08:29:13 Terrasse 5.40 4.60 99.90
20109 2020-01-15 07:58:18 Terrasse 5.70 4.93 99.90
20108 2020-01-15 07:27:23 Terrasse 6.10 5.37 99.90
20107 2020-01-15 06:56:30 Terrasse 6.50 5.81 99.90
20106 2020-01-15 06:25:34 Terrasse 6.80 6.14 99.90
20105 2020-01-15 05:54:39 Terrasse 7.00 6.36 99.90
20104 2020-01-15 05:23:47 Terrasse 7.60 7.02 99.90
20103 2020-01-15 04:52:52 Terrasse 8.00 7.46 99.90
20102 2020-01-15 04:21:56 Terrasse 8.10 7.57 99.90
20101 2020-01-15 03:50:59 Terrasse 8.10 7.57 99.90
20100 2020-01-15 03:20:01 Terrasse 7.90 7.35 99.90
20099 2020-01-15 02:49:03 Terrasse 7.60 7.02 99.90
20098 2020-01-15 02:18:06 Terrasse 7.50 6.91 99.90
20097 2020-01-15 01:47:11 Terrasse 7.60 7.02 99.90
20096 2020-01-15 01:16:11 Terrasse 7.40 6.80 99.90
20095 2020-01-15 00:45:15 Terrasse 7.40 6.80 99.90
20094 2020-01-15 00:14:19 Terrasse 7.60 7.02 99.90
20093 2020-01-14 23:43:21 Terrasse 7.60 7.02 99.90
20092 2020-01-14 23:12:22 Terrasse 7.30 6.69 99.90
20091 2020-01-14 22:41:24 Terrasse 7.00 6.36 99.90
20090 2020-01-14 22:10:29 Terrasse 7.10 6.47 99.90
20089 2020-01-14 21:39:35 Terrasse 7.70 7.13 99.90
20088 2020-01-14 21:08:42 Terrasse 8.10 7.57 99.90
20087 2020-01-14 20:37:44 Terrasse 8.40 7.90 99.90
20086 2020-01-14 20:06:46 Terrasse 8.20 7.68 99.90
20085 2020-01-14 19:35:46 Terrasse 8.10 7.57 99.90
20084 2020-01-14 19:04:48 Terrasse 7.90 7.35 99.90
20083 2020-01-14 18:33:49 Terrasse 7.60 7.02 99.90
20082 2020-01-14 18:02:52 Terrasse 7.40 6.80 99.90
20081 2020-01-14 17:31:56 Terrasse 7.30 6.69 99.90
20080 2020-01-14 17:00:59 Terrasse 7.30 6.69 99.90
20079 2020-01-14 16:30:03 Terrasse 7.50 6.91 99.90
20078 2020-01-14 15:59:11 Terrasse 7.90 7.35 99.90
20077 2020-01-14 15:28:16 Terrasse 8.20 7.68 99.90
20076 2020-01-14 14:57:19 Terrasse 8.20 7.68 99.90
20075 2020-01-14 14:26:21 Terrasse 8.10 7.57 99.90
20074 2020-01-14 13:55:24 Terrasse 8.00 7.46 99.90
20073 2020-01-14 13:24:27 Terrasse 7.70 7.13 99.90
20072 2020-01-14 12:22:41 Terrasse 7.10 6.47 99.90
20071 2020-01-14 11:51:44 Terrasse 6.80 6.14 99.90
20070 2020-01-14 11:20:47 Terrasse 6.60 5.92 99.90
20069 2020-01-14 10:49:46 Terrasse 6.00 5.26 99.90
20068 2020-01-14 10:18:46 Terrasse 5.20 4.38 99.90
20067 2020-01-14 09:47:47 Terrasse 4.80 3.94 99.90
20066 2020-01-14 09:16:50 Terrasse 4.40 3.50 99.90
20065 2020-01-14 08:45:51 Terrasse 4.10 3.17 99.90
20064 2020-01-14 08:14:56 Terrasse 4.10 3.17 99.90
20063 2020-01-14 07:43:59 Terrasse 4.10 3.17 99.90
20062 2020-01-14 07:13:12 Terrasse 4.20 3.28 99.90
20061 2020-01-14 06:42:17 Terrasse 4.20 3.28 99.90
20060 2020-01-14 06:11:21 Terrasse 4.20 3.28 99.90
20059 2020-01-14 05:40:26 Terrasse 4.30 3.39 99.90
20058 2020-01-14 05:09:31 Terrasse 4.50 3.61 99.90
20057 2020-01-14 04:38:34 Terrasse 4.60 3.72 99.90
20056 2020-01-14 04:07:39 Terrasse 4.70 3.83 99.90
20055 2020-01-14 03:36:45 Terrasse 4.70 3.83 99.90
20054 2020-01-14 03:05:49 Terrasse 4.80 3.94 99.90
20053 2020-01-14 02:34:53 Terrasse 4.80 3.94 99.90
20052 2020-01-14 02:03:58 Terrasse 4.90 4.05 99.90
20051 2020-01-14 01:33:01 Terrasse 4.90 4.05 99.90
20050 2020-01-14 01:02:05 Terrasse 4.90 4.05 99.90
20049 2020-01-14 00:31:11 Terrasse 4.90 4.05 99.90
20048 2020-01-14 00:00:14 Terrasse 4.90 4.05 99.90
20047 2020-01-13 23:29:17 Terrasse 4.80 3.94 99.90
20046 2020-01-13 22:58:21 Terrasse 4.80 3.94 99.90
20045 2020-01-13 22:27:24 Terrasse 4.80 3.94 99.90
20044 2020-01-13 21:56:28 Terrasse 4.80 3.94 99.90
20043 2020-01-13 21:25:30 Terrasse 4.80 3.94 99.90
20042 2020-01-13 20:54:35 Terrasse 4.80 3.94 99.90
20041 2020-01-13 20:23:39 Terrasse 4.70 3.83 99.90
20040 2020-01-13 19:52:45 Terrasse 4.70 3.83 99.90
20039 2020-01-13 19:21:49 Terrasse 4.70 3.83 99.90
20038 2020-01-13 18:50:52 Terrasse 4.70 3.83 99.90
20037 2020-01-13 18:19:57 Terrasse 4.70 3.83 99.90
20036 2020-01-13 17:49:02 Terrasse 4.80 3.94 99.90
20035 2020-01-13 17:18:05 Terrasse 4.80 3.94 99.90
20034 2020-01-13 16:47:10 Terrasse 4.80 3.94 99.90
20033 2020-01-13 16:16:14 Terrasse 4.80 3.94 99.90
20032 2020-01-13 15:45:19 Terrasse 4.80 3.94 99.90
20031 2020-01-13 15:14:22 Terrasse 4.80 3.94 99.90
20030 2020-01-13 14:43:29 Terrasse 5.00 4.16 99.90
20029 2020-01-13 14:12:33 Terrasse 5.00 4.16 99.90
20028 2020-01-13 13:41:38 Terrasse 5.10 4.27 99.90
20027 2020-01-13 13:10:42 Terrasse 5.20 4.38 99.90
20026 2020-01-13 12:39:42 Terrasse 4.90 4.05 99.90
20025 2020-01-13 12:08:44 Terrasse 4.80 3.94 99.90
20024 2020-01-13 11:37:46 Terrasse 4.60 3.72 99.90
20023 2020-01-13 11:06:47 Terrasse 4.40 3.50 99.90
20022 2020-01-13 10:35:50 Terrasse 4.30 3.39 99.90
20021 2020-01-13 10:04:53 Terrasse 4.10 3.17 99.90
20020 2020-01-13 09:33:56 Terrasse 4.00 3.06 99.90
20019 2020-01-13 09:03:00 Terrasse 3.90 2.95 99.90
20018 2020-01-13 08:32:05 Terrasse 4.00 3.06 99.90
20017 2020-01-13 08:01:09 Terrasse 4.00 3.06 99.90
20016 2020-01-13 07:30:18 Terrasse 4.00 3.06 99.90
20015 2020-01-13 06:59:21 Terrasse 4.00 3.06 99.90
20014 2020-01-13 06:28:25 Terrasse 4.00 3.06 99.90
20013 2020-01-13 05:57:30 Terrasse 4.00 3.06 99.90
20012 2020-01-13 05:26:35 Terrasse 4.00 3.06 99.90
20011 2020-01-13 04:55:39 Terrasse 4.10 3.17 99.90
20010 2020-01-13 04:24:43 Terrasse 4.10 3.17 99.90
20009 2020-01-13 03:53:46 Terrasse 4.10 3.17 99.90
20008 2020-01-13 03:22:51 Terrasse 4.10 3.17 99.90
20007 2020-01-13 02:51:55 Terrasse 4.10 3.17 99.90
20006 2020-01-13 02:21:00 Terrasse 4.10 3.17 99.90
20005 2020-01-13 01:50:04 Terrasse 4.10 3.17 99.90
20004 2020-01-13 01:19:07 Terrasse 4.00 3.06 99.90
20003 2020-01-13 00:48:10 Terrasse 4.00 3.06 99.90
20002 2020-01-13 00:17:16 Terrasse 3.90 2.95 99.90
20001 2020-01-12 23:46:20 Terrasse 3.80 2.84 99.90
20000 2020-01-12 23:15:24 Terrasse 3.70 2.73 99.90
19999 2020-01-12 22:44:30 Terrasse 3.70 2.73 99.90
19998 2020-01-12 22:13:33 Terrasse 3.70 2.73 99.90
19997 2020-01-12 21:42:38 Terrasse 3.70 2.73 99.90
19996 2020-01-12 21:11:43 Terrasse 3.70 2.73 99.90
19995 2020-01-12 20:40:47 Terrasse 3.70 2.73 99.90
19994 2020-01-12 20:09:50 Terrasse 3.70 2.73 99.90
19993 2020-01-12 19:38:55 Terrasse 3.70 2.73 99.90
19992 2020-01-12 19:08:00 Terrasse 3.60 2.62 99.90
19991 2020-01-12 18:37:03 Terrasse 3.60 2.62 99.90
19990 2020-01-12 18:06:08 Terrasse 3.60 2.62 99.90
19989 2020-01-12 17:35:14 Terrasse 3.60 2.62 99.90
19988 2020-01-12 17:04:19 Terrasse 3.70 2.73 99.90
19987 2020-01-12 16:33:26 Terrasse 4.00 3.06 99.90
19986 2020-01-12 16:02:29 Terrasse 4.00 3.06 99.90
19985 2020-01-12 15:31:34 Terrasse 3.90 2.95 99.90
19984 2020-01-12 15:00:39 Terrasse 3.90 2.95 99.90
19983 2020-01-12 14:29:45 Terrasse 3.90 2.95 99.90
19982 2020-01-12 13:58:51 Terrasse 3.90 2.95 99.90
19981 2020-01-12 13:27:53 Terrasse 3.80 2.84 99.90
19980 2020-01-12 12:56:54 Terrasse 3.30 2.29 99.90
19979 2020-01-12 12:25:57 Terrasse 3.00 1.96 99.90
19978 2020-01-12 11:55:03 Terrasse 2.80 1.74 99.90
19977 2020-01-12 11:24:07 Terrasse 2.60 1.52 99.90
19976 2020-01-12 10:53:10 Terrasse 2.30 1.19 99.90
19975 2020-01-12 10:22:12 Terrasse 1.90 0.75 99.90
19974 2020-01-12 09:51:16 Terrasse 1.80 0.64 99.90
19973 2020-01-12 09:20:19 Terrasse 1.40 0.20 99.90
19972 2020-01-12 08:49:30 Terrasse 1.20 -0.02 99.90
19971 2020-01-12 08:18:33 Terrasse 1.10 -0.13 99.90
19970 2020-01-12 07:47:38 Terrasse 1.10 -0.13 99.90
19969 2020-01-12 07:16:44 Terrasse 1.00 -0.24 99.90
19968 2020-01-12 06:46:00 Terrasse 0.90 -0.35 99.90
19967 2020-01-12 06:14:58 Terrasse 0.70 -0.57 99.90
19966 2020-01-12 05:44:01 Terrasse 0.40 -0.90 99.90
19965 2020-01-12 05:13:03 Terrasse -0.10 -1.45 99.90
19964 2020-01-12 04:42:10 Terrasse 0.00 -1.34 99.90
19963 2020-01-12 04:11:18 Terrasse 0.10 -1.23 99.90
19962 2020-01-12 03:40:24 Terrasse 0.10 -1.23 99.90
19961 2020-01-12 03:09:29 Terrasse 0.00 -1.34 99.90
19960 2020-01-12 02:38:35 Terrasse 0.40 -0.90 99.90
19959 2020-01-12 02:07:42 Terrasse 0.20 -1.12 99.90
19958 2020-01-12 01:36:48 Terrasse 0.40 -0.90 99.90
19957 2020-01-12 01:05:53 Terrasse 0.50 -0.79 99.90
19956 2020-01-12 00:35:00 Terrasse 0.60 -0.68 99.90
19955 2020-01-12 00:04:09 Terrasse 0.80 -0.46 99.90
19954 2020-01-11 23:33:16 Terrasse 0.80 -0.46 99.90
19953 2020-01-11 23:02:24 Terrasse 1.10 -0.13 99.90
19952 2020-01-11 22:31:31 Terrasse 1.40 0.20 99.90
19951 2020-01-11 22:00:39 Terrasse 1.80 0.64 99.90
19950 2020-01-11 21:29:48 Terrasse 2.20 1.08 99.90
19949 2020-01-11 20:58:57 Terrasse 2.80 1.74 99.90
19948 2020-01-11 20:28:05 Terrasse 3.10 2.07 99.90
19947 2020-01-11 19:57:11 Terrasse 3.30 2.29 99.90
19946 2020-01-11 19:26:17 Terrasse 3.50 2.51 99.90
19945 2020-01-11 18:55:24 Terrasse 3.70 2.73 99.90
19944 2020-01-11 18:24:29 Terrasse 3.90 2.95 99.90
19943 2020-01-11 17:53:36 Terrasse 4.00 3.06 99.90
19942 2020-01-11 17:22:41 Terrasse 4.20 3.28 99.90
19941 2020-01-11 16:51:48 Terrasse 4.50 3.61 99.90
19940 2020-01-11 16:20:58 Terrasse 5.00 4.16 99.90
19939 2020-01-11 15:50:04 Terrasse 5.40 4.60 99.90
19938 2020-01-11 15:19:11 Terrasse 5.90 5.15 99.90
19937 2020-01-11 14:48:21 Terrasse 6.20 5.48 99.90
19936 2020-01-11 14:17:35 Terrasse 7.40 6.68 95.10
19935 2020-01-11 13:46:52 Terrasse 8.70 8.23 99.90
19934 2020-01-11 13:15:53 Terrasse 8.60 7.89 91.00
19933 2020-01-11 12:45:10 Terrasse 10.50 9.54 74.10
19932 2020-01-11 12:14:12 Terrasse 10.70 10.43 99.90
19931 2020-01-11 11:43:11 Terrasse 9.90 9.55 99.90
19930 2020-01-11 11:11:48 Terrasse 7.40 6.80 99.90
19929 2020-01-11 10:40:30 Terrasse 5.20 4.38 99.90
19928 2020-01-11 10:09:21 Terrasse 3.10 2.07 99.90
19927 2020-01-11 09:38:20 Terrasse 2.10 0.97 99.90
19926 2020-01-11 09:07:22 Terrasse 1.60 0.42 99.90
19925 2020-01-11 08:36:27 Terrasse 1.60 0.42 99.90
19924 2020-01-11 08:05:33 Terrasse 1.80 0.64 99.90
19923 2020-01-11 07:34:38 Terrasse 1.80 0.64 99.90
19922 2020-01-11 07:03:44 Terrasse 2.10 0.97 99.90
19921 2020-01-11 06:32:51 Terrasse 2.30 1.19 99.90
19920 2020-01-11 06:01:57 Terrasse 2.70 1.63 99.90
19919 2020-01-11 05:31:03 Terrasse 2.60 1.52 99.90
19918 2020-01-11 05:00:09 Terrasse 2.60 1.52 99.90
19917 2020-01-11 04:29:16 Terrasse 2.80 1.74 99.90
19916 2020-01-11 03:58:25 Terrasse 3.10 2.07 99.90
19915 2020-01-11 03:27:30 Terrasse 3.30 2.29 99.90
19914 2020-01-11 02:56:35 Terrasse 3.40 2.40 99.90
19913 2020-01-11 02:25:42 Terrasse 3.80 2.84 99.90
19912 2020-01-11 01:54:48 Terrasse 3.90 2.95 99.90
19911 2020-01-11 01:23:52 Terrasse 3.80 2.84 99.90
19910 2020-01-11 00:52:58 Terrasse 3.90 2.95 99.90
19909 2020-01-11 00:22:04 Terrasse 4.20 3.28 99.90
19908 2020-01-10 23:51:10 Terrasse 4.30 3.39 99.90
19907 2020-01-10 23:20:13 Terrasse 4.10 3.17 99.90
19906 2020-01-10 22:49:19 Terrasse 4.20 3.28 99.90
19905 2020-01-10 22:18:27 Terrasse 4.40 3.50 99.90